<?xml version="1.0" encoding="UTF-8"?>
<gpx version="1.1" creator="https://www.youtrack.es" xsi:schemaLocation="http://www.topografix.com/GPX/1/1 http://www.topografix.com/GPX/1/1/gpx.xsd http://www.garmin.com/xmlschemas/GpxExtensions/v3 http://www.garmin.com/xmlschemas/GpxExtensionsv3.xsd http://www.garmin.com/xmlschemas/TrackPointExtension/v1 http://www.garmin.com/xmlschemas/TrackPointExtensionv1.xsd" xmlns:gpxtpx="http://www.garmin.com/xmlschemas/TrackPointExtension/v1" xmlns:gpxx="http://www.garmin.com/xmlschemas/GpxExtensions/v3" xmlns:xsi="http://www.w3.org/2001/XMLSchema-instance">
  <metadata>
    <link href="https://www.youtrack.es">
      <text>YouTrack.es</text>
    </link>
    <time>2026-05-09T01:13:27Z</time>
  </metadata>
  <trk>
    <src>https://www.youtrack.es</src>
    <link href="https://www.youtrack.es/ruta/9550-la-riba">
      <text>YouTrack.es</text>
    </link>
    <trkseg>
      <trkpt lat="41.316030" lon="1.180630">
        <ele>247.00</ele>
        <time>2018-10-04T03:46:45.74Z</time>
      </trkpt>
      <trkpt lat="41.315910" lon="1.180600">
        <ele>247.00</ele>
        <time>2018-10-04T03:46:46.55Z</time>
      </trkpt>
      <trkpt lat="41.315820" lon="1.180620">
        <ele>248.00</ele>
        <time>2018-10-04T03:46:47.16Z</time>
      </trkpt>
      <trkpt lat="41.315720" lon="1.180720">
        <ele>250.00</ele>
        <time>2018-10-04T03:46:47.99Z</time>
      </trkpt>
      <trkpt lat="41.315740" lon="1.180810">
        <ele>252.00</ele>
        <time>2018-10-04T03:46:48.46Z</time>
      </trkpt>
      <trkpt lat="41.315910" lon="1.180870">
        <ele>253.00</ele>
        <time>2018-10-04T03:46:49.63Z</time>
      </trkpt>
      <trkpt lat="41.315610" lon="1.181210">
        <ele>262.00</ele>
        <time>2018-10-04T03:46:52.26Z</time>
      </trkpt>
      <trkpt lat="41.315500" lon="1.181280">
        <ele>264.00</ele>
        <time>2018-10-04T03:46:53.07Z</time>
      </trkpt>
      <trkpt lat="41.315410" lon="1.181210">
        <ele>262.00</ele>
        <time>2018-10-04T03:46:53.77Z</time>
      </trkpt>
      <trkpt lat="41.315300" lon="1.181270">
        <ele>263.00</ele>
        <time>2018-10-04T03:46:54.56Z</time>
      </trkpt>
      <trkpt lat="41.315200" lon="1.181500">
        <ele>269.00</ele>
        <time>2018-10-04T03:46:55.89Z</time>
      </trkpt>
      <trkpt lat="41.314990" lon="1.181850">
        <ele>277.00</ele>
        <time>2018-10-04T03:46:58.13Z</time>
      </trkpt>
      <trkpt lat="41.314840" lon="1.182060">
        <ele>281.00</ele>
        <time>2018-10-04T03:46:59.59Z</time>
      </trkpt>
      <trkpt lat="41.314760" lon="1.182180">
        <ele>284.00</ele>
        <time>2018-10-04T03:47:00.39Z</time>
      </trkpt>
      <trkpt lat="41.314600" lon="1.182450">
        <ele>289.00</ele>
        <time>2018-10-04T03:47:02.11Z</time>
      </trkpt>
      <trkpt lat="41.314570" lon="1.182760">
        <ele>295.00</ele>
        <time>2018-10-04T03:47:03.68Z</time>
      </trkpt>
      <trkpt lat="41.314550" lon="1.183010">
        <ele>301.00</ele>
        <time>2018-10-04T03:47:04.93Z</time>
      </trkpt>
      <trkpt lat="41.314490" lon="1.183300">
        <ele>307.00</ele>
        <time>2018-10-04T03:47:06.44Z</time>
      </trkpt>
      <trkpt lat="41.314410" lon="1.183560">
        <ele>312.00</ele>
        <time>2018-10-04T03:47:07.85Z</time>
      </trkpt>
      <trkpt lat="41.314390" lon="1.183880">
        <ele>319.00</ele>
        <time>2018-10-04T03:47:09.46Z</time>
      </trkpt>
      <trkpt lat="41.314470" lon="1.184080">
        <ele>323.00</ele>
        <time>2018-10-04T03:47:10.59Z</time>
      </trkpt>
      <trkpt lat="41.314530" lon="1.184320">
        <ele>329.00</ele>
        <time>2018-10-04T03:47:11.86Z</time>
      </trkpt>
      <trkpt lat="41.314600" lon="1.184200">
        <ele>326.00</ele>
        <time>2018-10-04T03:47:12.62Z</time>
      </trkpt>
      <trkpt lat="41.314710" lon="1.184290">
        <ele>330.00</ele>
        <time>2018-10-04T03:47:13.48Z</time>
      </trkpt>
      <trkpt lat="41.314890" lon="1.184510">
        <ele>339.00</ele>
        <time>2018-10-04T03:47:15.11Z</time>
      </trkpt>
      <trkpt lat="41.315050" lon="1.184750">
        <ele>350.00</ele>
        <time>2018-10-04T03:47:16.71Z</time>
      </trkpt>
      <trkpt lat="41.315350" lon="1.185130">
        <ele>372.00</ele>
        <time>2018-10-04T03:47:19.47Z</time>
      </trkpt>
      <trkpt lat="41.315350" lon="1.185660">
        <ele>401.00</ele>
        <time>2018-10-04T03:47:22.13Z</time>
      </trkpt>
      <trkpt lat="41.315500" lon="1.185640">
        <ele>403.00</ele>
        <time>2018-10-04T03:47:23.13Z</time>
      </trkpt>
      <trkpt lat="41.315580" lon="1.185580">
        <ele>402.00</ele>
        <time>2018-10-04T03:47:23.75Z</time>
      </trkpt>
      <trkpt lat="41.315750" lon="1.185360">
        <ele>393.00</ele>
        <time>2018-10-04T03:47:25.33Z</time>
      </trkpt>
      <trkpt lat="41.315630" lon="1.185850">
        <ele>417.00</ele>
        <time>2018-10-04T03:47:27.91Z</time>
      </trkpt>
      <trkpt lat="41.315700" lon="1.185820">
        <ele>418.00</ele>
        <time>2018-10-04T03:47:28.40Z</time>
      </trkpt>
      <trkpt lat="41.315740" lon="1.185830">
        <ele>420.00</ele>
        <time>2018-10-04T03:47:28.67Z</time>
      </trkpt>
      <trkpt lat="41.315760" lon="1.185930">
        <ele>423.00</ele>
        <time>2018-10-04T03:47:29.19Z</time>
      </trkpt>
      <trkpt lat="41.315720" lon="1.186070">
        <ele>425.00</ele>
        <time>2018-10-04T03:47:29.94Z</time>
      </trkpt>
      <trkpt lat="41.315700" lon="1.186280">
        <ele>429.00</ele>
        <time>2018-10-04T03:47:31Z</time>
      </trkpt>
      <trkpt lat="41.315680" lon="1.186440">
        <ele>432.00</ele>
        <time>2018-10-04T03:47:31.81Z</time>
      </trkpt>
      <trkpt lat="41.315760" lon="1.186430">
        <ele>433.00</ele>
        <time>2018-10-04T03:47:32.34Z</time>
      </trkpt>
      <trkpt lat="41.315820" lon="1.186320">
        <ele>432.00</ele>
        <time>2018-10-04T03:47:33.03Z</time>
      </trkpt>
      <trkpt lat="41.315870" lon="1.186160">
        <ele>427.00</ele>
        <time>2018-10-04T03:47:33.89Z</time>
      </trkpt>
      <trkpt lat="41.315910" lon="1.186000">
        <ele>421.00</ele>
        <time>2018-10-04T03:47:34.74Z</time>
      </trkpt>
      <trkpt lat="41.315970" lon="1.185880">
        <ele>415.00</ele>
        <time>2018-10-04T03:47:35.46Z</time>
      </trkpt>
      <trkpt lat="41.316120" lon="1.185840">
        <ele>405.00</ele>
        <time>2018-10-04T03:47:36.48Z</time>
      </trkpt>
      <trkpt lat="41.316220" lon="1.185910">
        <ele>400.00</ele>
        <time>2018-10-04T03:47:37.23Z</time>
      </trkpt>
      <trkpt lat="41.316290" lon="1.185890">
        <ele>395.00</ele>
        <time>2018-10-04T03:47:37.71Z</time>
      </trkpt>
      <trkpt lat="41.316440" lon="1.186040">
        <ele>389.00</ele>
        <time>2018-10-04T03:47:38.96Z</time>
      </trkpt>
      <trkpt lat="41.316440" lon="1.186210">
        <ele>392.00</ele>
        <time>2018-10-04T03:47:39.81Z</time>
      </trkpt>
      <trkpt lat="41.316430" lon="1.186450">
        <ele>397.00</ele>
        <time>2018-10-04T03:47:41.02Z</time>
      </trkpt>
      <trkpt lat="41.316450" lon="1.186610">
        <ele>399.00</ele>
        <time>2018-10-04T03:47:41.83Z</time>
      </trkpt>
      <trkpt lat="41.316400" lon="1.186910">
        <ele>406.00</ele>
        <time>2018-10-04T03:47:43.37Z</time>
      </trkpt>
      <trkpt lat="41.316350" lon="1.187070">
        <ele>411.00</ele>
        <time>2018-10-04T03:47:44.23Z</time>
      </trkpt>
      <trkpt lat="41.316260" lon="1.187250">
        <ele>419.00</ele>
        <time>2018-10-04T03:47:45.32Z</time>
      </trkpt>
      <trkpt lat="41.316160" lon="1.187460">
        <ele>428.00</ele>
        <time>2018-10-04T03:47:46.56Z</time>
      </trkpt>
      <trkpt lat="41.316100" lon="1.187630">
        <ele>435.00</ele>
        <time>2018-10-04T03:47:47.50Z</time>
      </trkpt>
      <trkpt lat="41.316080" lon="1.187850">
        <ele>440.00</ele>
        <time>2018-10-04T03:47:48.61Z</time>
      </trkpt>
      <trkpt lat="41.316050" lon="1.188070">
        <ele>446.00</ele>
        <time>2018-10-04T03:47:49.73Z</time>
      </trkpt>
      <trkpt lat="41.316190" lon="1.188330">
        <ele>441.00</ele>
        <time>2018-10-04T03:47:51.33Z</time>
      </trkpt>
      <trkpt lat="41.316240" lon="1.188680">
        <ele>437.00</ele>
        <time>2018-10-04T03:47:53.12Z</time>
      </trkpt>
      <trkpt lat="41.316200" lon="1.189050">
        <ele>439.00</ele>
        <time>2018-10-04T03:47:54.99Z</time>
      </trkpt>
      <trkpt lat="41.316100" lon="1.189440">
        <ele>447.00</ele>
        <time>2018-10-04T03:47:57.05Z</time>
      </trkpt>
      <trkpt lat="41.316100" lon="1.189710">
        <ele>448.00</ele>
        <time>2018-10-04T03:47:58.40Z</time>
      </trkpt>
      <trkpt lat="41.316140" lon="1.190020">
        <ele>446.00</ele>
        <time>2018-10-04T03:47:59.98Z</time>
      </trkpt>
      <trkpt lat="41.316110" lon="1.190190">
        <ele>449.00</ele>
        <time>2018-10-04T03:48:00.85Z</time>
      </trkpt>
      <trkpt lat="41.316130" lon="1.190370">
        <ele>449.00</ele>
        <time>2018-10-04T03:48:01.76Z</time>
      </trkpt>
      <trkpt lat="41.316230" lon="1.190680">
        <ele>446.00</ele>
        <time>2018-10-04T03:48:03.45Z</time>
      </trkpt>
      <trkpt lat="41.316370" lon="1.190860">
        <ele>441.00</ele>
        <time>2018-10-04T03:48:04.75Z</time>
      </trkpt>
      <trkpt lat="41.316530" lon="1.190980">
        <ele>434.00</ele>
        <time>2018-10-04T03:48:05.98Z</time>
      </trkpt>
      <trkpt lat="41.316680" lon="1.191150">
        <ele>430.00</ele>
        <time>2018-10-04T03:48:07.29Z</time>
      </trkpt>
      <trkpt lat="41.316900" lon="1.191230">
        <ele>428.00</ele>
        <time>2018-10-04T03:48:08.81Z</time>
      </trkpt>
      <trkpt lat="41.317080" lon="1.191320">
        <ele>428.00</ele>
        <time>2018-10-04T03:48:10.09Z</time>
      </trkpt>
      <trkpt lat="41.317230" lon="1.191400">
        <ele>429.00</ele>
        <time>2018-10-04T03:48:11.17Z</time>
      </trkpt>
      <trkpt lat="41.317400" lon="1.191370">
        <ele>427.00</ele>
        <time>2018-10-04T03:48:12.31Z</time>
      </trkpt>
      <trkpt lat="41.317540" lon="1.191460">
        <ele>427.00</ele>
        <time>2018-10-04T03:48:13.35Z</time>
      </trkpt>
      <trkpt lat="41.317610" lon="1.191610">
        <ele>429.00</ele>
        <time>2018-10-04T03:48:14.23Z</time>
      </trkpt>
      <trkpt lat="41.317740" lon="1.191840">
        <ele>429.00</ele>
        <time>2018-10-04T03:48:15.67Z</time>
      </trkpt>
      <trkpt lat="41.318080" lon="1.191950">
        <ele>424.00</ele>
        <time>2018-10-04T03:48:18.01Z</time>
      </trkpt>
      <trkpt lat="41.318300" lon="1.192040">
        <ele>422.00</ele>
        <time>2018-10-04T03:48:19.54Z</time>
      </trkpt>
      <trkpt lat="41.318460" lon="1.192070">
        <ele>423.00</ele>
        <time>2018-10-04T03:48:20.62Z</time>
      </trkpt>
      <trkpt lat="41.318540" lon="1.192000">
        <ele>419.00</ele>
        <time>2018-10-04T03:48:21.26Z</time>
      </trkpt>
      <trkpt lat="41.318660" lon="1.192020">
        <ele>420.00</ele>
        <time>2018-10-04T03:48:22.06Z</time>
      </trkpt>
      <trkpt lat="41.318790" lon="1.192160">
        <ele>426.00</ele>
        <time>2018-10-04T03:48:23.18Z</time>
      </trkpt>
      <trkpt lat="41.318850" lon="1.192420">
        <ele>438.00</ele>
        <time>2018-10-04T03:48:24.54Z</time>
      </trkpt>
      <trkpt lat="41.318870" lon="1.192620">
        <ele>442.00</ele>
        <time>2018-10-04T03:48:25.55Z</time>
      </trkpt>
      <trkpt lat="41.319010" lon="1.192790">
        <ele>442.00</ele>
        <time>2018-10-04T03:48:26.81Z</time>
      </trkpt>
      <trkpt lat="41.319440" lon="1.192910">
        <ele>443.00</ele>
        <time>2018-10-04T03:48:29.74Z</time>
      </trkpt>
      <trkpt lat="41.319680" lon="1.192890">
        <ele>444.00</ele>
        <time>2018-10-04T03:48:31.34Z</time>
      </trkpt>
      <trkpt lat="41.319960" lon="1.192690">
        <ele>444.00</ele>
        <time>2018-10-04T03:48:33.46Z</time>
      </trkpt>
      <trkpt lat="41.320280" lon="1.192620">
        <ele>444.00</ele>
        <time>2018-10-04T03:48:35.62Z</time>
      </trkpt>
      <trkpt lat="41.320560" lon="1.192710">
        <ele>445.00</ele>
        <time>2018-10-04T03:48:37.54Z</time>
      </trkpt>
      <trkpt lat="41.320780" lon="1.192550">
        <ele>443.00</ele>
        <time>2018-10-04T03:48:39.22Z</time>
      </trkpt>
      <trkpt lat="41.321050" lon="1.192590">
        <ele>444.00</ele>
        <time>2018-10-04T03:48:41.03Z</time>
      </trkpt>
      <trkpt lat="41.321210" lon="1.192590">
        <ele>444.00</ele>
        <time>2018-10-04T03:48:42.09Z</time>
      </trkpt>
      <trkpt lat="41.321360" lon="1.192730">
        <ele>447.00</ele>
        <time>2018-10-04T03:48:43.31Z</time>
      </trkpt>
      <trkpt lat="41.321520" lon="1.192720">
        <ele>448.00</ele>
        <time>2018-10-04T03:48:44.38Z</time>
      </trkpt>
      <trkpt lat="41.321680" lon="1.192770">
        <ele>450.00</ele>
        <time>2018-10-04T03:48:45.48Z</time>
      </trkpt>
      <trkpt lat="41.321890" lon="1.192790">
        <ele>449.00</ele>
        <time>2018-10-04T03:48:46.88Z</time>
      </trkpt>
      <trkpt lat="41.322200" lon="1.192920">
        <ele>453.00</ele>
        <time>2018-10-04T03:48:49.05Z</time>
      </trkpt>
      <trkpt lat="41.322550" lon="1.193100">
        <ele>460.00</ele>
        <time>2018-10-04T03:48:51.55Z</time>
      </trkpt>
      <trkpt lat="41.322870" lon="1.193230">
        <ele>461.00</ele>
        <time>2018-10-04T03:48:53.78Z</time>
      </trkpt>
      <trkpt lat="41.322920" lon="1.193400">
        <ele>468.00</ele>
        <time>2018-10-04T03:48:54.69Z</time>
      </trkpt>
      <trkpt lat="41.323070" lon="1.193840">
        <ele>487.00</ele>
        <time>2018-10-04T03:48:57.11Z</time>
      </trkpt>
      <trkpt lat="41.323510" lon="1.193960">
        <ele>491.00</ele>
        <time>2018-10-04T03:49:00.11Z</time>
      </trkpt>
      <trkpt lat="41.323800" lon="1.194270">
        <ele>507.00</ele>
        <time>2018-10-04T03:49:02.59Z</time>
      </trkpt>
      <trkpt lat="41.324360" lon="1.194410">
        <ele>513.00</ele>
        <time>2018-10-04T03:49:06.39Z</time>
      </trkpt>
      <trkpt lat="41.324520" lon="1.194600">
        <ele>522.00</ele>
        <time>2018-10-04T03:49:07.82Z</time>
      </trkpt>
      <trkpt lat="41.325070" lon="1.194770">
        <ele>531.00</ele>
        <time>2018-10-04T03:49:11.58Z</time>
      </trkpt>
      <trkpt lat="41.325500" lon="1.194890">
        <ele>534.00</ele>
        <time>2018-10-04T03:49:14.51Z</time>
      </trkpt>
      <trkpt lat="41.325960" lon="1.195100">
        <ele>538.00</ele>
        <time>2018-10-04T03:49:17.75Z</time>
      </trkpt>
      <trkpt lat="41.327150" lon="1.195640">
        <ele>540.00</ele>
        <time>2018-10-04T03:49:26.13Z</time>
      </trkpt>
      <trkpt lat="41.327620" lon="1.196070">
        <ele>549.00</ele>
        <time>2018-10-04T03:49:29.93Z</time>
      </trkpt>
      <trkpt lat="41.327890" lon="1.196170">
        <ele>548.00</ele>
        <time>2018-10-04T03:49:31.80Z</time>
      </trkpt>
      <trkpt lat="41.327930" lon="1.196280">
        <ele>552.00</ele>
        <time>2018-10-04T03:49:32.41Z</time>
      </trkpt>
      <trkpt lat="41.327920" lon="1.196500">
        <ele>563.00</ele>
        <time>2018-10-04T03:49:33.52Z</time>
      </trkpt>
      <trkpt lat="41.328060" lon="1.196560">
        <ele>562.00</ele>
        <time>2018-10-04T03:49:34.50Z</time>
      </trkpt>
      <trkpt lat="41.328200" lon="1.196640">
        <ele>561.00</ele>
        <time>2018-10-04T03:49:35.51Z</time>
      </trkpt>
      <trkpt lat="41.328280" lon="1.196750">
        <ele>563.00</ele>
        <time>2018-10-04T03:49:36.28Z</time>
      </trkpt>
      <trkpt lat="41.328430" lon="1.196840">
        <ele>562.00</ele>
        <time>2018-10-04T03:49:37.38Z</time>
      </trkpt>
      <trkpt lat="41.328540" lon="1.196910">
        <ele>560.00</ele>
        <time>2018-10-04T03:49:38.19Z</time>
      </trkpt>
      <trkpt lat="41.328640" lon="1.197140">
        <ele>564.00</ele>
        <time>2018-10-04T03:49:39.52Z</time>
      </trkpt>
      <trkpt lat="41.328740" lon="1.197300">
        <ele>565.00</ele>
        <time>2018-10-04T03:49:40.56Z</time>
      </trkpt>
      <trkpt lat="41.328790" lon="1.197430">
        <ele>567.00</ele>
        <time>2018-10-04T03:49:41.29Z</time>
      </trkpt>
      <trkpt lat="41.328810" lon="1.197560">
        <ele>570.00</ele>
        <time>2018-10-04T03:49:41.96Z</time>
      </trkpt>
      <trkpt lat="41.328840" lon="1.197630">
        <ele>570.00</ele>
        <time>2018-10-04T03:49:42.36Z</time>
      </trkpt>
      <trkpt lat="41.328910" lon="1.197590">
        <ele>566.00</ele>
        <time>2018-10-04T03:49:42.87Z</time>
      </trkpt>
      <trkpt lat="41.328980" lon="1.197520">
        <ele>560.00</ele>
        <time>2018-10-04T03:49:43.45Z</time>
      </trkpt>
      <trkpt lat="41.328980" lon="1.197380">
        <ele>556.00</ele>
        <time>2018-10-04T03:49:44.15Z</time>
      </trkpt>
      <trkpt lat="41.328950" lon="1.197310">
        <ele>555.00</ele>
        <time>2018-10-04T03:49:44.56Z</time>
      </trkpt>
      <trkpt lat="41.328870" lon="1.197300">
        <ele>559.00</ele>
        <time>2018-10-04T03:49:45.09Z</time>
      </trkpt>
      <trkpt lat="41.328770" lon="1.197280">
        <ele>563.00</ele>
        <time>2018-10-04T03:49:45.77Z</time>
      </trkpt>
      <trkpt lat="41.328780" lon="1.197220">
        <ele>560.00</ele>
        <time>2018-10-04T03:49:46.07Z</time>
      </trkpt>
      <trkpt lat="41.328840" lon="1.197160">
        <ele>556.00</ele>
        <time>2018-10-04T03:49:46.57Z</time>
      </trkpt>
      <trkpt lat="41.328790" lon="1.197140">
        <ele>557.00</ele>
        <time>2018-10-04T03:49:46.92Z</time>
      </trkpt>
      <trkpt lat="41.328850" lon="1.197090">
        <ele>553.00</ele>
        <time>2018-10-04T03:49:47.39Z</time>
      </trkpt>
      <trkpt lat="41.328870" lon="1.197010">
        <ele>550.00</ele>
        <time>2018-10-04T03:49:47.82Z</time>
      </trkpt>
      <trkpt lat="41.328850" lon="1.196990">
        <ele>550.00</ele>
        <time>2018-10-04T03:49:47.98Z</time>
      </trkpt>
      <trkpt lat="41.328740" lon="1.196980">
        <ele>554.00</ele>
        <time>2018-10-04T03:49:48.72Z</time>
      </trkpt>
      <trkpt lat="41.328740" lon="1.196880">
        <ele>551.00</ele>
        <time>2018-10-04T03:49:49.22Z</time>
      </trkpt>
      <trkpt lat="41.328820" lon="1.196820">
        <ele>546.00</ele>
        <time>2018-10-04T03:49:49.83Z</time>
      </trkpt>
      <trkpt lat="41.328700" lon="1.196800">
        <ele>550.00</ele>
        <time>2018-10-04T03:49:50.64Z</time>
      </trkpt>
      <trkpt lat="41.328530" lon="1.196800">
        <ele>556.00</ele>
        <time>2018-10-04T03:49:51.77Z</time>
      </trkpt>
      <trkpt lat="41.328640" lon="1.196680">
        <ele>548.00</ele>
        <time>2018-10-04T03:49:52.72Z</time>
      </trkpt>
      <trkpt lat="41.328650" lon="1.196640">
        <ele>546.00</ele>
        <time>2018-10-04T03:49:52.93Z</time>
      </trkpt>
      <trkpt lat="41.328670" lon="1.196610">
        <ele>544.00</ele>
        <time>2018-10-04T03:49:53.13Z</time>
      </trkpt>
      <trkpt lat="41.328620" lon="1.196610">
        <ele>546.00</ele>
        <time>2018-10-04T03:49:53.46Z</time>
      </trkpt>
      <trkpt lat="41.328660" lon="1.196580">
        <ele>544.00</ele>
        <time>2018-10-04T03:49:53.77Z</time>
      </trkpt>
      <trkpt lat="41.328590" lon="1.196490">
        <ele>543.00</ele>
        <time>2018-10-04T03:49:54.42Z</time>
      </trkpt>
      <trkpt lat="41.328660" lon="1.196440">
        <ele>539.00</ele>
        <time>2018-10-04T03:49:54.95Z</time>
      </trkpt>
      <trkpt lat="41.328570" lon="1.196410">
        <ele>540.00</ele>
        <time>2018-10-04T03:49:55.57Z</time>
      </trkpt>
      <trkpt lat="41.328640" lon="1.196310">
        <ele>534.00</ele>
        <time>2018-10-04T03:49:56.25Z</time>
      </trkpt>
      <trkpt lat="41.328630" lon="1.196250">
        <ele>533.00</ele>
        <time>2018-10-04T03:49:56.56Z</time>
      </trkpt>
      <trkpt lat="41.328550" lon="1.196240">
        <ele>535.00</ele>
        <time>2018-10-04T03:49:57.09Z</time>
      </trkpt>
      <trkpt lat="41.328580" lon="1.196190">
        <ele>532.00</ele>
        <time>2018-10-04T03:49:57.41Z</time>
      </trkpt>
      <trkpt lat="41.328580" lon="1.196140">
        <ele>530.00</ele>
        <time>2018-10-04T03:49:57.66Z</time>
      </trkpt>
      <trkpt lat="41.328560" lon="1.196130">
        <ele>530.00</ele>
        <time>2018-10-04T03:49:57.81Z</time>
      </trkpt>
      <trkpt lat="41.328560" lon="1.196100">
        <ele>529.00</ele>
        <time>2018-10-04T03:49:57.96Z</time>
      </trkpt>
      <trkpt lat="41.328520" lon="1.196010">
        <ele>527.00</ele>
        <time>2018-10-04T03:49:58.48Z</time>
      </trkpt>
      <trkpt lat="41.328580" lon="1.195910">
        <ele>522.00</ele>
        <time>2018-10-04T03:49:59.12Z</time>
      </trkpt>
      <trkpt lat="41.328630" lon="1.195830">
        <ele>518.00</ele>
        <time>2018-10-04T03:49:59.64Z</time>
      </trkpt>
      <trkpt lat="41.328670" lon="1.195730">
        <ele>514.00</ele>
        <time>2018-10-04T03:50:00.21Z</time>
      </trkpt>
      <trkpt lat="41.328680" lon="1.195690">
        <ele>513.00</ele>
        <time>2018-10-04T03:50:00.42Z</time>
      </trkpt>
      <trkpt lat="41.328690" lon="1.195660">
        <ele>511.00</ele>
        <time>2018-10-04T03:50:00.59Z</time>
      </trkpt>
      <trkpt lat="41.328790" lon="1.195520">
        <ele>505.00</ele>
        <time>2018-10-04T03:50:01.55Z</time>
      </trkpt>
      <trkpt lat="41.328870" lon="1.195440">
        <ele>502.00</ele>
        <time>2018-10-04T03:50:02.22Z</time>
      </trkpt>
      <trkpt lat="41.328880" lon="1.195380">
        <ele>500.00</ele>
        <time>2018-10-04T03:50:02.53Z</time>
      </trkpt>
      <trkpt lat="41.329080" lon="1.195330">
        <ele>496.00</ele>
        <time>2018-10-04T03:50:03.88Z</time>
      </trkpt>
      <trkpt lat="41.329230" lon="1.195270">
        <ele>492.00</ele>
        <time>2018-10-04T03:50:04.93Z</time>
      </trkpt>
      <trkpt lat="41.329340" lon="1.195150">
        <ele>486.00</ele>
        <time>2018-10-04T03:50:05.88Z</time>
      </trkpt>
      <trkpt lat="41.329460" lon="1.195090">
        <ele>483.00</ele>
        <time>2018-10-04T03:50:06.73Z</time>
      </trkpt>
      <trkpt lat="41.329500" lon="1.194930">
        <ele>478.00</ele>
        <time>2018-10-04T03:50:07.57Z</time>
      </trkpt>
      <trkpt lat="41.329600" lon="1.194780">
        <ele>472.00</ele>
        <time>2018-10-04T03:50:08.58Z</time>
      </trkpt>
      <trkpt lat="41.329560" lon="1.194570">
        <ele>468.00</ele>
        <time>2018-10-04T03:50:09.66Z</time>
      </trkpt>
      <trkpt lat="41.329470" lon="1.194370">
        <ele>465.00</ele>
        <time>2018-10-04T03:50:10.83Z</time>
      </trkpt>
      <trkpt lat="41.329370" lon="1.194030">
        <ele>459.00</ele>
        <time>2018-10-04T03:50:12.66Z</time>
      </trkpt>
      <trkpt lat="41.329410" lon="1.193800">
        <ele>452.00</ele>
        <time>2018-10-04T03:50:13.84Z</time>
      </trkpt>
      <trkpt lat="41.329580" lon="1.192940">
        <ele>428.00</ele>
        <time>2018-10-04T03:50:18.29Z</time>
      </trkpt>
      <trkpt lat="41.329580" lon="1.192510">
        <ele>419.00</ele>
        <time>2018-10-04T03:50:20.45Z</time>
      </trkpt>
      <trkpt lat="41.329720" lon="1.192230">
        <ele>413.00</ele>
        <time>2018-10-04T03:50:22.13Z</time>
      </trkpt>
      <trkpt lat="41.329930" lon="1.192240">
        <ele>412.00</ele>
        <time>2018-10-04T03:50:23.53Z</time>
      </trkpt>
      <trkpt lat="41.330190" lon="1.192670">
        <ele>420.00</ele>
        <time>2018-10-04T03:50:26.29Z</time>
      </trkpt>
      <trkpt lat="41.330500" lon="1.192970">
        <ele>426.00</ele>
        <time>2018-10-04T03:50:28.85Z</time>
      </trkpt>
      <trkpt lat="41.330820" lon="1.192780">
        <ele>427.00</ele>
        <time>2018-10-04T03:50:31.18Z</time>
      </trkpt>
      <trkpt lat="41.331300" lon="1.192410">
        <ele>427.00</ele>
        <time>2018-10-04T03:50:34.88Z</time>
      </trkpt>
      <trkpt lat="41.331390" lon="1.192180">
        <ele>423.00</ele>
        <time>2018-10-04T03:50:36.18Z</time>
      </trkpt>
      <trkpt lat="41.331760" lon="1.192070">
        <ele>423.00</ele>
        <time>2018-10-04T03:50:38.71Z</time>
      </trkpt>
      <trkpt lat="41.332010" lon="1.191680">
        <ele>416.00</ele>
        <time>2018-10-04T03:50:41.27Z</time>
      </trkpt>
      <trkpt lat="41.332390" lon="1.191240">
        <ele>406.00</ele>
        <time>2018-10-04T03:50:44.63Z</time>
      </trkpt>
      <trkpt lat="41.332150" lon="1.191170">
        <ele>404.00</ele>
        <time>2018-10-04T03:50:46.27Z</time>
      </trkpt>
      <trkpt lat="41.331850" lon="1.191400">
        <ele>409.00</ele>
        <time>2018-10-04T03:50:48.58Z</time>
      </trkpt>
      <trkpt lat="41.331730" lon="1.191310">
        <ele>407.00</ele>
        <time>2018-10-04T03:50:49.50Z</time>
      </trkpt>
      <trkpt lat="41.331680" lon="1.191230">
        <ele>406.00</ele>
        <time>2018-10-04T03:50:50.02Z</time>
      </trkpt>
      <trkpt lat="41.331780" lon="1.191090">
        <ele>402.00</ele>
        <time>2018-10-04T03:50:50.98Z</time>
      </trkpt>
      <trkpt lat="41.331960" lon="1.190870">
        <ele>397.00</ele>
        <time>2018-10-04T03:50:52.61Z</time>
      </trkpt>
      <trkpt lat="41.331940" lon="1.190550">
        <ele>392.00</ele>
        <time>2018-10-04T03:50:54.22Z</time>
      </trkpt>
      <trkpt lat="41.331920" lon="1.190250">
        <ele>387.00</ele>
        <time>2018-10-04T03:50:55.73Z</time>
      </trkpt>
      <trkpt lat="41.331900" lon="1.189850">
        <ele>382.00</ele>
        <time>2018-10-04T03:50:57.73Z</time>
      </trkpt>
      <trkpt lat="41.331480" lon="1.190000">
        <ele>385.00</ele>
        <time>2018-10-04T03:51:00.63Z</time>
      </trkpt>
      <trkpt lat="41.331330" lon="1.190290">
        <ele>389.00</ele>
        <time>2018-10-04T03:51:02.40Z</time>
      </trkpt>
      <trkpt lat="41.331050" lon="1.190330">
        <ele>388.00</ele>
        <time>2018-10-04T03:51:04.27Z</time>
      </trkpt>
      <trkpt lat="41.330720" lon="1.190370">
        <ele>386.00</ele>
        <time>2018-10-04T03:51:06.48Z</time>
      </trkpt>
      <trkpt lat="41.330550" lon="1.190300">
        <ele>384.00</ele>
        <time>2018-10-04T03:51:07.67Z</time>
      </trkpt>
      <trkpt lat="41.330500" lon="1.190170">
        <ele>381.00</ele>
        <time>2018-10-04T03:51:08.40Z</time>
      </trkpt>
      <trkpt lat="41.330380" lon="1.189900">
        <ele>376.00</ele>
        <time>2018-10-04T03:51:09.97Z</time>
      </trkpt>
      <trkpt lat="41.330300" lon="1.189650">
        <ele>371.00</ele>
        <time>2018-10-04T03:51:11.33Z</time>
      </trkpt>
      <trkpt lat="41.330260" lon="1.189440">
        <ele>367.00</ele>
        <time>2018-10-04T03:51:12.42Z</time>
      </trkpt>
      <trkpt lat="41.330350" lon="1.189220">
        <ele>365.00</ele>
        <time>2018-10-04T03:51:13.67Z</time>
      </trkpt>
      <trkpt lat="41.330480" lon="1.188910">
        <ele>360.00</ele>
        <time>2018-10-04T03:51:15.45Z</time>
      </trkpt>
      <trkpt lat="41.330470" lon="1.188580">
        <ele>352.00</ele>
        <time>2018-10-04T03:51:17.10Z</time>
      </trkpt>
      <trkpt lat="41.330450" lon="1.188220">
        <ele>343.00</ele>
        <time>2018-10-04T03:51:18.91Z</time>
      </trkpt>
      <trkpt lat="41.330500" lon="1.187910">
        <ele>333.00</ele>
        <time>2018-10-04T03:51:20.49Z</time>
      </trkpt>
      <trkpt lat="41.330610" lon="1.187790">
        <ele>329.00</ele>
        <time>2018-10-04T03:51:21.44Z</time>
      </trkpt>
      <trkpt lat="41.330830" lon="1.187890">
        <ele>332.00</ele>
        <time>2018-10-04T03:51:22.99Z</time>
      </trkpt>
      <trkpt lat="41.331080" lon="1.188130">
        <ele>343.00</ele>
        <time>2018-10-04T03:51:25.05Z</time>
      </trkpt>
      <trkpt lat="41.331300" lon="1.187990">
        <ele>340.00</ele>
        <time>2018-10-04T03:51:26.67Z</time>
      </trkpt>
      <trkpt lat="41.331540" lon="1.187840">
        <ele>337.00</ele>
        <time>2018-10-04T03:51:28.44Z</time>
      </trkpt>
      <trkpt lat="41.331840" lon="1.187750">
        <ele>335.00</ele>
        <time>2018-10-04T03:51:30.49Z</time>
      </trkpt>
      <trkpt lat="41.332030" lon="1.187670">
        <ele>333.00</ele>
        <time>2018-10-04T03:51:31.82Z</time>
      </trkpt>
      <trkpt lat="41.332260" lon="1.187500">
        <ele>328.00</ele>
        <time>2018-10-04T03:51:33.57Z</time>
      </trkpt>
      <trkpt lat="41.332520" lon="1.187240">
        <ele>319.00</ele>
        <time>2018-10-04T03:51:35.74Z</time>
      </trkpt>
      <trkpt lat="41.332910" lon="1.187030">
        <ele>310.00</ele>
        <time>2018-10-04T03:51:38.54Z</time>
      </trkpt>
      <trkpt lat="41.333220" lon="1.187030">
        <ele>308.00</ele>
        <time>2018-10-04T03:51:40.61Z</time>
      </trkpt>
      <trkpt lat="41.333560" lon="1.187050">
        <ele>309.00</ele>
        <time>2018-10-04T03:51:42.88Z</time>
      </trkpt>
      <trkpt lat="41.333800" lon="1.187030">
        <ele>310.00</ele>
        <time>2018-10-04T03:51:44.48Z</time>
      </trkpt>
      <trkpt lat="41.334040" lon="1.186840">
        <ele>308.00</ele>
        <time>2018-10-04T03:51:46.34Z</time>
      </trkpt>
      <trkpt lat="41.334490" lon="1.187140">
        <ele>317.00</ele>
        <time>2018-10-04T03:51:49.70Z</time>
      </trkpt>
      <trkpt lat="41.334510" lon="1.187290">
        <ele>320.00</ele>
        <time>2018-10-04T03:51:50.46Z</time>
      </trkpt>
      <trkpt lat="41.334730" lon="1.187340">
        <ele>323.00</ele>
        <time>2018-10-04T03:51:51.95Z</time>
      </trkpt>
      <trkpt lat="41.334990" lon="1.186710">
        <ele>313.00</ele>
        <time>2018-10-04T03:51:55.55Z</time>
      </trkpt>
      <trkpt lat="41.335020" lon="1.186120">
        <ele>304.00</ele>
        <time>2018-10-04T03:51:58.51Z</time>
      </trkpt>
      <trkpt lat="41.335040" lon="1.185540">
        <ele>294.00</ele>
        <time>2018-10-04T03:52:01.41Z</time>
      </trkpt>
      <trkpt lat="41.335120" lon="1.185240">
        <ele>289.00</ele>
        <time>2018-10-04T03:52:03.01Z</time>
      </trkpt>
      <trkpt lat="41.335070" lon="1.185110">
        <ele>287.00</ele>
        <time>2018-10-04T03:52:03.74Z</time>
      </trkpt>
      <trkpt lat="41.334720" lon="1.185100">
        <ele>285.00</ele>
        <time>2018-10-04T03:52:06.07Z</time>
      </trkpt>
      <trkpt lat="41.334900" lon="1.184840">
        <ele>281.00</ele>
        <time>2018-10-04T03:52:07.84Z</time>
      </trkpt>
      <trkpt lat="41.335420" lon="1.184510">
        <ele>274.00</ele>
        <time>2018-10-04T03:52:11.68Z</time>
      </trkpt>
      <trkpt lat="41.335870" lon="1.184340">
        <ele>271.00</ele>
        <time>2018-10-04T03:52:14.80Z</time>
      </trkpt>
      <trkpt lat="41.336190" lon="1.184340">
        <ele>273.00</ele>
        <time>2018-10-04T03:52:16.94Z</time>
      </trkpt>
      <trkpt lat="41.336910" lon="1.183100">
        <ele>253.00</ele>
        <time>2018-10-04T03:52:24.78Z</time>
      </trkpt>
      <trkpt lat="41.337120" lon="1.182640">
        <ele>250.00</ele>
        <time>2018-10-04T03:52:27.48Z</time>
      </trkpt>
      <trkpt lat="41.336860" lon="1.182370">
        <ele>249.00</ele>
        <time>2018-10-04T03:52:29.67Z</time>
      </trkpt>
      <trkpt lat="41.336640" lon="1.182240">
        <ele>249.00</ele>
        <time>2018-10-04T03:52:31.28Z</time>
      </trkpt>
      <trkpt lat="41.336050" lon="1.182230">
        <ele>251.00</ele>
        <time>2018-10-04T03:52:35.21Z</time>
      </trkpt>
      <trkpt lat="41.335620" lon="1.182330">
        <ele>252.00</ele>
        <time>2018-10-04T03:52:38.12Z</time>
      </trkpt>
      <trkpt lat="41.335310" lon="1.182430">
        <ele>253.00</ele>
        <time>2018-10-04T03:52:40.25Z</time>
      </trkpt>
      <trkpt lat="41.334880" lon="1.182690">
        <ele>255.00</ele>
        <time>2018-10-04T03:52:43.40Z</time>
      </trkpt>
      <trkpt lat="41.334440" lon="1.181820">
        <ele>251.00</ele>
        <time>2018-10-04T03:52:48.65Z</time>
      </trkpt>
      <trkpt lat="41.334220" lon="1.181240">
        <ele>250.00</ele>
        <time>2018-10-04T03:52:51.90Z</time>
      </trkpt>
      <trkpt lat="41.333880" lon="1.180590">
        <ele>249.00</ele>
        <time>2018-10-04T03:52:55.87Z</time>
      </trkpt>
      <trkpt lat="41.333750" lon="1.179810">
        <ele>250.00</ele>
        <time>2018-10-04T03:52:59.87Z</time>
      </trkpt>
      <trkpt lat="41.333740" lon="1.179310">
        <ele>250.00</ele>
        <time>2018-10-04T03:53:02.37Z</time>
      </trkpt>
      <trkpt lat="41.333600" lon="1.179010">
        <ele>250.00</ele>
        <time>2018-10-04T03:53:04.14Z</time>
      </trkpt>
      <trkpt lat="41.333620" lon="1.178830">
        <ele>251.00</ele>
        <time>2018-10-04T03:53:05.05Z</time>
      </trkpt>
      <trkpt lat="41.333840" lon="1.178410">
        <ele>253.00</ele>
        <time>2018-10-04T03:53:07.61Z</time>
      </trkpt>
      <trkpt lat="41.334050" lon="1.178160">
        <ele>256.00</ele>
        <time>2018-10-04T03:53:09.49Z</time>
      </trkpt>
      <trkpt lat="41.334250" lon="1.178120">
        <ele>256.00</ele>
        <time>2018-10-04T03:53:10.84Z</time>
      </trkpt>
      <trkpt lat="41.334500" lon="1.178050">
        <ele>257.00</ele>
        <time>2018-10-04T03:53:12.54Z</time>
      </trkpt>
      <trkpt lat="41.334560" lon="1.177970">
        <ele>258.00</ele>
        <time>2018-10-04T03:53:13.11Z</time>
      </trkpt>
      <trkpt lat="41.334580" lon="1.177610">
        <ele>260.00</ele>
        <time>2018-10-04T03:53:14.91Z</time>
      </trkpt>
      <trkpt lat="41.334580" lon="1.177280">
        <ele>263.00</ele>
        <time>2018-10-04T03:53:16.57Z</time>
      </trkpt>
      <trkpt lat="41.334480" lon="1.177060">
        <ele>265.00</ele>
        <time>2018-10-04T03:53:17.85Z</time>
      </trkpt>
      <trkpt lat="41.334820" lon="1.177080">
        <ele>265.00</ele>
        <time>2018-10-04T03:53:20.12Z</time>
      </trkpt>
      <trkpt lat="41.335280" lon="1.176990">
        <ele>266.00</ele>
        <time>2018-10-04T03:53:23.22Z</time>
      </trkpt>
      <trkpt lat="41.335670" lon="1.176990">
        <ele>267.00</ele>
        <time>2018-10-04T03:53:25.82Z</time>
      </trkpt>
      <trkpt lat="41.336360" lon="1.176880">
        <ele>267.00</ele>
        <time>2018-10-04T03:53:30.46Z</time>
      </trkpt>
      <trkpt lat="41.336940" lon="1.176890">
        <ele>267.00</ele>
        <time>2018-10-04T03:53:34.32Z</time>
      </trkpt>
      <trkpt lat="41.337020" lon="1.176710">
        <ele>268.00</ele>
        <time>2018-10-04T03:53:35.37Z</time>
      </trkpt>
      <trkpt lat="41.337980" lon="1.176550">
        <ele>269.00</ele>
        <time>2018-10-04T03:53:41.82Z</time>
      </trkpt>
      <trkpt lat="41.337980" lon="1.176350">
        <ele>273.00</ele>
        <time>2018-10-04T03:53:42.82Z</time>
      </trkpt>
      <trkpt lat="41.337790" lon="1.176280">
        <ele>274.00</ele>
        <time>2018-10-04T03:53:44.13Z</time>
      </trkpt>
      <trkpt lat="41.337340" lon="1.176100">
        <ele>276.00</ele>
        <time>2018-10-04T03:53:47.27Z</time>
      </trkpt>
      <trkpt lat="41.337310" lon="1.175930">
        <ele>278.00</ele>
        <time>2018-10-04T03:53:48.14Z</time>
      </trkpt>
      <trkpt lat="41.337440" lon="1.175690">
        <ele>283.00</ele>
        <time>2018-10-04T03:53:49.62Z</time>
      </trkpt>
      <trkpt lat="41.337560" lon="1.175280">
        <ele>290.00</ele>
        <time>2018-10-04T03:53:51.83Z</time>
      </trkpt>
      <trkpt lat="41.337470" lon="1.174640">
        <ele>289.00</ele>
        <time>2018-10-04T03:53:55.08Z</time>
      </trkpt>
      <trkpt lat="41.337220" lon="1.174130">
        <ele>282.00</ele>
        <time>2018-10-04T03:53:58.13Z</time>
      </trkpt>
      <trkpt lat="41.337130" lon="1.173510">
        <ele>280.00</ele>
        <time>2018-10-04T03:54:01.29Z</time>
      </trkpt>
      <trkpt lat="41.337090" lon="1.172910">
        <ele>282.00</ele>
        <time>2018-10-04T03:54:04.31Z</time>
      </trkpt>
      <trkpt lat="41.337090" lon="1.172630">
        <ele>283.00</ele>
        <time>2018-10-04T03:54:05.71Z</time>
      </trkpt>
      <trkpt lat="41.337090" lon="1.172230">
        <ele>285.00</ele>
        <time>2018-10-04T03:54:07.71Z</time>
      </trkpt>
      <trkpt lat="41.337050" lon="1.171800">
        <ele>287.00</ele>
        <time>2018-10-04T03:54:09.88Z</time>
      </trkpt>
      <trkpt lat="41.337050" lon="1.171400">
        <ele>290.00</ele>
        <time>2018-10-04T03:54:11.88Z</time>
      </trkpt>
      <trkpt lat="41.337050" lon="1.171070">
        <ele>293.00</ele>
        <time>2018-10-04T03:54:13.54Z</time>
      </trkpt>
      <trkpt lat="41.337060" lon="1.170780">
        <ele>295.00</ele>
        <time>2018-10-04T03:54:14.99Z</time>
      </trkpt>
      <trkpt lat="41.337060" lon="1.170480">
        <ele>298.00</ele>
        <time>2018-10-04T03:54:16.49Z</time>
      </trkpt>
      <trkpt lat="41.337040" lon="1.170250">
        <ele>300.00</ele>
        <time>2018-10-04T03:54:17.65Z</time>
      </trkpt>
      <trkpt lat="41.337040" lon="1.170030">
        <ele>301.00</ele>
        <time>2018-10-04T03:54:18.75Z</time>
      </trkpt>
      <trkpt lat="41.337070" lon="1.169740">
        <ele>306.00</ele>
        <time>2018-10-04T03:54:20.22Z</time>
      </trkpt>
      <trkpt lat="41.337130" lon="1.169340">
        <ele>312.00</ele>
        <time>2018-10-04T03:54:22.26Z</time>
      </trkpt>
      <trkpt lat="41.337180" lon="1.169240">
        <ele>313.00</ele>
        <time>2018-10-04T03:54:22.86Z</time>
      </trkpt>
      <trkpt lat="41.337280" lon="1.169190">
        <ele>314.00</ele>
        <time>2018-10-04T03:54:23.57Z</time>
      </trkpt>
      <trkpt lat="41.337370" lon="1.169170">
        <ele>314.00</ele>
        <time>2018-10-04T03:54:24.18Z</time>
      </trkpt>
      <trkpt lat="41.337480" lon="1.169160">
        <ele>315.00</ele>
        <time>2018-10-04T03:54:24.92Z</time>
      </trkpt>
      <trkpt lat="41.337660" lon="1.169100">
        <ele>314.00</ele>
        <time>2018-10-04T03:54:26.15Z</time>
      </trkpt>
      <trkpt lat="41.337740" lon="1.169000">
        <ele>315.00</ele>
        <time>2018-10-04T03:54:26.88Z</time>
      </trkpt>
      <trkpt lat="41.337810" lon="1.169000">
        <ele>314.00</ele>
        <time>2018-10-04T03:54:27.35Z</time>
      </trkpt>
      <trkpt lat="41.338010" lon="1.168880">
        <ele>314.00</ele>
        <time>2018-10-04T03:54:28.81Z</time>
      </trkpt>
      <trkpt lat="41.338210" lon="1.168780">
        <ele>314.00</ele>
        <time>2018-10-04T03:54:30.24Z</time>
      </trkpt>
      <trkpt lat="41.338410" lon="1.168690">
        <ele>314.00</ele>
        <time>2018-10-04T03:54:31.64Z</time>
      </trkpt>
      <trkpt lat="41.338610" lon="1.168600">
        <ele>315.00</ele>
        <time>2018-10-04T03:54:33.05Z</time>
      </trkpt>
      <trkpt lat="41.338880" lon="1.168540">
        <ele>316.00</ele>
        <time>2018-10-04T03:54:34.88Z</time>
      </trkpt>
      <trkpt lat="41.338880" lon="1.168540">
        <ele>316.00</ele>
        <time>2018-10-04T03:54:34.94Z</time>
      </trkpt>
      <trkpt lat="41.338830" lon="1.168430">
        <ele>317.00</ele>
        <time>2018-10-04T03:54:35.58Z</time>
      </trkpt>
      <trkpt lat="41.338820" lon="1.168310">
        <ele>319.00</ele>
        <time>2018-10-04T03:54:36.18Z</time>
      </trkpt>
      <trkpt lat="41.338820" lon="1.168180">
        <ele>321.00</ele>
        <time>2018-10-04T03:54:36.84Z</time>
      </trkpt>
      <trkpt lat="41.338810" lon="1.168040">
        <ele>324.00</ele>
        <time>2018-10-04T03:54:37.54Z</time>
      </trkpt>
      <trkpt lat="41.338740" lon="1.167950">
        <ele>325.00</ele>
        <time>2018-10-04T03:54:38.19Z</time>
      </trkpt>
      <trkpt lat="41.338570" lon="1.167850">
        <ele>326.00</ele>
        <time>2018-10-04T03:54:39.43Z</time>
      </trkpt>
      <trkpt lat="41.338460" lon="1.167830">
        <ele>326.00</ele>
        <time>2018-10-04T03:54:40.17Z</time>
      </trkpt>
      <trkpt lat="41.338370" lon="1.167790">
        <ele>326.00</ele>
        <time>2018-10-04T03:54:40.80Z</time>
      </trkpt>
      <trkpt lat="41.338290" lon="1.167740">
        <ele>327.00</ele>
        <time>2018-10-04T03:54:41.39Z</time>
      </trkpt>
      <trkpt lat="41.338230" lon="1.167640">
        <ele>329.00</ele>
        <time>2018-10-04T03:54:42.03Z</time>
      </trkpt>
      <trkpt lat="41.338180" lon="1.167400">
        <ele>333.00</ele>
        <time>2018-10-04T03:54:43.28Z</time>
      </trkpt>
      <trkpt lat="41.338100" lon="1.167320">
        <ele>336.00</ele>
        <time>2018-10-04T03:54:43.94Z</time>
      </trkpt>
      <trkpt lat="41.338020" lon="1.167220">
        <ele>339.00</ele>
        <time>2018-10-04T03:54:44.67Z</time>
      </trkpt>
      <trkpt lat="41.338010" lon="1.167090">
        <ele>342.00</ele>
        <time>2018-10-04T03:54:45.33Z</time>
      </trkpt>
      <trkpt lat="41.338030" lon="1.166930">
        <ele>345.00</ele>
        <time>2018-10-04T03:54:46.14Z</time>
      </trkpt>
      <trkpt lat="41.338100" lon="1.166840">
        <ele>347.00</ele>
        <time>2018-10-04T03:54:46.79Z</time>
      </trkpt>
      <trkpt lat="41.338150" lon="1.166730">
        <ele>349.00</ele>
        <time>2018-10-04T03:54:47.43Z</time>
      </trkpt>
      <trkpt lat="41.338190" lon="1.166630">
        <ele>352.00</ele>
        <time>2018-10-04T03:54:48Z</time>
      </trkpt>
      <trkpt lat="41.338250" lon="1.166520">
        <ele>355.00</ele>
        <time>2018-10-04T03:54:48.68Z</time>
      </trkpt>
      <trkpt lat="41.338300" lon="1.166410">
        <ele>358.00</ele>
        <time>2018-10-04T03:54:49.32Z</time>
      </trkpt>
      <trkpt lat="41.338340" lon="1.166170">
        <ele>365.00</ele>
        <time>2018-10-04T03:54:50.55Z</time>
      </trkpt>
      <trkpt lat="41.338380" lon="1.166060">
        <ele>368.00</ele>
        <time>2018-10-04T03:54:51.17Z</time>
      </trkpt>
      <trkpt lat="41.338380" lon="1.165930">
        <ele>372.00</ele>
        <time>2018-10-04T03:54:51.82Z</time>
      </trkpt>
      <trkpt lat="41.338390" lon="1.165810">
        <ele>375.00</ele>
        <time>2018-10-04T03:54:52.42Z</time>
      </trkpt>
      <trkpt lat="41.338420" lon="1.165680">
        <ele>378.00</ele>
        <time>2018-10-04T03:54:53.10Z</time>
      </trkpt>
      <trkpt lat="41.338400" lon="1.165550">
        <ele>380.00</ele>
        <time>2018-10-04T03:54:53.77Z</time>
      </trkpt>
      <trkpt lat="41.338270" lon="1.165380">
        <ele>384.00</ele>
        <time>2018-10-04T03:54:54.98Z</time>
      </trkpt>
      <trkpt lat="41.338210" lon="1.165480">
        <ele>382.00</ele>
        <time>2018-10-04T03:54:55.62Z</time>
      </trkpt>
      <trkpt lat="41.338140" lon="1.165550">
        <ele>381.00</ele>
        <time>2018-10-04T03:54:56.21Z</time>
      </trkpt>
      <trkpt lat="41.338170" lon="1.165670">
        <ele>379.00</ele>
        <time>2018-10-04T03:54:56.84Z</time>
      </trkpt>
      <trkpt lat="41.338150" lon="1.165790">
        <ele>376.00</ele>
        <time>2018-10-04T03:54:57.45Z</time>
      </trkpt>
      <trkpt lat="41.338100" lon="1.165890">
        <ele>374.00</ele>
        <time>2018-10-04T03:54:58.05Z</time>
      </trkpt>
      <trkpt lat="41.337940" lon="1.166030">
        <ele>370.00</ele>
        <time>2018-10-04T03:54:59.33Z</time>
      </trkpt>
      <trkpt lat="41.337860" lon="1.166100">
        <ele>368.00</ele>
        <time>2018-10-04T03:54:59.97Z</time>
      </trkpt>
      <trkpt lat="41.337760" lon="1.166090">
        <ele>369.00</ele>
        <time>2018-10-04T03:55:00.64Z</time>
      </trkpt>
      <trkpt lat="41.337690" lon="1.165890">
        <ele>374.00</ele>
        <time>2018-10-04T03:55:01.74Z</time>
      </trkpt>
      <trkpt lat="41.337710" lon="1.165770">
        <ele>377.00</ele>
        <time>2018-10-04T03:55:02.36Z</time>
      </trkpt>
      <trkpt lat="41.337730" lon="1.165630">
        <ele>380.00</ele>
        <time>2018-10-04T03:55:03.07Z</time>
      </trkpt>
      <trkpt lat="41.337780" lon="1.165520">
        <ele>382.00</ele>
        <time>2018-10-04T03:55:03.71Z</time>
      </trkpt>
      <trkpt lat="41.337800" lon="1.165290">
        <ele>387.00</ele>
        <time>2018-10-04T03:55:04.87Z</time>
      </trkpt>
      <trkpt lat="41.337860" lon="1.165210">
        <ele>389.00</ele>
        <time>2018-10-04T03:55:05.44Z</time>
      </trkpt>
      <trkpt lat="41.337850" lon="1.165090">
        <ele>392.00</ele>
        <time>2018-10-04T03:55:06.04Z</time>
      </trkpt>
      <trkpt lat="41.337880" lon="1.164960">
        <ele>394.00</ele>
        <time>2018-10-04T03:55:06.72Z</time>
      </trkpt>
      <trkpt lat="41.337840" lon="1.164720">
        <ele>399.00</ele>
        <time>2018-10-04T03:55:07.96Z</time>
      </trkpt>
      <trkpt lat="41.337830" lon="1.164600">
        <ele>401.00</ele>
        <time>2018-10-04T03:55:08.56Z</time>
      </trkpt>
      <trkpt lat="41.337780" lon="1.164490">
        <ele>404.00</ele>
        <time>2018-10-04T03:55:09.20Z</time>
      </trkpt>
      <trkpt lat="41.337620" lon="1.164370">
        <ele>408.00</ele>
        <time>2018-10-04T03:55:10.43Z</time>
      </trkpt>
      <trkpt lat="41.337630" lon="1.164250">
        <ele>411.00</ele>
        <time>2018-10-04T03:55:11.03Z</time>
      </trkpt>
      <trkpt lat="41.337480" lon="1.164100">
        <ele>416.00</ele>
        <time>2018-10-04T03:55:12.28Z</time>
      </trkpt>
      <trkpt lat="41.337400" lon="1.164040">
        <ele>419.00</ele>
        <time>2018-10-04T03:55:12.89Z</time>
      </trkpt>
      <trkpt lat="41.337350" lon="1.163940">
        <ele>424.00</ele>
        <time>2018-10-04T03:55:13.50Z</time>
      </trkpt>
      <trkpt lat="41.337310" lon="1.163820">
        <ele>428.00</ele>
        <time>2018-10-04T03:55:14.15Z</time>
      </trkpt>
      <trkpt lat="41.337270" lon="1.163710">
        <ele>431.00</ele>
        <time>2018-10-04T03:55:14.76Z</time>
      </trkpt>
      <trkpt lat="41.337250" lon="1.163460">
        <ele>439.00</ele>
        <time>2018-10-04T03:55:16.02Z</time>
      </trkpt>
      <trkpt lat="41.337190" lon="1.163370">
        <ele>442.00</ele>
        <time>2018-10-04T03:55:16.63Z</time>
      </trkpt>
      <trkpt lat="41.337180" lon="1.163250">
        <ele>446.00</ele>
        <time>2018-10-04T03:55:17.23Z</time>
      </trkpt>
      <trkpt lat="41.337240" lon="1.163050">
        <ele>452.00</ele>
        <time>2018-10-04T03:55:18.31Z</time>
      </trkpt>
      <trkpt lat="41.337240" lon="1.162930">
        <ele>455.00</ele>
        <time>2018-10-04T03:55:18.91Z</time>
      </trkpt>
      <trkpt lat="41.337250" lon="1.162810">
        <ele>459.00</ele>
        <time>2018-10-04T03:55:19.51Z</time>
      </trkpt>
      <trkpt lat="41.337260" lon="1.162560">
        <ele>467.00</ele>
        <time>2018-10-04T03:55:20.77Z</time>
      </trkpt>
      <trkpt lat="41.337230" lon="1.162450">
        <ele>470.00</ele>
        <time>2018-10-04T03:55:21.35Z</time>
      </trkpt>
      <trkpt lat="41.337220" lon="1.162320">
        <ele>473.00</ele>
        <time>2018-10-04T03:55:22.01Z</time>
      </trkpt>
      <trkpt lat="41.337170" lon="1.162100">
        <ele>478.00</ele>
        <time>2018-10-04T03:55:23.16Z</time>
      </trkpt>
      <trkpt lat="41.337180" lon="1.161980">
        <ele>481.00</ele>
        <time>2018-10-04T03:55:23.76Z</time>
      </trkpt>
      <trkpt lat="41.337230" lon="1.161870">
        <ele>484.00</ele>
        <time>2018-10-04T03:55:24.40Z</time>
      </trkpt>
      <trkpt lat="41.337260" lon="1.161750">
        <ele>487.00</ele>
        <time>2018-10-04T03:55:25.04Z</time>
      </trkpt>
      <trkpt lat="41.337290" lon="1.161640">
        <ele>489.00</ele>
        <time>2018-10-04T03:55:25.62Z</time>
      </trkpt>
      <trkpt lat="41.337310" lon="1.161520">
        <ele>492.00</ele>
        <time>2018-10-04T03:55:26.24Z</time>
      </trkpt>
      <trkpt lat="41.337420" lon="1.161340">
        <ele>496.00</ele>
        <time>2018-10-04T03:55:27.40Z</time>
      </trkpt>
      <trkpt lat="41.337500" lon="1.161120">
        <ele>501.00</ele>
        <time>2018-10-04T03:55:28.62Z</time>
      </trkpt>
      <trkpt lat="41.337500" lon="1.160990">
        <ele>503.00</ele>
        <time>2018-10-04T03:55:29.27Z</time>
      </trkpt>
      <trkpt lat="41.337400" lon="1.160800">
        <ele>507.00</ele>
        <time>2018-10-04T03:55:30.44Z</time>
      </trkpt>
      <trkpt lat="41.337350" lon="1.160680">
        <ele>509.00</ele>
        <time>2018-10-04T03:55:31.12Z</time>
      </trkpt>
      <trkpt lat="41.337280" lon="1.160600">
        <ele>510.00</ele>
        <time>2018-10-04T03:55:31.74Z</time>
      </trkpt>
      <trkpt lat="41.337210" lon="1.160500">
        <ele>512.00</ele>
        <time>2018-10-04T03:55:32.42Z</time>
      </trkpt>
      <trkpt lat="41.337170" lon="1.160390">
        <ele>514.00</ele>
        <time>2018-10-04T03:55:33.03Z</time>
      </trkpt>
      <trkpt lat="41.337050" lon="1.160230">
        <ele>516.00</ele>
        <time>2018-10-04T03:55:34.17Z</time>
      </trkpt>
      <trkpt lat="41.336950" lon="1.160270">
        <ele>516.00</ele>
        <time>2018-10-04T03:55:34.86Z</time>
      </trkpt>
      <trkpt lat="41.336780" lon="1.160280">
        <ele>515.00</ele>
        <time>2018-10-04T03:55:36Z</time>
      </trkpt>
      <trkpt lat="41.336700" lon="1.160230">
        <ele>515.00</ele>
        <time>2018-10-04T03:55:36.59Z</time>
      </trkpt>
      <trkpt lat="41.336610" lon="1.160210">
        <ele>516.00</ele>
        <time>2018-10-04T03:55:37.19Z</time>
      </trkpt>
      <trkpt lat="41.336570" lon="1.159970">
        <ele>521.00</ele>
        <time>2018-10-04T03:55:38.42Z</time>
      </trkpt>
      <trkpt lat="41.336580" lon="1.159840">
        <ele>522.00</ele>
        <time>2018-10-04T03:55:39.08Z</time>
      </trkpt>
      <trkpt lat="41.336610" lon="1.159720">
        <ele>524.00</ele>
        <time>2018-10-04T03:55:39.71Z</time>
      </trkpt>
      <trkpt lat="41.336640" lon="1.159610">
        <ele>525.00</ele>
        <time>2018-10-04T03:55:40.30Z</time>
      </trkpt>
      <trkpt lat="41.336660" lon="1.159490">
        <ele>527.00</ele>
        <time>2018-10-04T03:55:40.91Z</time>
      </trkpt>
      <trkpt lat="41.336650" lon="1.159370">
        <ele>529.00</ele>
        <time>2018-10-04T03:55:41.52Z</time>
      </trkpt>
      <trkpt lat="41.336700" lon="1.159120">
        <ele>532.00</ele>
        <time>2018-10-04T03:55:42.81Z</time>
      </trkpt>
      <trkpt lat="41.336710" lon="1.159000">
        <ele>533.00</ele>
        <time>2018-10-04T03:55:43.42Z</time>
      </trkpt>
      <trkpt lat="41.336700" lon="1.158750">
        <ele>536.00</ele>
        <time>2018-10-04T03:55:44.67Z</time>
      </trkpt>
      <trkpt lat="41.336700" lon="1.158610">
        <ele>537.00</ele>
        <time>2018-10-04T03:55:45.37Z</time>
      </trkpt>
      <trkpt lat="41.336700" lon="1.158490">
        <ele>538.00</ele>
        <time>2018-10-04T03:55:45.97Z</time>
      </trkpt>
      <trkpt lat="41.336670" lon="1.158370">
        <ele>539.00</ele>
        <time>2018-10-04T03:55:46.60Z</time>
      </trkpt>
      <trkpt lat="41.336640" lon="1.158250">
        <ele>540.00</ele>
        <time>2018-10-04T03:55:47.24Z</time>
      </trkpt>
      <trkpt lat="41.336580" lon="1.158140">
        <ele>541.00</ele>
        <time>2018-10-04T03:55:47.92Z</time>
      </trkpt>
      <trkpt lat="41.336530" lon="1.157900">
        <ele>543.00</ele>
        <time>2018-10-04T03:55:49.17Z</time>
      </trkpt>
      <trkpt lat="41.336520" lon="1.157780">
        <ele>544.00</ele>
        <time>2018-10-04T03:55:49.77Z</time>
      </trkpt>
      <trkpt lat="41.336590" lon="1.157690">
        <ele>544.00</ele>
        <time>2018-10-04T03:55:50.42Z</time>
      </trkpt>
      <trkpt lat="41.336580" lon="1.157560">
        <ele>545.00</ele>
        <time>2018-10-04T03:55:51.07Z</time>
      </trkpt>
      <trkpt lat="41.336600" lon="1.157430">
        <ele>545.00</ele>
        <time>2018-10-04T03:55:51.74Z</time>
      </trkpt>
      <trkpt lat="41.336590" lon="1.157300">
        <ele>546.00</ele>
        <time>2018-10-04T03:55:52.39Z</time>
      </trkpt>
      <trkpt lat="41.336660" lon="1.157070">
        <ele>547.00</ele>
        <time>2018-10-04T03:55:53.63Z</time>
      </trkpt>
      <trkpt lat="41.336690" lon="1.156950">
        <ele>547.00</ele>
        <time>2018-10-04T03:55:54.27Z</time>
      </trkpt>
      <trkpt lat="41.336660" lon="1.156830">
        <ele>548.00</ele>
        <time>2018-10-04T03:55:54.90Z</time>
      </trkpt>
      <trkpt lat="41.336580" lon="1.156890">
        <ele>548.00</ele>
        <time>2018-10-04T03:55:55.51Z</time>
      </trkpt>
      <trkpt lat="41.336490" lon="1.156930">
        <ele>549.00</ele>
        <time>2018-10-04T03:55:56.14Z</time>
      </trkpt>
      <trkpt lat="41.336320" lon="1.156820">
        <ele>551.00</ele>
        <time>2018-10-04T03:55:57.40Z</time>
      </trkpt>
      <trkpt lat="41.336230" lon="1.156750">
        <ele>552.00</ele>
        <time>2018-10-04T03:55:58.10Z</time>
      </trkpt>
      <trkpt lat="41.336150" lon="1.156690">
        <ele>553.00</ele>
        <time>2018-10-04T03:55:58.71Z</time>
      </trkpt>
      <trkpt lat="41.336070" lon="1.156620">
        <ele>555.00</ele>
        <time>2018-10-04T03:55:59.35Z</time>
      </trkpt>
      <trkpt lat="41.336000" lon="1.156530">
        <ele>557.00</ele>
        <time>2018-10-04T03:56:00Z</time>
      </trkpt>
      <trkpt lat="41.336000" lon="1.156400">
        <ele>558.00</ele>
        <time>2018-10-04T03:56:00.65Z</time>
      </trkpt>
      <trkpt lat="41.336020" lon="1.156280">
        <ele>560.00</ele>
        <time>2018-10-04T03:56:01.26Z</time>
      </trkpt>
      <trkpt lat="41.336090" lon="1.156180">
        <ele>560.00</ele>
        <time>2018-10-04T03:56:01.95Z</time>
      </trkpt>
      <trkpt lat="41.336250" lon="1.156070">
        <ele>559.00</ele>
        <time>2018-10-04T03:56:03.15Z</time>
      </trkpt>
      <trkpt lat="41.336330" lon="1.156000">
        <ele>558.00</ele>
        <time>2018-10-04T03:56:03.79Z</time>
      </trkpt>
      <trkpt lat="41.336400" lon="1.155900">
        <ele>558.00</ele>
        <time>2018-10-04T03:56:04.47Z</time>
      </trkpt>
      <trkpt lat="41.336500" lon="1.155860">
        <ele>556.00</ele>
        <time>2018-10-04T03:56:05.17Z</time>
      </trkpt>
      <trkpt lat="41.336540" lon="1.155750">
        <ele>557.00</ele>
        <time>2018-10-04T03:56:05.78Z</time>
      </trkpt>
      <trkpt lat="41.336600" lon="1.155660">
        <ele>557.00</ele>
        <time>2018-10-04T03:56:06.38Z</time>
      </trkpt>
      <trkpt lat="41.336750" lon="1.155490">
        <ele>556.00</ele>
        <time>2018-10-04T03:56:07.69Z</time>
      </trkpt>
      <trkpt lat="41.336840" lon="1.155470">
        <ele>554.00</ele>
        <time>2018-10-04T03:56:08.30Z</time>
      </trkpt>
      <trkpt lat="41.336910" lon="1.155380">
        <ele>554.00</ele>
        <time>2018-10-04T03:56:08.95Z</time>
      </trkpt>
      <trkpt lat="41.336980" lon="1.155300">
        <ele>553.00</ele>
        <time>2018-10-04T03:56:09.57Z</time>
      </trkpt>
      <trkpt lat="41.337060" lon="1.155230">
        <ele>552.00</ele>
        <time>2018-10-04T03:56:10.20Z</time>
      </trkpt>
      <trkpt lat="41.337180" lon="1.155040">
        <ele>551.00</ele>
        <time>2018-10-04T03:56:11.45Z</time>
      </trkpt>
      <trkpt lat="41.337240" lon="1.154930">
        <ele>550.00</ele>
        <time>2018-10-04T03:56:12.13Z</time>
      </trkpt>
      <trkpt lat="41.337270" lon="1.154810">
        <ele>551.00</ele>
        <time>2018-10-04T03:56:12.76Z</time>
      </trkpt>
      <trkpt lat="41.337310" lon="1.154690">
        <ele>551.00</ele>
        <time>2018-10-04T03:56:13.42Z</time>
      </trkpt>
      <trkpt lat="41.337340" lon="1.154560">
        <ele>552.00</ele>
        <time>2018-10-04T03:56:14.10Z</time>
      </trkpt>
      <trkpt lat="41.337340" lon="1.154440">
        <ele>553.00</ele>
        <time>2018-10-04T03:56:14.70Z</time>
      </trkpt>
      <trkpt lat="41.337360" lon="1.154320">
        <ele>553.00</ele>
        <time>2018-10-04T03:56:15.31Z</time>
      </trkpt>
      <trkpt lat="41.337370" lon="1.154070">
        <ele>556.00</ele>
        <time>2018-10-04T03:56:16.57Z</time>
      </trkpt>
      <trkpt lat="41.337380" lon="1.153950">
        <ele>556.00</ele>
        <time>2018-10-04T03:56:17.17Z</time>
      </trkpt>
      <trkpt lat="41.337380" lon="1.153700">
        <ele>559.00</ele>
        <time>2018-10-04T03:56:18.42Z</time>
      </trkpt>
      <trkpt lat="41.337370" lon="1.153580">
        <ele>560.00</ele>
        <time>2018-10-04T03:56:19.03Z</time>
      </trkpt>
      <trkpt lat="41.337370" lon="1.153450">
        <ele>562.00</ele>
        <time>2018-10-04T03:56:19.68Z</time>
      </trkpt>
      <trkpt lat="41.337370" lon="1.153320">
        <ele>563.00</ele>
        <time>2018-10-04T03:56:20.33Z</time>
      </trkpt>
      <trkpt lat="41.337430" lon="1.153090">
        <ele>561.00</ele>
        <time>2018-10-04T03:56:21.55Z</time>
      </trkpt>
      <trkpt lat="41.337430" lon="1.152960">
        <ele>562.00</ele>
        <time>2018-10-04T03:56:22.20Z</time>
      </trkpt>
      <trkpt lat="41.337430" lon="1.152840">
        <ele>562.00</ele>
        <time>2018-10-04T03:56:22.80Z</time>
      </trkpt>
      <trkpt lat="41.337420" lon="1.152710">
        <ele>563.00</ele>
        <time>2018-10-04T03:56:23.45Z</time>
      </trkpt>
      <trkpt lat="41.337350" lon="1.152490">
        <ele>566.00</ele>
        <time>2018-10-04T03:56:24.65Z</time>
      </trkpt>
      <trkpt lat="41.337310" lon="1.152140">
        <ele>567.00</ele>
        <time>2018-10-04T03:56:26.42Z</time>
      </trkpt>
      <trkpt lat="41.337260" lon="1.152040">
        <ele>568.00</ele>
        <time>2018-10-04T03:56:27.02Z</time>
      </trkpt>
      <trkpt lat="41.337190" lon="1.151930">
        <ele>570.00</ele>
        <time>2018-10-04T03:56:27.74Z</time>
      </trkpt>
      <trkpt lat="41.337130" lon="1.151840">
        <ele>572.00</ele>
        <time>2018-10-04T03:56:28.35Z</time>
      </trkpt>
      <trkpt lat="41.337030" lon="1.151820">
        <ele>575.00</ele>
        <time>2018-10-04T03:56:29.02Z</time>
      </trkpt>
      <trkpt lat="41.337020" lon="1.151690">
        <ele>575.00</ele>
        <time>2018-10-04T03:56:29.68Z</time>
      </trkpt>
      <trkpt lat="41.336880" lon="1.151500">
        <ele>580.00</ele>
        <time>2018-10-04T03:56:31.01Z</time>
      </trkpt>
      <trkpt lat="41.336820" lon="1.151400">
        <ele>583.00</ele>
        <time>2018-10-04T03:56:31.65Z</time>
      </trkpt>
      <trkpt lat="41.336710" lon="1.151370">
        <ele>586.00</ele>
        <time>2018-10-04T03:56:32.40Z</time>
      </trkpt>
      <trkpt lat="41.336620" lon="1.151350">
        <ele>589.00</ele>
        <time>2018-10-04T03:56:33.01Z</time>
      </trkpt>
      <trkpt lat="41.336590" lon="1.151240">
        <ele>590.00</ele>
        <time>2018-10-04T03:56:33.59Z</time>
      </trkpt>
      <trkpt lat="41.336570" lon="1.150980">
        <ele>591.00</ele>
        <time>2018-10-04T03:56:34.90Z</time>
      </trkpt>
      <trkpt lat="41.336560" lon="1.150850">
        <ele>591.00</ele>
        <time>2018-10-04T03:56:35.55Z</time>
      </trkpt>
      <trkpt lat="41.336560" lon="1.150730">
        <ele>593.00</ele>
        <time>2018-10-04T03:56:36.15Z</time>
      </trkpt>
      <trkpt lat="41.336550" lon="1.150600">
        <ele>595.00</ele>
        <time>2018-10-04T03:56:36.81Z</time>
      </trkpt>
      <trkpt lat="41.336530" lon="1.150490">
        <ele>597.00</ele>
        <time>2018-10-04T03:56:37.38Z</time>
      </trkpt>
      <trkpt lat="41.336520" lon="1.150360">
        <ele>600.00</ele>
        <time>2018-10-04T03:56:38.03Z</time>
      </trkpt>
      <trkpt lat="41.336480" lon="1.150110">
        <ele>604.00</ele>
        <time>2018-10-04T03:56:39.31Z</time>
      </trkpt>
      <trkpt lat="41.336480" lon="1.149980">
        <ele>606.00</ele>
        <time>2018-10-04T03:56:39.96Z</time>
      </trkpt>
      <trkpt lat="41.336480" lon="1.149850">
        <ele>607.00</ele>
        <time>2018-10-04T03:56:40.61Z</time>
      </trkpt>
      <trkpt lat="41.336470" lon="1.149730">
        <ele>609.00</ele>
        <time>2018-10-04T03:56:41.21Z</time>
      </trkpt>
      <trkpt lat="41.336480" lon="1.149600">
        <ele>610.00</ele>
        <time>2018-10-04T03:56:41.87Z</time>
      </trkpt>
      <trkpt lat="41.336500" lon="1.149470">
        <ele>611.00</ele>
        <time>2018-10-04T03:56:42.53Z</time>
      </trkpt>
      <trkpt lat="41.336480" lon="1.149360">
        <ele>613.00</ele>
        <time>2018-10-04T03:56:43.10Z</time>
      </trkpt>
      <trkpt lat="41.336500" lon="1.149080">
        <ele>616.00</ele>
        <time>2018-10-04T03:56:44.51Z</time>
      </trkpt>
      <trkpt lat="41.336500" lon="1.148950">
        <ele>616.00</ele>
        <time>2018-10-04T03:56:45.16Z</time>
      </trkpt>
      <trkpt lat="41.336510" lon="1.148820">
        <ele>617.00</ele>
        <time>2018-10-04T03:56:45.81Z</time>
      </trkpt>
      <trkpt lat="41.336490" lon="1.148700">
        <ele>618.00</ele>
        <time>2018-10-04T03:56:46.43Z</time>
      </trkpt>
      <trkpt lat="41.336440" lon="1.148570">
        <ele>620.00</ele>
        <time>2018-10-04T03:56:47.16Z</time>
      </trkpt>
      <trkpt lat="41.336430" lon="1.148450">
        <ele>621.00</ele>
        <time>2018-10-04T03:56:47.76Z</time>
      </trkpt>
      <trkpt lat="41.336470" lon="1.148200">
        <ele>623.00</ele>
        <time>2018-10-04T03:56:49.04Z</time>
      </trkpt>
      <trkpt lat="41.336530" lon="1.148120">
        <ele>622.00</ele>
        <time>2018-10-04T03:56:49.61Z</time>
      </trkpt>
      <trkpt lat="41.336570" lon="1.147990">
        <ele>623.00</ele>
        <time>2018-10-04T03:56:50.31Z</time>
      </trkpt>
      <trkpt lat="41.336600" lon="1.147880">
        <ele>624.00</ele>
        <time>2018-10-04T03:56:50.90Z</time>
      </trkpt>
      <trkpt lat="41.336650" lon="1.147780">
        <ele>624.00</ele>
        <time>2018-10-04T03:56:51.50Z</time>
      </trkpt>
      <trkpt lat="41.336710" lon="1.147670">
        <ele>624.00</ele>
        <time>2018-10-04T03:56:52.18Z</time>
      </trkpt>
      <trkpt lat="41.336800" lon="1.147460">
        <ele>623.00</ele>
        <time>2018-10-04T03:56:53.39Z</time>
      </trkpt>
      <trkpt lat="41.336820" lon="1.147330">
        <ele>624.00</ele>
        <time>2018-10-04T03:56:54.05Z</time>
      </trkpt>
      <trkpt lat="41.336820" lon="1.147210">
        <ele>626.00</ele>
        <time>2018-10-04T03:56:54.66Z</time>
      </trkpt>
      <trkpt lat="41.336810" lon="1.147080">
        <ele>628.00</ele>
        <time>2018-10-04T03:56:55.31Z</time>
      </trkpt>
      <trkpt lat="41.336810" lon="1.146950">
        <ele>629.00</ele>
        <time>2018-10-04T03:56:55.96Z</time>
      </trkpt>
      <trkpt lat="41.336810" lon="1.146830">
        <ele>631.00</ele>
        <time>2018-10-04T03:56:56.56Z</time>
      </trkpt>
      <trkpt lat="41.336820" lon="1.146710">
        <ele>632.00</ele>
        <time>2018-10-04T03:56:57.16Z</time>
      </trkpt>
      <trkpt lat="41.336840" lon="1.146470">
        <ele>634.00</ele>
        <time>2018-10-04T03:56:58.37Z</time>
      </trkpt>
      <trkpt lat="41.336890" lon="1.146370">
        <ele>634.00</ele>
        <time>2018-10-04T03:56:58.98Z</time>
      </trkpt>
      <trkpt lat="41.336970" lon="1.146300">
        <ele>632.00</ele>
        <time>2018-10-04T03:56:59.61Z</time>
      </trkpt>
      <trkpt lat="41.337050" lon="1.146230">
        <ele>631.00</ele>
        <time>2018-10-04T03:57:00.25Z</time>
      </trkpt>
      <trkpt lat="41.337120" lon="1.146140">
        <ele>630.00</ele>
        <time>2018-10-04T03:57:00.90Z</time>
      </trkpt>
      <trkpt lat="41.337160" lon="1.146030">
        <ele>630.00</ele>
        <time>2018-10-04T03:57:01.51Z</time>
      </trkpt>
      <trkpt lat="41.337220" lon="1.145940">
        <ele>630.00</ele>
        <time>2018-10-04T03:57:02.11Z</time>
      </trkpt>
      <trkpt lat="41.337240" lon="1.145680">
        <ele>633.00</ele>
        <time>2018-10-04T03:57:03.42Z</time>
      </trkpt>
      <trkpt lat="41.337230" lon="1.145560">
        <ele>635.00</ele>
        <time>2018-10-04T03:57:04.03Z</time>
      </trkpt>
      <trkpt lat="41.337230" lon="1.145430">
        <ele>637.00</ele>
        <time>2018-10-04T03:57:04.68Z</time>
      </trkpt>
      <trkpt lat="41.337210" lon="1.145310">
        <ele>639.00</ele>
        <time>2018-10-04T03:57:05.29Z</time>
      </trkpt>
      <trkpt lat="41.337180" lon="1.145190">
        <ele>641.00</ele>
        <time>2018-10-04T03:57:05.93Z</time>
      </trkpt>
      <trkpt lat="41.337100" lon="1.144950">
        <ele>646.00</ele>
        <time>2018-10-04T03:57:07.24Z</time>
      </trkpt>
      <trkpt lat="41.337070" lon="1.144830">
        <ele>648.00</ele>
        <time>2018-10-04T03:57:07.87Z</time>
      </trkpt>
      <trkpt lat="41.337060" lon="1.144710">
        <ele>650.00</ele>
        <time>2018-10-04T03:57:08.48Z</time>
      </trkpt>
      <trkpt lat="41.337030" lon="1.144600">
        <ele>651.00</ele>
        <time>2018-10-04T03:57:09.06Z</time>
      </trkpt>
      <trkpt lat="41.336910" lon="1.144390">
        <ele>654.00</ele>
        <time>2018-10-04T03:57:10.38Z</time>
      </trkpt>
      <trkpt lat="41.336840" lon="1.144300">
        <ele>655.00</ele>
        <time>2018-10-04T03:57:11.03Z</time>
      </trkpt>
      <trkpt lat="41.336800" lon="1.144190">
        <ele>655.00</ele>
        <time>2018-10-04T03:57:11.64Z</time>
      </trkpt>
      <trkpt lat="41.336730" lon="1.144090">
        <ele>656.00</ele>
        <time>2018-10-04T03:57:12.33Z</time>
      </trkpt>
      <trkpt lat="41.336670" lon="1.143980">
        <ele>658.00</ele>
        <time>2018-10-04T03:57:13.01Z</time>
      </trkpt>
      <trkpt lat="41.336650" lon="1.143860">
        <ele>660.00</ele>
        <time>2018-10-04T03:57:13.63Z</time>
      </trkpt>
      <trkpt lat="41.336660" lon="1.143610">
        <ele>663.00</ele>
        <time>2018-10-04T03:57:14.88Z</time>
      </trkpt>
      <trkpt lat="41.336640" lon="1.143360">
        <ele>667.00</ele>
        <time>2018-10-04T03:57:16.14Z</time>
      </trkpt>
      <trkpt lat="41.336660" lon="1.143240">
        <ele>670.00</ele>
        <time>2018-10-04T03:57:16.75Z</time>
      </trkpt>
      <trkpt lat="41.336700" lon="1.143130">
        <ele>672.00</ele>
        <time>2018-10-04T03:57:17.36Z</time>
      </trkpt>
      <trkpt lat="41.336700" lon="1.142990">
        <ele>675.00</ele>
        <time>2018-10-04T03:57:18.06Z</time>
      </trkpt>
      <trkpt lat="41.336710" lon="1.142870">
        <ele>678.00</ele>
        <time>2018-10-04T03:57:18.67Z</time>
      </trkpt>
      <trkpt lat="41.336700" lon="1.142750">
        <ele>681.00</ele>
        <time>2018-10-04T03:57:19.27Z</time>
      </trkpt>
      <trkpt lat="41.336710" lon="1.142500">
        <ele>686.00</ele>
        <time>2018-10-04T03:57:20.53Z</time>
      </trkpt>
      <trkpt lat="41.336720" lon="1.142360">
        <ele>688.00</ele>
        <time>2018-10-04T03:57:21.23Z</time>
      </trkpt>
      <trkpt lat="41.336750" lon="1.142250">
        <ele>689.00</ele>
        <time>2018-10-04T03:57:21.82Z</time>
      </trkpt>
      <trkpt lat="41.336770" lon="1.142110">
        <ele>691.00</ele>
        <time>2018-10-04T03:57:22.53Z</time>
      </trkpt>
      <trkpt lat="41.336770" lon="1.141980">
        <ele>692.00</ele>
        <time>2018-10-04T03:57:23.18Z</time>
      </trkpt>
      <trkpt lat="41.336780" lon="1.141860">
        <ele>693.00</ele>
        <time>2018-10-04T03:57:23.78Z</time>
      </trkpt>
      <trkpt lat="41.336780" lon="1.141610">
        <ele>696.00</ele>
        <time>2018-10-04T03:57:25.04Z</time>
      </trkpt>
      <trkpt lat="41.336740" lon="1.141490">
        <ele>696.00</ele>
        <time>2018-10-04T03:57:25.69Z</time>
      </trkpt>
      <trkpt lat="41.336740" lon="1.141360">
        <ele>698.00</ele>
        <time>2018-10-04T03:57:26.34Z</time>
      </trkpt>
      <trkpt lat="41.336740" lon="1.141230">
        <ele>699.00</ele>
        <time>2018-10-04T03:57:26.99Z</time>
      </trkpt>
      <trkpt lat="41.336730" lon="1.141100">
        <ele>700.00</ele>
        <time>2018-10-04T03:57:27.65Z</time>
      </trkpt>
      <trkpt lat="41.336720" lon="1.140970">
        <ele>701.00</ele>
        <time>2018-10-04T03:57:28.30Z</time>
      </trkpt>
      <trkpt lat="41.336650" lon="1.140750">
        <ele>703.00</ele>
        <time>2018-10-04T03:57:29.50Z</time>
      </trkpt>
      <trkpt lat="41.336640" lon="1.140630">
        <ele>704.00</ele>
        <time>2018-10-04T03:57:30.10Z</time>
      </trkpt>
      <trkpt lat="41.336650" lon="1.140500">
        <ele>706.00</ele>
        <time>2018-10-04T03:57:30.76Z</time>
      </trkpt>
      <trkpt lat="41.336620" lon="1.140390">
        <ele>707.00</ele>
        <time>2018-10-04T03:57:31.34Z</time>
      </trkpt>
      <trkpt lat="41.336640" lon="1.140260">
        <ele>709.00</ele>
        <time>2018-10-04T03:57:32.01Z</time>
      </trkpt>
      <trkpt lat="41.336550" lon="1.140050">
        <ele>711.00</ele>
        <time>2018-10-04T03:57:33.22Z</time>
      </trkpt>
      <trkpt lat="41.336500" lon="1.139940">
        <ele>712.00</ele>
        <time>2018-10-04T03:57:33.86Z</time>
      </trkpt>
      <trkpt lat="41.336480" lon="1.139800">
        <ele>715.00</ele>
        <time>2018-10-04T03:57:34.58Z</time>
      </trkpt>
      <trkpt lat="41.336510" lon="1.139670">
        <ele>717.00</ele>
        <time>2018-10-04T03:57:35.26Z</time>
      </trkpt>
      <trkpt lat="41.336490" lon="1.139540">
        <ele>719.00</ele>
        <time>2018-10-04T03:57:35.92Z</time>
      </trkpt>
      <trkpt lat="41.336460" lon="1.139290">
        <ele>724.00</ele>
        <time>2018-10-04T03:57:37.19Z</time>
      </trkpt>
      <trkpt lat="41.336380" lon="1.139210">
        <ele>725.00</ele>
        <time>2018-10-04T03:57:37.85Z</time>
      </trkpt>
      <trkpt lat="41.336350" lon="1.139100">
        <ele>726.00</ele>
        <time>2018-10-04T03:57:38.44Z</time>
      </trkpt>
      <trkpt lat="41.336340" lon="1.138970">
        <ele>727.00</ele>
        <time>2018-10-04T03:57:39.09Z</time>
      </trkpt>
      <trkpt lat="41.336300" lon="1.138730">
        <ele>729.00</ele>
        <time>2018-10-04T03:57:40.32Z</time>
      </trkpt>
      <trkpt lat="41.336260" lon="1.138610">
        <ele>729.00</ele>
        <time>2018-10-04T03:57:40.98Z</time>
      </trkpt>
      <trkpt lat="41.336220" lon="1.138500">
        <ele>730.00</ele>
        <time>2018-10-04T03:57:41.59Z</time>
      </trkpt>
      <trkpt lat="41.336170" lon="1.138390">
        <ele>730.00</ele>
        <time>2018-10-04T03:57:42.24Z</time>
      </trkpt>
      <trkpt lat="41.336120" lon="1.138290">
        <ele>730.00</ele>
        <time>2018-10-04T03:57:42.84Z</time>
      </trkpt>
      <trkpt lat="41.336050" lon="1.138160">
        <ele>731.00</ele>
        <time>2018-10-04T03:57:43.64Z</time>
      </trkpt>
      <trkpt lat="41.336030" lon="1.138010">
        <ele>732.00</ele>
        <time>2018-10-04T03:57:44.40Z</time>
      </trkpt>
      <trkpt lat="41.336010" lon="1.137850">
        <ele>734.00</ele>
        <time>2018-10-04T03:57:45.21Z</time>
      </trkpt>
      <trkpt lat="41.336020" lon="1.137670">
        <ele>736.00</ele>
        <time>2018-10-04T03:57:46.12Z</time>
      </trkpt>
      <trkpt lat="41.336020" lon="1.137500">
        <ele>739.00</ele>
        <time>2018-10-04T03:57:46.97Z</time>
      </trkpt>
      <trkpt lat="41.336070" lon="1.137370">
        <ele>741.00</ele>
        <time>2018-10-04T03:57:47.70Z</time>
      </trkpt>
      <trkpt lat="41.336060" lon="1.137120">
        <ele>744.00</ele>
        <time>2018-10-04T03:57:48.95Z</time>
      </trkpt>
      <trkpt lat="41.335950" lon="1.137020">
        <ele>743.00</ele>
        <time>2018-10-04T03:57:49.84Z</time>
      </trkpt>
      <trkpt lat="41.335890" lon="1.136880">
        <ele>744.00</ele>
        <time>2018-10-04T03:57:50.65Z</time>
      </trkpt>
      <trkpt lat="41.335840" lon="1.136790">
        <ele>744.00</ele>
        <time>2018-10-04T03:57:51.21Z</time>
      </trkpt>
      <trkpt lat="41.335800" lon="1.136620">
        <ele>746.00</ele>
        <time>2018-10-04T03:57:52.10Z</time>
      </trkpt>
      <trkpt lat="41.335760" lon="1.136480">
        <ele>748.00</ele>
        <time>2018-10-04T03:57:52.85Z</time>
      </trkpt>
      <trkpt lat="41.335630" lon="1.136370">
        <ele>750.00</ele>
        <time>2018-10-04T03:57:53.88Z</time>
      </trkpt>
      <trkpt lat="41.335550" lon="1.136150">
        <ele>753.00</ele>
        <time>2018-10-04T03:57:55.10Z</time>
      </trkpt>
      <trkpt lat="41.335540" lon="1.135990">
        <ele>754.00</ele>
        <time>2018-10-04T03:57:55.90Z</time>
      </trkpt>
      <trkpt lat="41.335520" lon="1.135870">
        <ele>756.00</ele>
        <time>2018-10-04T03:57:56.52Z</time>
      </trkpt>
      <trkpt lat="41.335520" lon="1.135720">
        <ele>758.00</ele>
        <time>2018-10-04T03:57:57.27Z</time>
      </trkpt>
      <trkpt lat="41.335510" lon="1.135540">
        <ele>760.00</ele>
        <time>2018-10-04T03:57:58.17Z</time>
      </trkpt>
      <trkpt lat="41.335490" lon="1.135430">
        <ele>762.00</ele>
        <time>2018-10-04T03:57:58.74Z</time>
      </trkpt>
      <trkpt lat="41.335500" lon="1.135200">
        <ele>765.00</ele>
        <time>2018-10-04T03:57:59.89Z</time>
      </trkpt>
      <trkpt lat="41.335480" lon="1.135060">
        <ele>767.00</ele>
        <time>2018-10-04T03:58:00.61Z</time>
      </trkpt>
      <trkpt lat="41.335460" lon="1.134940">
        <ele>768.00</ele>
        <time>2018-10-04T03:58:01.22Z</time>
      </trkpt>
      <trkpt lat="41.335390" lon="1.134820">
        <ele>769.00</ele>
        <time>2018-10-04T03:58:01.98Z</time>
      </trkpt>
      <trkpt lat="41.335330" lon="1.134740">
        <ele>769.00</ele>
        <time>2018-10-04T03:58:02.55Z</time>
      </trkpt>
      <trkpt lat="41.335260" lon="1.134520">
        <ele>770.00</ele>
        <time>2018-10-04T03:58:03.74Z</time>
      </trkpt>
      <trkpt lat="41.335250" lon="1.134380">
        <ele>771.00</ele>
        <time>2018-10-04T03:58:04.45Z</time>
      </trkpt>
      <trkpt lat="41.335290" lon="1.134240">
        <ele>773.00</ele>
        <time>2018-10-04T03:58:05.20Z</time>
      </trkpt>
      <trkpt lat="41.335320" lon="1.134110">
        <ele>775.00</ele>
        <time>2018-10-04T03:58:05.88Z</time>
      </trkpt>
      <trkpt lat="41.335320" lon="1.134020">
        <ele>775.00</ele>
        <time>2018-10-04T03:58:06.33Z</time>
      </trkpt>
      <trkpt lat="41.335430" lon="1.133870">
        <ele>779.00</ele>
        <time>2018-10-04T03:58:07.38Z</time>
      </trkpt>
      <trkpt lat="41.335490" lon="1.133750">
        <ele>781.00</ele>
        <time>2018-10-04T03:58:08.10Z</time>
      </trkpt>
      <trkpt lat="41.335580" lon="1.133690">
        <ele>784.00</ele>
        <time>2018-10-04T03:58:08.77Z</time>
      </trkpt>
      <trkpt lat="41.335570" lon="1.133580">
        <ele>784.00</ele>
        <time>2018-10-04T03:58:09.33Z</time>
      </trkpt>
      <trkpt lat="41.335580" lon="1.133340">
        <ele>787.00</ele>
        <time>2018-10-04T03:58:10.53Z</time>
      </trkpt>
      <trkpt lat="41.335680" lon="1.133250">
        <ele>789.00</ele>
        <time>2018-10-04T03:58:11.33Z</time>
      </trkpt>
      <trkpt lat="41.335740" lon="1.133160">
        <ele>790.00</ele>
        <time>2018-10-04T03:58:11.94Z</time>
      </trkpt>
      <trkpt lat="41.335810" lon="1.133070">
        <ele>792.00</ele>
        <time>2018-10-04T03:58:12.59Z</time>
      </trkpt>
      <trkpt lat="41.335880" lon="1.132990">
        <ele>793.00</ele>
        <time>2018-10-04T03:58:13.20Z</time>
      </trkpt>
      <trkpt lat="41.336010" lon="1.132820">
        <ele>796.00</ele>
        <time>2018-10-04T03:58:14.42Z</time>
      </trkpt>
      <trkpt lat="41.336010" lon="1.132690">
        <ele>796.00</ele>
        <time>2018-10-04T03:58:15.07Z</time>
      </trkpt>
      <trkpt lat="41.336060" lon="1.132590">
        <ele>797.00</ele>
        <time>2018-10-04T03:58:15.67Z</time>
      </trkpt>
      <trkpt lat="41.336080" lon="1.132460">
        <ele>798.00</ele>
        <time>2018-10-04T03:58:16.33Z</time>
      </trkpt>
      <trkpt lat="41.336080" lon="1.132330">
        <ele>797.00</ele>
        <time>2018-10-04T03:58:16.98Z</time>
      </trkpt>
      <trkpt lat="41.336130" lon="1.132130">
        <ele>798.00</ele>
        <time>2018-10-04T03:58:18.04Z</time>
      </trkpt>
      <trkpt lat="41.336190" lon="1.132040">
        <ele>800.00</ele>
        <time>2018-10-04T03:58:18.64Z</time>
      </trkpt>
      <trkpt lat="41.336250" lon="1.131960">
        <ele>801.00</ele>
        <time>2018-10-04T03:58:19.21Z</time>
      </trkpt>
      <trkpt lat="41.336270" lon="1.131860">
        <ele>801.00</ele>
        <time>2018-10-04T03:58:19.72Z</time>
      </trkpt>
      <trkpt lat="41.336350" lon="1.131840">
        <ele>803.00</ele>
        <time>2018-10-04T03:58:20.27Z</time>
      </trkpt>
      <trkpt lat="41.336440" lon="1.131940">
        <ele>806.00</ele>
        <time>2018-10-04T03:58:21.05Z</time>
      </trkpt>
      <trkpt lat="41.336460" lon="1.132010">
        <ele>807.00</ele>
        <time>2018-10-04T03:58:21.42Z</time>
      </trkpt>
      <trkpt lat="41.336520" lon="1.132080">
        <ele>809.00</ele>
        <time>2018-10-04T03:58:21.95Z</time>
      </trkpt>
      <trkpt lat="41.336660" lon="1.132050">
        <ele>812.00</ele>
        <time>2018-10-04T03:58:22.90Z</time>
      </trkpt>
      <trkpt lat="41.336780" lon="1.132070">
        <ele>816.00</ele>
        <time>2018-10-04T03:58:23.71Z</time>
      </trkpt>
      <trkpt lat="41.336870" lon="1.132080">
        <ele>818.00</ele>
        <time>2018-10-04T03:58:24.31Z</time>
      </trkpt>
      <trkpt lat="41.336930" lon="1.132060">
        <ele>819.00</ele>
        <time>2018-10-04T03:58:24.72Z</time>
      </trkpt>
      <trkpt lat="41.336960" lon="1.131920">
        <ele>819.00</ele>
        <time>2018-10-04T03:58:25.45Z</time>
      </trkpt>
      <trkpt lat="41.336990" lon="1.131780">
        <ele>819.00</ele>
        <time>2018-10-04T03:58:26.18Z</time>
      </trkpt>
      <trkpt lat="41.337010" lon="1.131680">
        <ele>819.00</ele>
        <time>2018-10-04T03:58:26.70Z</time>
      </trkpt>
      <trkpt lat="41.337080" lon="1.131520">
        <ele>821.00</ele>
        <time>2018-10-04T03:58:27.62Z</time>
      </trkpt>
      <trkpt lat="41.337090" lon="1.131380">
        <ele>821.00</ele>
        <time>2018-10-04T03:58:28.33Z</time>
      </trkpt>
      <trkpt lat="41.337180" lon="1.131250">
        <ele>824.00</ele>
        <time>2018-10-04T03:58:29.21Z</time>
      </trkpt>
      <trkpt lat="41.337230" lon="1.131390">
        <ele>825.00</ele>
        <time>2018-10-04T03:58:29.99Z</time>
      </trkpt>
      <trkpt lat="41.337270" lon="1.131500">
        <ele>826.00</ele>
        <time>2018-10-04T03:58:30.60Z</time>
      </trkpt>
      <trkpt lat="41.337340" lon="1.131720">
        <ele>828.00</ele>
        <time>2018-10-04T03:58:31.80Z</time>
      </trkpt>
      <trkpt lat="41.337340" lon="1.131840">
        <ele>829.00</ele>
        <time>2018-10-04T03:58:32.40Z</time>
      </trkpt>
      <trkpt lat="41.337330" lon="1.131970">
        <ele>829.00</ele>
        <time>2018-10-04T03:58:33.05Z</time>
      </trkpt>
      <trkpt lat="41.337340" lon="1.132100">
        <ele>830.00</ele>
        <time>2018-10-04T03:58:33.70Z</time>
      </trkpt>
      <trkpt lat="41.337330" lon="1.132220">
        <ele>830.00</ele>
        <time>2018-10-04T03:58:34.31Z</time>
      </trkpt>
      <trkpt lat="41.337370" lon="1.132340">
        <ele>832.00</ele>
        <time>2018-10-04T03:58:34.97Z</time>
      </trkpt>
      <trkpt lat="41.337390" lon="1.132600">
        <ele>833.00</ele>
        <time>2018-10-04T03:58:36.27Z</time>
      </trkpt>
      <trkpt lat="41.337350" lon="1.132720">
        <ele>833.00</ele>
        <time>2018-10-04T03:58:36.93Z</time>
      </trkpt>
      <trkpt lat="41.337370" lon="1.132850">
        <ele>835.00</ele>
        <time>2018-10-04T03:58:37.60Z</time>
      </trkpt>
      <trkpt lat="41.337440" lon="1.132780">
        <ele>836.00</ele>
        <time>2018-10-04T03:58:38.18Z</time>
      </trkpt>
      <trkpt lat="41.337610" lon="1.132630">
        <ele>838.00</ele>
        <time>2018-10-04T03:58:39.54Z</time>
      </trkpt>
      <trkpt lat="41.337700" lon="1.132570">
        <ele>839.00</ele>
        <time>2018-10-04T03:58:40.21Z</time>
      </trkpt>
      <trkpt lat="41.337780" lon="1.132530">
        <ele>840.00</ele>
        <time>2018-10-04T03:58:40.78Z</time>
      </trkpt>
      <trkpt lat="41.337840" lon="1.132420">
        <ele>841.00</ele>
        <time>2018-10-04T03:58:41.46Z</time>
      </trkpt>
      <trkpt lat="41.337900" lon="1.132330">
        <ele>841.00</ele>
        <time>2018-10-04T03:58:42.06Z</time>
      </trkpt>
      <trkpt lat="41.337980" lon="1.132240">
        <ele>842.00</ele>
        <time>2018-10-04T03:58:42.76Z</time>
      </trkpt>
      <trkpt lat="41.338140" lon="1.132120">
        <ele>845.00</ele>
        <time>2018-10-04T03:58:43.99Z</time>
      </trkpt>
      <trkpt lat="41.338210" lon="1.132030">
        <ele>846.00</ele>
        <time>2018-10-04T03:58:44.63Z</time>
      </trkpt>
      <trkpt lat="41.338280" lon="1.131950">
        <ele>847.00</ele>
        <time>2018-10-04T03:58:45.25Z</time>
      </trkpt>
      <trkpt lat="41.338360" lon="1.131880">
        <ele>848.00</ele>
        <time>2018-10-04T03:58:45.89Z</time>
      </trkpt>
      <trkpt lat="41.338440" lon="1.131820">
        <ele>849.00</ele>
        <time>2018-10-04T03:58:46.50Z</time>
      </trkpt>
      <trkpt lat="41.338430" lon="1.131690">
        <ele>849.00</ele>
        <time>2018-10-04T03:58:47.15Z</time>
      </trkpt>
      <trkpt lat="41.338440" lon="1.131570">
        <ele>849.00</ele>
        <time>2018-10-04T03:58:47.76Z</time>
      </trkpt>
      <trkpt lat="41.338450" lon="1.131320">
        <ele>850.00</ele>
        <time>2018-10-04T03:58:49.01Z</time>
      </trkpt>
      <trkpt lat="41.338440" lon="1.131180">
        <ele>851.00</ele>
        <time>2018-10-04T03:58:49.71Z</time>
      </trkpt>
      <trkpt lat="41.338440" lon="1.131060">
        <ele>852.00</ele>
        <time>2018-10-04T03:58:50.32Z</time>
      </trkpt>
      <trkpt lat="41.338450" lon="1.130930">
        <ele>852.00</ele>
        <time>2018-10-04T03:58:50.97Z</time>
      </trkpt>
      <trkpt lat="41.338450" lon="1.130810">
        <ele>853.00</ele>
        <time>2018-10-04T03:58:51.57Z</time>
      </trkpt>
      <trkpt lat="41.338420" lon="1.130670">
        <ele>853.00</ele>
        <time>2018-10-04T03:58:52.30Z</time>
      </trkpt>
      <trkpt lat="41.338450" lon="1.130530">
        <ele>854.00</ele>
        <time>2018-10-04T03:58:53.03Z</time>
      </trkpt>
      <trkpt lat="41.338500" lon="1.130270">
        <ele>856.00</ele>
        <time>2018-10-04T03:58:54.37Z</time>
      </trkpt>
      <trkpt lat="41.338530" lon="1.130140">
        <ele>858.00</ele>
        <time>2018-10-04T03:58:55.05Z</time>
      </trkpt>
      <trkpt lat="41.338490" lon="1.130020">
        <ele>858.00</ele>
        <time>2018-10-04T03:58:55.71Z</time>
      </trkpt>
      <trkpt lat="41.338530" lon="1.129900">
        <ele>859.00</ele>
        <time>2018-10-04T03:58:56.37Z</time>
      </trkpt>
      <trkpt lat="41.338560" lon="1.129770">
        <ele>860.00</ele>
        <time>2018-10-04T03:58:57.05Z</time>
      </trkpt>
      <trkpt lat="41.338550" lon="1.129640">
        <ele>861.00</ele>
        <time>2018-10-04T03:58:57.70Z</time>
      </trkpt>
      <trkpt lat="41.338530" lon="1.129520">
        <ele>861.00</ele>
        <time>2018-10-04T03:58:58.32Z</time>
      </trkpt>
      <trkpt lat="41.338480" lon="1.129270">
        <ele>862.00</ele>
        <time>2018-10-04T03:58:59.61Z</time>
      </trkpt>
      <trkpt lat="41.338430" lon="1.129160">
        <ele>862.00</ele>
        <time>2018-10-04T03:59:00.25Z</time>
      </trkpt>
      <trkpt lat="41.338370" lon="1.129060">
        <ele>862.00</ele>
        <time>2018-10-04T03:59:00.90Z</time>
      </trkpt>
      <trkpt lat="41.338310" lon="1.128960">
        <ele>862.00</ele>
        <time>2018-10-04T03:59:01.54Z</time>
      </trkpt>
      <trkpt lat="41.338300" lon="1.128830">
        <ele>863.00</ele>
        <time>2018-10-04T03:59:02.19Z</time>
      </trkpt>
      <trkpt lat="41.338250" lon="1.128710">
        <ele>862.00</ele>
        <time>2018-10-04T03:59:02.88Z</time>
      </trkpt>
      <trkpt lat="41.338180" lon="1.128610">
        <ele>861.00</ele>
        <time>2018-10-04T03:59:03.56Z</time>
      </trkpt>
      <trkpt lat="41.338150" lon="1.128500">
        <ele>862.00</ele>
        <time>2018-10-04T03:59:04.15Z</time>
      </trkpt>
      <trkpt lat="41.338270" lon="1.128370">
        <ele>866.00</ele>
        <time>2018-10-04T03:59:05.18Z</time>
      </trkpt>
      <trkpt lat="41.338300" lon="1.128250">
        <ele>867.00</ele>
        <time>2018-10-04T03:59:05.81Z</time>
      </trkpt>
      <trkpt lat="41.338290" lon="1.128130">
        <ele>868.00</ele>
        <time>2018-10-04T03:59:06.42Z</time>
      </trkpt>
      <trkpt lat="41.338280" lon="1.128000">
        <ele>869.00</ele>
        <time>2018-10-04T03:59:07.07Z</time>
      </trkpt>
      <trkpt lat="41.338310" lon="1.127870">
        <ele>870.00</ele>
        <time>2018-10-04T03:59:07.75Z</time>
      </trkpt>
      <trkpt lat="41.338310" lon="1.127750">
        <ele>871.00</ele>
        <time>2018-10-04T03:59:08.35Z</time>
      </trkpt>
      <trkpt lat="41.338320" lon="1.127620">
        <ele>872.00</ele>
        <time>2018-10-04T03:59:09.01Z</time>
      </trkpt>
      <trkpt lat="41.338380" lon="1.127400">
        <ele>875.00</ele>
        <time>2018-10-04T03:59:10.18Z</time>
      </trkpt>
      <trkpt lat="41.338440" lon="1.127280">
        <ele>878.00</ele>
        <time>2018-10-04T03:59:10.90Z</time>
      </trkpt>
      <trkpt lat="41.338470" lon="1.127160">
        <ele>879.00</ele>
        <time>2018-10-04T03:59:11.53Z</time>
      </trkpt>
      <trkpt lat="41.338500" lon="1.127040">
        <ele>881.00</ele>
        <time>2018-10-04T03:59:12.17Z</time>
      </trkpt>
      <trkpt lat="41.338520" lon="1.126920">
        <ele>882.00</ele>
        <time>2018-10-04T03:59:12.78Z</time>
      </trkpt>
      <trkpt lat="41.338580" lon="1.126820">
        <ele>884.00</ele>
        <time>2018-10-04T03:59:13.42Z</time>
      </trkpt>
      <trkpt lat="41.338620" lon="1.126700">
        <ele>886.00</ele>
        <time>2018-10-04T03:59:14.08Z</time>
      </trkpt>
      <trkpt lat="41.338700" lon="1.126470">
        <ele>890.00</ele>
        <time>2018-10-04T03:59:15.35Z</time>
      </trkpt>
      <trkpt lat="41.338730" lon="1.126350">
        <ele>892.00</ele>
        <time>2018-10-04T03:59:15.98Z</time>
      </trkpt>
      <trkpt lat="41.338770" lon="1.126230">
        <ele>893.00</ele>
        <time>2018-10-04T03:59:16.64Z</time>
      </trkpt>
      <trkpt lat="41.338790" lon="1.126110">
        <ele>895.00</ele>
        <time>2018-10-04T03:59:17.25Z</time>
      </trkpt>
      <trkpt lat="41.338800" lon="1.125980">
        <ele>896.00</ele>
        <time>2018-10-04T03:59:17.91Z</time>
      </trkpt>
      <trkpt lat="41.338800" lon="1.125850">
        <ele>896.00</ele>
        <time>2018-10-04T03:59:18.56Z</time>
      </trkpt>
      <trkpt lat="41.338800" lon="1.125720">
        <ele>897.00</ele>
        <time>2018-10-04T03:59:19.21Z</time>
      </trkpt>
      <trkpt lat="41.338780" lon="1.125460">
        <ele>896.00</ele>
        <time>2018-10-04T03:59:20.52Z</time>
      </trkpt>
      <trkpt lat="41.338760" lon="1.125350">
        <ele>896.00</ele>
        <time>2018-10-04T03:59:21.08Z</time>
      </trkpt>
      <trkpt lat="41.338690" lon="1.125280">
        <ele>894.00</ele>
        <time>2018-10-04T03:59:21.67Z</time>
      </trkpt>
      <trkpt lat="41.338600" lon="1.125260">
        <ele>892.00</ele>
        <time>2018-10-04T03:59:22.27Z</time>
      </trkpt>
      <trkpt lat="41.338500" lon="1.125250">
        <ele>889.00</ele>
        <time>2018-10-04T03:59:22.94Z</time>
      </trkpt>
      <trkpt lat="41.338410" lon="1.125200">
        <ele>887.00</ele>
        <time>2018-10-04T03:59:23.59Z</time>
      </trkpt>
      <trkpt lat="41.338400" lon="1.124960">
        <ele>889.00</ele>
        <time>2018-10-04T03:59:24.80Z</time>
      </trkpt>
      <trkpt lat="41.338490" lon="1.124980">
        <ele>891.00</ele>
        <time>2018-10-04T03:59:25.40Z</time>
      </trkpt>
      <trkpt lat="41.338590" lon="1.125000">
        <ele>893.00</ele>
        <time>2018-10-04T03:59:26.08Z</time>
      </trkpt>
      <trkpt lat="41.338680" lon="1.125020">
        <ele>895.00</ele>
        <time>2018-10-04T03:59:26.69Z</time>
      </trkpt>
      <trkpt lat="41.338770" lon="1.125070">
        <ele>897.00</ele>
        <time>2018-10-04T03:59:27.34Z</time>
      </trkpt>
      <trkpt lat="41.338860" lon="1.125110">
        <ele>899.00</ele>
        <time>2018-10-04T03:59:27.97Z</time>
      </trkpt>
      <trkpt lat="41.339010" lon="1.125140">
        <ele>903.00</ele>
        <time>2018-10-04T03:59:28.98Z</time>
      </trkpt>
      <trkpt lat="41.338980" lon="1.125020">
        <ele>902.00</ele>
        <time>2018-10-04T03:59:29.61Z</time>
      </trkpt>
      <trkpt lat="41.338920" lon="1.124920">
        <ele>901.00</ele>
        <time>2018-10-04T03:59:30.26Z</time>
      </trkpt>
      <trkpt lat="41.338870" lon="1.124810">
        <ele>900.00</ele>
        <time>2018-10-04T03:59:30.90Z</time>
      </trkpt>
      <trkpt lat="41.338830" lon="1.124680">
        <ele>900.00</ele>
        <time>2018-10-04T03:59:31.60Z</time>
      </trkpt>
      <trkpt lat="41.338790" lon="1.124570">
        <ele>899.00</ele>
        <time>2018-10-04T03:59:32.21Z</time>
      </trkpt>
      <trkpt lat="41.338650" lon="1.124390">
        <ele>899.00</ele>
        <time>2018-10-04T03:59:33.51Z</time>
      </trkpt>
      <trkpt lat="41.338570" lon="1.124330">
        <ele>898.00</ele>
        <time>2018-10-04T03:59:34.12Z</time>
      </trkpt>
      <trkpt lat="41.338470" lon="1.124300">
        <ele>898.00</ele>
        <time>2018-10-04T03:59:34.81Z</time>
      </trkpt>
      <trkpt lat="41.338390" lon="1.124240">
        <ele>898.00</ele>
        <time>2018-10-04T03:59:35.42Z</time>
      </trkpt>
      <trkpt lat="41.338330" lon="1.124140">
        <ele>899.00</ele>
        <time>2018-10-04T03:59:36.06Z</time>
      </trkpt>
      <trkpt lat="41.338300" lon="1.124030">
        <ele>900.00</ele>
        <time>2018-10-04T03:59:36.65Z</time>
      </trkpt>
      <trkpt lat="41.338270" lon="1.123780">
        <ele>903.00</ele>
        <time>2018-10-04T03:59:37.91Z</time>
      </trkpt>
      <trkpt lat="41.338270" lon="1.123660">
        <ele>905.00</ele>
        <time>2018-10-04T03:59:38.51Z</time>
      </trkpt>
      <trkpt lat="41.338300" lon="1.123530">
        <ele>908.00</ele>
        <time>2018-10-04T03:59:39.19Z</time>
      </trkpt>
      <trkpt lat="41.338330" lon="1.123420">
        <ele>910.00</ele>
        <time>2018-10-04T03:59:39.78Z</time>
      </trkpt>
      <trkpt lat="41.338340" lon="1.123280">
        <ele>912.00</ele>
        <time>2018-10-04T03:59:40.48Z</time>
      </trkpt>
      <trkpt lat="41.338360" lon="1.123150">
        <ele>914.00</ele>
        <time>2018-10-04T03:59:41.15Z</time>
      </trkpt>
      <trkpt lat="41.338360" lon="1.123020">
        <ele>916.00</ele>
        <time>2018-10-04T03:59:41.80Z</time>
      </trkpt>
      <trkpt lat="41.338320" lon="1.122780">
        <ele>919.00</ele>
        <time>2018-10-04T03:59:43.03Z</time>
      </trkpt>
      <trkpt lat="41.338310" lon="1.122660">
        <ele>921.00</ele>
        <time>2018-10-04T03:59:43.63Z</time>
      </trkpt>
      <trkpt lat="41.338300" lon="1.122530">
        <ele>923.00</ele>
        <time>2018-10-04T03:59:44.29Z</time>
      </trkpt>
      <trkpt lat="41.338350" lon="1.122420">
        <ele>924.00</ele>
        <time>2018-10-04T03:59:44.93Z</time>
      </trkpt>
      <trkpt lat="41.338380" lon="1.122300">
        <ele>924.00</ele>
        <time>2018-10-04T03:59:45.56Z</time>
      </trkpt>
      <trkpt lat="41.338410" lon="1.122180">
        <ele>924.00</ele>
        <time>2018-10-04T03:59:46.20Z</time>
      </trkpt>
      <trkpt lat="41.338500" lon="1.121960">
        <ele>923.00</ele>
        <time>2018-10-04T03:59:47.45Z</time>
      </trkpt>
      <trkpt lat="41.338520" lon="1.121840">
        <ele>923.00</ele>
        <time>2018-10-04T03:59:48.07Z</time>
      </trkpt>
      <trkpt lat="41.338540" lon="1.121710">
        <ele>923.00</ele>
        <time>2018-10-04T03:59:48.73Z</time>
      </trkpt>
      <trkpt lat="41.338550" lon="1.121590">
        <ele>923.00</ele>
        <time>2018-10-04T03:59:49.34Z</time>
      </trkpt>
      <trkpt lat="41.338550" lon="1.121460">
        <ele>922.00</ele>
        <time>2018-10-04T03:59:49.99Z</time>
      </trkpt>
      <trkpt lat="41.338570" lon="1.121340">
        <ele>921.00</ele>
        <time>2018-10-04T03:59:50.60Z</time>
      </trkpt>
      <trkpt lat="41.338600" lon="1.121220">
        <ele>920.00</ele>
        <time>2018-10-04T03:59:51.23Z</time>
      </trkpt>
      <trkpt lat="41.338620" lon="1.120970">
        <ele>919.00</ele>
        <time>2018-10-04T03:59:52.49Z</time>
      </trkpt>
      <trkpt lat="41.338630" lon="1.120850">
        <ele>918.00</ele>
        <time>2018-10-04T03:59:53.10Z</time>
      </trkpt>
      <trkpt lat="41.338620" lon="1.120720">
        <ele>918.00</ele>
        <time>2018-10-04T03:59:53.75Z</time>
      </trkpt>
      <trkpt lat="41.338620" lon="1.120580">
        <ele>918.00</ele>
        <time>2018-10-04T03:59:54.45Z</time>
      </trkpt>
      <trkpt lat="41.338600" lon="1.120460">
        <ele>918.00</ele>
        <time>2018-10-04T03:59:55.07Z</time>
      </trkpt>
      <trkpt lat="41.338570" lon="1.120340">
        <ele>918.00</ele>
        <time>2018-10-04T03:59:55.70Z</time>
      </trkpt>
      <trkpt lat="41.338520" lon="1.120240">
        <ele>919.00</ele>
        <time>2018-10-04T03:59:56.30Z</time>
      </trkpt>
      <trkpt lat="41.338440" lon="1.120150">
        <ele>921.00</ele>
        <time>2018-10-04T03:59:57Z</time>
      </trkpt>
      <trkpt lat="41.338450" lon="1.119900">
        <ele>919.00</ele>
        <time>2018-10-04T03:59:58.25Z</time>
      </trkpt>
      <trkpt lat="41.338420" lon="1.119690">
        <ele>918.00</ele>
        <time>2018-10-04T03:59:59.32Z</time>
      </trkpt>
      <trkpt lat="41.338400" lon="1.119610">
        <ele>917.00</ele>
        <time>2018-10-04T03:59:59.74Z</time>
      </trkpt>
      <trkpt lat="41.338380" lon="1.119510">
        <ele>917.00</ele>
        <time>2018-10-04T04:00:00.26Z</time>
      </trkpt>
      <trkpt lat="41.338340" lon="1.119400">
        <ele>917.00</ele>
        <time>2018-10-04T04:00:00.87Z</time>
      </trkpt>
      <trkpt lat="41.338300" lon="1.119300">
        <ele>917.00</ele>
        <time>2018-10-04T04:00:01.44Z</time>
      </trkpt>
      <trkpt lat="41.338250" lon="1.119220">
        <ele>917.00</ele>
        <time>2018-10-04T04:00:01.96Z</time>
      </trkpt>
      <trkpt lat="41.338200" lon="1.119090">
        <ele>918.00</ele>
        <time>2018-10-04T04:00:02.69Z</time>
      </trkpt>
      <trkpt lat="41.338140" lon="1.118930">
        <ele>919.00</ele>
        <time>2018-10-04T04:00:03.59Z</time>
      </trkpt>
      <trkpt lat="41.338060" lon="1.118770">
        <ele>921.00</ele>
        <time>2018-10-04T04:00:04.55Z</time>
      </trkpt>
      <trkpt lat="41.338060" lon="1.118640">
        <ele>921.00</ele>
        <time>2018-10-04T04:00:05.20Z</time>
      </trkpt>
      <trkpt lat="41.338060" lon="1.118470">
        <ele>920.00</ele>
        <time>2018-10-04T04:00:06.05Z</time>
      </trkpt>
      <trkpt lat="41.338070" lon="1.118260">
        <ele>920.00</ele>
        <time>2018-10-04T04:00:07.11Z</time>
      </trkpt>
      <trkpt lat="41.338030" lon="1.118050">
        <ele>922.00</ele>
        <time>2018-10-04T04:00:08.19Z</time>
      </trkpt>
      <trkpt lat="41.338000" lon="1.117830">
        <ele>923.00</ele>
        <time>2018-10-04T04:00:09.31Z</time>
      </trkpt>
      <trkpt lat="41.337970" lon="1.117720">
        <ele>925.00</ele>
        <time>2018-10-04T04:00:09.90Z</time>
      </trkpt>
      <trkpt lat="41.337930" lon="1.117510">
        <ele>926.00</ele>
        <time>2018-10-04T04:00:10.98Z</time>
      </trkpt>
      <trkpt lat="41.337940" lon="1.117330">
        <ele>927.00</ele>
        <time>2018-10-04T04:00:11.88Z</time>
      </trkpt>
      <trkpt lat="41.337890" lon="1.117240">
        <ele>929.00</ele>
        <time>2018-10-04T04:00:12.44Z</time>
      </trkpt>
      <trkpt lat="41.337870" lon="1.117140">
        <ele>930.00</ele>
        <time>2018-10-04T04:00:12.96Z</time>
      </trkpt>
      <trkpt lat="41.337820" lon="1.116990">
        <ele>933.00</ele>
        <time>2018-10-04T04:00:13.78Z</time>
      </trkpt>
      <trkpt lat="41.337770" lon="1.116820">
        <ele>935.00</ele>
        <time>2018-10-04T04:00:14.70Z</time>
      </trkpt>
      <trkpt lat="41.337770" lon="1.116610">
        <ele>936.00</ele>
        <time>2018-10-04T04:00:15.75Z</time>
      </trkpt>
      <trkpt lat="41.337780" lon="1.116520">
        <ele>937.00</ele>
        <time>2018-10-04T04:00:16.20Z</time>
      </trkpt>
      <trkpt lat="41.337780" lon="1.116420">
        <ele>938.00</ele>
        <time>2018-10-04T04:00:16.70Z</time>
      </trkpt>
      <trkpt lat="41.337770" lon="1.116230">
        <ele>941.00</ele>
        <time>2018-10-04T04:00:17.66Z</time>
      </trkpt>
      <trkpt lat="41.337770" lon="1.116120">
        <ele>942.00</ele>
        <time>2018-10-04T04:00:18.21Z</time>
      </trkpt>
      <trkpt lat="41.337780" lon="1.115980">
        <ele>944.00</ele>
        <time>2018-10-04T04:00:18.91Z</time>
      </trkpt>
      <trkpt lat="41.337800" lon="1.115840">
        <ele>945.00</ele>
        <time>2018-10-04T04:00:19.63Z</time>
      </trkpt>
      <trkpt lat="41.337820" lon="1.115730">
        <ele>947.00</ele>
        <time>2018-10-04T04:00:20.19Z</time>
      </trkpt>
      <trkpt lat="41.337860" lon="1.115650">
        <ele>947.00</ele>
        <time>2018-10-04T04:00:20.67Z</time>
      </trkpt>
      <trkpt lat="41.337880" lon="1.115540">
        <ele>948.00</ele>
        <time>2018-10-04T04:00:21.24Z</time>
      </trkpt>
      <trkpt lat="41.337900" lon="1.115430">
        <ele>949.00</ele>
        <time>2018-10-04T04:00:21.81Z</time>
      </trkpt>
      <trkpt lat="41.337970" lon="1.115310">
        <ele>950.00</ele>
        <time>2018-10-04T04:00:22.57Z</time>
      </trkpt>
      <trkpt lat="41.338010" lon="1.115110">
        <ele>953.00</ele>
        <time>2018-10-04T04:00:23.60Z</time>
      </trkpt>
      <trkpt lat="41.338040" lon="1.114930">
        <ele>955.00</ele>
        <time>2018-10-04T04:00:24.53Z</time>
      </trkpt>
      <trkpt lat="41.338070" lon="1.114820">
        <ele>955.00</ele>
        <time>2018-10-04T04:00:25.11Z</time>
      </trkpt>
      <trkpt lat="41.338110" lon="1.114700">
        <ele>955.00</ele>
        <time>2018-10-04T04:00:25.77Z</time>
      </trkpt>
      <trkpt lat="41.338135" lon="1.114632">
        <ele>955.00</ele>
        <time>2018-10-04T04:00:26.15Z</time>
      </trkpt>
      <trkpt lat="41.338180" lon="1.114540">
        <ele>955.00</ele>
        <time>2018-10-04T04:00:26.70Z</time>
      </trkpt>
      <trkpt lat="41.338200" lon="1.114410">
        <ele>956.00</ele>
        <time>2018-10-04T04:00:27.36Z</time>
      </trkpt>
      <trkpt lat="41.338220" lon="1.114270">
        <ele>956.00</ele>
        <time>2018-10-04T04:00:28.08Z</time>
      </trkpt>
      <trkpt lat="41.338240" lon="1.114150">
        <ele>957.00</ele>
        <time>2018-10-04T04:00:28.69Z</time>
      </trkpt>
      <trkpt lat="41.338270" lon="1.114020">
        <ele>956.00</ele>
        <time>2018-10-04T04:00:29.37Z</time>
      </trkpt>
      <trkpt lat="41.338290" lon="1.113890">
        <ele>956.00</ele>
        <time>2018-10-04T04:00:30.04Z</time>
      </trkpt>
      <trkpt lat="41.338330" lon="1.113770">
        <ele>955.00</ele>
        <time>2018-10-04T04:00:30.69Z</time>
      </trkpt>
      <trkpt lat="41.338340" lon="1.113650">
        <ele>955.00</ele>
        <time>2018-10-04T04:00:31.30Z</time>
      </trkpt>
      <trkpt lat="41.338340" lon="1.113520">
        <ele>955.00</ele>
        <time>2018-10-04T04:00:31.95Z</time>
      </trkpt>
      <trkpt lat="41.338330" lon="1.113390">
        <ele>955.00</ele>
        <time>2018-10-04T04:00:32.60Z</time>
      </trkpt>
      <trkpt lat="41.338330" lon="1.113260">
        <ele>955.00</ele>
        <time>2018-10-04T04:00:33.25Z</time>
      </trkpt>
      <trkpt lat="41.338350" lon="1.113110">
        <ele>956.00</ele>
        <time>2018-10-04T04:00:34.02Z</time>
      </trkpt>
      <trkpt lat="41.338340" lon="1.112980">
        <ele>956.00</ele>
        <time>2018-10-04T04:00:34.67Z</time>
      </trkpt>
      <trkpt lat="41.338300" lon="1.112870">
        <ele>958.00</ele>
        <time>2018-10-04T04:00:35.28Z</time>
      </trkpt>
      <trkpt lat="41.338290" lon="1.112730">
        <ele>959.00</ele>
        <time>2018-10-04T04:00:35.99Z</time>
      </trkpt>
      <trkpt lat="41.338260" lon="1.112600">
        <ele>960.00</ele>
        <time>2018-10-04T04:00:36.67Z</time>
      </trkpt>
      <trkpt lat="41.338310" lon="1.112490">
        <ele>960.00</ele>
        <time>2018-10-04T04:00:37.31Z</time>
      </trkpt>
      <trkpt lat="41.338400" lon="1.112540">
        <ele>957.00</ele>
        <time>2018-10-04T04:00:37.96Z</time>
      </trkpt>
      <trkpt lat="41.338100" lon="1.111790">
        <ele>967.00</ele>
        <time>2018-10-04T04:00:42.21Z</time>
      </trkpt>
      <trkpt lat="41.337780" lon="1.111180">
        <ele>975.00</ele>
        <time>2018-10-04T04:00:45.94Z</time>
      </trkpt>
      <trkpt lat="41.337630" lon="1.110860">
        <ele>980.00</ele>
        <time>2018-10-04T04:00:47.83Z</time>
      </trkpt>
      <trkpt lat="41.337310" lon="1.110290">
        <ele>982.00</ele>
        <time>2018-10-04T04:00:51.39Z</time>
      </trkpt>
      <trkpt lat="41.336910" lon="1.109620">
        <ele>984.00</ele>
        <time>2018-10-04T04:00:55.67Z</time>
      </trkpt>
      <trkpt lat="41.336420" lon="1.109220">
        <ele>985.00</ele>
        <time>2018-10-04T04:00:59.50Z</time>
      </trkpt>
      <trkpt lat="41.335970" lon="1.109080">
        <ele>978.00</ele>
        <time>2018-10-04T04:01:02.59Z</time>
      </trkpt>
      <trkpt lat="41.335830" lon="1.109490">
        <ele>974.00</ele>
        <time>2018-10-04T04:01:04.84Z</time>
      </trkpt>
      <trkpt lat="41.335720" lon="1.110180">
        <ele>969.00</ele>
        <time>2018-10-04T04:01:08.37Z</time>
      </trkpt>
      <trkpt lat="41.335190" lon="1.110480">
        <ele>969.00</ele>
        <time>2018-10-04T04:01:12.21Z</time>
      </trkpt>
      <trkpt lat="41.334840" lon="1.110140">
        <ele>973.00</ele>
        <time>2018-10-04T04:01:15.10Z</time>
      </trkpt>
      <trkpt lat="41.334730" lon="1.109510">
        <ele>975.00</ele>
        <time>2018-10-04T04:01:18.34Z</time>
      </trkpt>
      <trkpt lat="41.334280" lon="1.109100">
        <ele>972.00</ele>
        <time>2018-10-04T04:01:21.97Z</time>
      </trkpt>
      <trkpt lat="41.333970" lon="1.108600">
        <ele>966.00</ele>
        <time>2018-10-04T04:01:25.22Z</time>
      </trkpt>
      <trkpt lat="41.333730" lon="1.107970">
        <ele>961.00</ele>
        <time>2018-10-04T04:01:28.75Z</time>
      </trkpt>
      <trkpt lat="41.333710" lon="1.107380">
        <ele>957.00</ele>
        <time>2018-10-04T04:01:31.71Z</time>
      </trkpt>
      <trkpt lat="41.333550" lon="1.106830">
        <ele>955.00</ele>
        <time>2018-10-04T04:01:34.66Z</time>
      </trkpt>
      <trkpt lat="41.333100" lon="1.106510">
        <ele>954.00</ele>
        <time>2018-10-04T04:01:38.06Z</time>
      </trkpt>
      <trkpt lat="41.332500" lon="1.106890">
        <ele>971.00</ele>
        <time>2018-10-04T04:01:42.49Z</time>
      </trkpt>
      <trkpt lat="41.331950" lon="1.107790">
        <ele>981.00</ele>
        <time>2018-10-04T04:01:48.30Z</time>
      </trkpt>
      <trkpt lat="41.331480" lon="1.108620">
        <ele>985.00</ele>
        <time>2018-10-04T04:01:53.51Z</time>
      </trkpt>
      <trkpt lat="41.330990" lon="1.108930">
        <ele>973.00</ele>
        <time>2018-10-04T04:01:57.12Z</time>
      </trkpt>
      <trkpt lat="41.330430" lon="1.109080">
        <ele>962.00</ele>
        <time>2018-10-04T04:02:00.93Z</time>
      </trkpt>
      <trkpt lat="41.330080" lon="1.109080">
        <ele>956.00</ele>
        <time>2018-10-04T04:02:03.26Z</time>
      </trkpt>
      <trkpt lat="41.329790" lon="1.109090">
        <ele>951.00</ele>
        <time>2018-10-04T04:02:05.20Z</time>
      </trkpt>
      <trkpt lat="41.329570" lon="1.109310">
        <ele>949.00</ele>
        <time>2018-10-04T04:02:07.03Z</time>
      </trkpt>
      <trkpt lat="41.329420" lon="1.109840">
        <ele>943.00</ele>
        <time>2018-10-04T04:02:09.87Z</time>
      </trkpt>
      <trkpt lat="41.329290" lon="1.110340">
        <ele>941.00</ele>
        <time>2018-10-04T04:02:12.52Z</time>
      </trkpt>
      <trkpt lat="41.329050" lon="1.110680">
        <ele>937.00</ele>
        <time>2018-10-04T04:02:14.85Z</time>
      </trkpt>
      <trkpt lat="41.328980" lon="1.111420">
        <ele>941.00</ele>
        <time>2018-10-04T04:02:18.59Z</time>
      </trkpt>
      <trkpt lat="41.328790" lon="1.112060">
        <ele>943.00</ele>
        <time>2018-10-04T04:02:22.03Z</time>
      </trkpt>
      <trkpt lat="41.328460" lon="1.112510">
        <ele>939.00</ele>
        <time>2018-10-04T04:02:25.18Z</time>
      </trkpt>
      <trkpt lat="41.328020" lon="1.113030">
        <ele>935.00</ele>
        <time>2018-10-04T04:02:29.10Z</time>
      </trkpt>
      <trkpt lat="41.327580" lon="1.113530">
        <ele>933.00</ele>
        <time>2018-10-04T04:02:32.96Z</time>
      </trkpt>
      <trkpt lat="41.327190" lon="1.114030">
        <ele>930.00</ele>
        <time>2018-10-04T04:02:36.57Z</time>
      </trkpt>
      <trkpt lat="41.326810" lon="1.114460">
        <ele>922.00</ele>
        <time>2018-10-04T04:02:39.89Z</time>
      </trkpt>
      <trkpt lat="41.326480" lon="1.114880">
        <ele>914.00</ele>
        <time>2018-10-04T04:02:42.93Z</time>
      </trkpt>
      <trkpt lat="41.326230" lon="1.115420">
        <ele>913.00</ele>
        <time>2018-10-04T04:02:46.11Z</time>
      </trkpt>
      <trkpt lat="41.326020" lon="1.116080">
        <ele>917.00</ele>
        <time>2018-10-04T04:02:49.70Z</time>
      </trkpt>
      <trkpt lat="41.325600" lon="1.116220">
        <ele>909.00</ele>
        <time>2018-10-04T04:02:52.59Z</time>
      </trkpt>
      <trkpt lat="41.325350" lon="1.116620">
        <ele>910.00</ele>
        <time>2018-10-04T04:02:55.19Z</time>
      </trkpt>
      <trkpt lat="41.325110" lon="1.117030">
        <ele>905.00</ele>
        <time>2018-10-04T04:02:57.79Z</time>
      </trkpt>
      <trkpt lat="41.324870" lon="1.117320">
        <ele>900.00</ele>
        <time>2018-10-04T04:02:59.95Z</time>
      </trkpt>
      <trkpt lat="41.324570" lon="1.117490">
        <ele>891.00</ele>
        <time>2018-10-04T04:03:02.13Z</time>
      </trkpt>
      <trkpt lat="41.324450" lon="1.117810">
        <ele>886.00</ele>
        <time>2018-10-04T04:03:03.92Z</time>
      </trkpt>
      <trkpt lat="41.324350" lon="1.118210">
        <ele>880.00</ele>
        <time>2018-10-04T04:03:06.03Z</time>
      </trkpt>
      <trkpt lat="41.324120" lon="1.118400">
        <ele>872.00</ele>
        <time>2018-10-04T04:03:07.83Z</time>
      </trkpt>
      <trkpt lat="41.323840" lon="1.119000">
        <ele>856.00</ele>
        <time>2018-10-04T04:03:11.37Z</time>
      </trkpt>
      <trkpt lat="41.323570" lon="1.119580">
        <ele>841.00</ele>
        <time>2018-10-04T04:03:14.79Z</time>
      </trkpt>
      <trkpt lat="41.323280" lon="1.119970">
        <ele>828.00</ele>
        <time>2018-10-04T04:03:17.53Z</time>
      </trkpt>
      <trkpt lat="41.323000" lon="1.120260">
        <ele>820.00</ele>
        <time>2018-10-04T04:03:19.90Z</time>
      </trkpt>
      <trkpt lat="41.322740" lon="1.120730">
        <ele>810.00</ele>
        <time>2018-10-04T04:03:22.82Z</time>
      </trkpt>
      <trkpt lat="41.322490" lon="1.121160">
        <ele>798.00</ele>
        <time>2018-10-04T04:03:25.54Z</time>
      </trkpt>
      <trkpt lat="41.322290" lon="1.121450">
        <ele>790.00</ele>
        <time>2018-10-04T04:03:27.52Z</time>
      </trkpt>
      <trkpt lat="41.321920" lon="1.121660">
        <ele>780.00</ele>
        <time>2018-10-04T04:03:30.20Z</time>
      </trkpt>
      <trkpt lat="41.321620" lon="1.121760">
        <ele>775.00</ele>
        <time>2018-10-04T04:03:32.26Z</time>
      </trkpt>
      <trkpt lat="41.321390" lon="1.122230">
        <ele>766.00</ele>
        <time>2018-10-04T04:03:35.07Z</time>
      </trkpt>
      <trkpt lat="41.321230" lon="1.122750">
        <ele>759.00</ele>
        <time>2018-10-04T04:03:37.88Z</time>
      </trkpt>
      <trkpt lat="41.321100" lon="1.123270">
        <ele>752.00</ele>
        <time>2018-10-04T04:03:40.63Z</time>
      </trkpt>
      <trkpt lat="41.320970" lon="1.123750">
        <ele>745.00</ele>
        <time>2018-10-04T04:03:43.18Z</time>
      </trkpt>
      <trkpt lat="41.320920" lon="1.124230">
        <ele>740.00</ele>
        <time>2018-10-04T04:03:45.61Z</time>
      </trkpt>
      <trkpt lat="41.320660" lon="1.124430">
        <ele>729.00</ele>
        <time>2018-10-04T04:03:47.61Z</time>
      </trkpt>
      <trkpt lat="41.320610" lon="1.124900">
        <ele>724.00</ele>
        <time>2018-10-04T04:03:49.98Z</time>
      </trkpt>
      <trkpt lat="41.320300" lon="1.125430">
        <ele>709.00</ele>
        <time>2018-10-04T04:03:53.35Z</time>
      </trkpt>
      <trkpt lat="41.320100" lon="1.125560">
        <ele>699.00</ele>
        <time>2018-10-04T04:03:54.83Z</time>
      </trkpt>
      <trkpt lat="41.319880" lon="1.124590">
        <ele>698.00</ele>
        <time>2018-10-04T04:03:59.91Z</time>
      </trkpt>
      <trkpt lat="41.319580" lon="1.124710">
        <ele>687.00</ele>
        <time>2018-10-04T04:04:01.99Z</time>
      </trkpt>
      <trkpt lat="41.319300" lon="1.125070">
        <ele>673.00</ele>
        <time>2018-10-04T04:04:04.59Z</time>
      </trkpt>
      <trkpt lat="41.318830" lon="1.125290">
        <ele>664.00</ele>
        <time>2018-10-04T04:04:07.91Z</time>
      </trkpt>
      <trkpt lat="41.318160" lon="1.125060">
        <ele>660.00</ele>
        <time>2018-10-04T04:04:12.52Z</time>
      </trkpt>
      <trkpt lat="41.317570" lon="1.124770">
        <ele>652.00</ele>
        <time>2018-10-04T04:04:16.72Z</time>
      </trkpt>
      <trkpt lat="41.316760" lon="1.124860">
        <ele>633.00</ele>
        <time>2018-10-04T04:04:22.13Z</time>
      </trkpt>
      <trkpt lat="41.316550" lon="1.124860">
        <ele>629.00</ele>
        <time>2018-10-04T04:04:23.53Z</time>
      </trkpt>
      <trkpt lat="41.316060" lon="1.124370">
        <ele>625.00</ele>
        <time>2018-10-04T04:04:27.62Z</time>
      </trkpt>
      <trkpt lat="41.315690" lon="1.125060">
        <ele>616.00</ele>
        <time>2018-10-04T04:04:31.86Z</time>
      </trkpt>
      <trkpt lat="41.314920" lon="1.125490">
        <ele>607.00</ele>
        <time>2018-10-04T04:04:37.43Z</time>
      </trkpt>
      <trkpt lat="41.314040" lon="1.126000">
        <ele>603.00</ele>
        <time>2018-10-04T04:04:43.83Z</time>
      </trkpt>
      <trkpt lat="41.313450" lon="1.126100">
        <ele>602.00</ele>
        <time>2018-10-04T04:04:47.79Z</time>
      </trkpt>
      <trkpt lat="41.313313" lon="1.126083">
        <ele>602.54</ele>
        <time>2018-10-04T04:04:48.71Z</time>
      </trkpt>
      <trkpt lat="41.313350" lon="1.126260">
        <ele>606.68</ele>
        <time>2019-10-31T08:04:22Z</time>
      </trkpt>
      <trkpt lat="41.313460" lon="1.126670">
        <ele>607.37</ele>
        <time>2019-10-31T08:04:42Z</time>
      </trkpt>
      <trkpt lat="41.313620" lon="1.127180">
        <ele>607.48</ele>
        <time>2019-10-31T08:05:02Z</time>
      </trkpt>
      <trkpt lat="41.313740" lon="1.127680">
        <ele>607.25</ele>
        <time>2019-10-31T08:05:22Z</time>
      </trkpt>
      <trkpt lat="41.313860" lon="1.127970">
        <ele>606.45</ele>
        <time>2019-10-31T08:05:42Z</time>
      </trkpt>
      <trkpt lat="41.313850" lon="1.128060">
        <ele>606.48</ele>
        <time>2019-10-31T08:06:02Z</time>
      </trkpt>
      <trkpt lat="41.313890" lon="1.128300">
        <ele>606.04</ele>
        <time>2019-10-31T08:06:22Z</time>
      </trkpt>
      <trkpt lat="41.314050" lon="1.128970">
        <ele>603.53</ele>
        <time>2019-10-31T08:06:42Z</time>
      </trkpt>
      <trkpt lat="41.314040" lon="1.129130">
        <ele>602.35</ele>
        <time>2019-10-31T08:07:02Z</time>
      </trkpt>
      <trkpt lat="41.314000" lon="1.129200">
        <ele>602.00</ele>
        <time>2019-10-31T08:07:22Z</time>
      </trkpt>
      <trkpt lat="41.314160" lon="1.129310">
        <ele>601.72</ele>
        <time>2019-10-31T08:07:42Z</time>
      </trkpt>
      <trkpt lat="41.314370" lon="1.129520">
        <ele>602.11</ele>
        <time>2019-10-31T08:08:02Z</time>
      </trkpt>
      <trkpt lat="41.314420" lon="1.129610">
        <ele>602.43</ele>
        <time>2019-10-31T08:08:22Z</time>
      </trkpt>
      <trkpt lat="41.314460" lon="1.129790">
        <ele>603.49</ele>
        <time>2019-10-31T08:08:42Z</time>
      </trkpt>
      <trkpt lat="41.314530" lon="1.130400">
        <ele>605.93</ele>
        <time>2019-10-31T08:09:02Z</time>
      </trkpt>
      <trkpt lat="41.314660" lon="1.130870">
        <ele>606.92</ele>
        <time>2019-10-31T08:09:22Z</time>
      </trkpt>
      <trkpt lat="41.314810" lon="1.131290">
        <ele>608.22</ele>
        <time>2019-10-31T08:09:42Z</time>
      </trkpt>
      <trkpt lat="41.315140" lon="1.132070">
        <ele>611.19</ele>
        <time>2019-10-31T08:10:02Z</time>
      </trkpt>
      <trkpt lat="41.315390" lon="1.132500">
        <ele>610.23</ele>
        <time>2019-10-31T08:10:22Z</time>
      </trkpt>
      <trkpt lat="41.315520" lon="1.132740">
        <ele>610.41</ele>
        <time>2019-10-31T08:10:42Z</time>
      </trkpt>
      <trkpt lat="41.315600" lon="1.132970">
        <ele>610.23</ele>
        <time>2019-10-31T08:11:02Z</time>
      </trkpt>
      <trkpt lat="41.315580" lon="1.132900">
        <ele>610.43</ele>
        <time>2019-10-31T08:11:22Z</time>
      </trkpt>
      <trkpt lat="41.315800" lon="1.133010">
        <ele>607.91</ele>
        <time>2019-10-31T08:11:42Z</time>
      </trkpt>
      <trkpt lat="41.315850" lon="1.132970">
        <ele>607.91</ele>
        <time>2019-10-31T08:12:02Z</time>
      </trkpt>
      <trkpt lat="41.315920" lon="1.132980">
        <ele>607.97</ele>
        <time>2019-10-31T08:12:22Z</time>
      </trkpt>
      <trkpt lat="41.316100" lon="1.133040">
        <ele>607.94</ele>
        <time>2019-10-31T08:12:42Z</time>
      </trkpt>
      <trkpt lat="41.316540" lon="1.133100">
        <ele>607.97</ele>
        <time>2019-10-31T08:13:02Z</time>
      </trkpt>
      <trkpt lat="41.316620" lon="1.133140">
        <ele>607.99</ele>
        <time>2019-10-31T08:13:22Z</time>
      </trkpt>
      <trkpt lat="41.316970" lon="1.133410">
        <ele>608.00</ele>
        <time>2019-10-31T08:13:42Z</time>
      </trkpt>
      <trkpt lat="41.317040" lon="1.133430">
        <ele>607.93</ele>
        <time>2019-10-31T08:14:02Z</time>
      </trkpt>
      <trkpt lat="41.317590" lon="1.133320">
        <ele>607.93</ele>
        <time>2019-10-31T08:14:22Z</time>
      </trkpt>
      <trkpt lat="41.317680" lon="1.133330">
        <ele>607.92</ele>
        <time>2019-10-31T08:14:42Z</time>
      </trkpt>
      <trkpt lat="41.317960" lon="1.133490">
        <ele>607.97</ele>
        <time>2019-10-31T08:15:02Z</time>
      </trkpt>
      <trkpt lat="41.318020" lon="1.133620">
        <ele>607.98</ele>
        <time>2019-10-31T08:15:22Z</time>
      </trkpt>
      <trkpt lat="41.318110" lon="1.134090">
        <ele>607.92</ele>
        <time>2019-10-31T08:15:42Z</time>
      </trkpt>
      <trkpt lat="41.318120" lon="1.134250">
        <ele>607.91</ele>
        <time>2019-10-31T08:16:02Z</time>
      </trkpt>
      <trkpt lat="41.318160" lon="1.134340">
        <ele>607.97</ele>
        <time>2019-10-31T08:16:22Z</time>
      </trkpt>
      <trkpt lat="41.318320" lon="1.134480">
        <ele>607.97</ele>
        <time>2019-10-31T08:16:42Z</time>
      </trkpt>
      <trkpt lat="41.318500" lon="1.134580">
        <ele>607.94</ele>
        <time>2019-10-31T08:17:02Z</time>
      </trkpt>
      <trkpt lat="41.318550" lon="1.134650">
        <ele>607.95</ele>
        <time>2019-10-31T08:17:22Z</time>
      </trkpt>
      <trkpt lat="41.318630" lon="1.134900">
        <ele>607.91</ele>
        <time>2019-10-31T08:17:42Z</time>
      </trkpt>
      <trkpt lat="41.318800" lon="1.135180">
        <ele>607.98</ele>
        <time>2019-10-31T08:18:02Z</time>
      </trkpt>
      <trkpt lat="41.318940" lon="1.135340">
        <ele>541.35</ele>
        <time>2019-10-31T08:18:22Z</time>
      </trkpt>
      <trkpt lat="41.319040" lon="1.135510">
        <ele>541.32</ele>
        <time>2019-10-31T08:18:42Z</time>
      </trkpt>
      <trkpt lat="41.319070" lon="1.135600">
        <ele>541.38</ele>
        <time>2019-10-31T08:19:02Z</time>
      </trkpt>
      <trkpt lat="41.319070" lon="1.135810">
        <ele>541.36</ele>
        <time>2019-10-31T08:19:22Z</time>
      </trkpt>
      <trkpt lat="41.319110" lon="1.136010">
        <ele>541.33</ele>
        <time>2019-10-31T08:19:42Z</time>
      </trkpt>
      <trkpt lat="41.319070" lon="1.136240">
        <ele>541.31</ele>
        <time>2019-10-31T08:20:02Z</time>
      </trkpt>
      <trkpt lat="41.319070" lon="1.136340">
        <ele>541.38</ele>
        <time>2019-10-31T08:20:22Z</time>
      </trkpt>
      <trkpt lat="41.319120" lon="1.136510">
        <ele>541.39</ele>
        <time>2019-10-31T08:20:42Z</time>
      </trkpt>
      <trkpt lat="41.319220" lon="1.137070">
        <ele>541.37</ele>
        <time>2019-10-31T08:21:02Z</time>
      </trkpt>
      <trkpt lat="41.319310" lon="1.137240">
        <ele>541.33</ele>
        <time>2019-10-31T08:21:22Z</time>
      </trkpt>
      <trkpt lat="41.319350" lon="1.137520">
        <ele>541.37</ele>
        <time>2019-10-31T08:21:42Z</time>
      </trkpt>
      <trkpt lat="41.319300" lon="1.137720">
        <ele>541.34</ele>
        <time>2019-10-31T08:22:02Z</time>
      </trkpt>
      <trkpt lat="41.319300" lon="1.137900">
        <ele>541.35</ele>
        <time>2019-10-31T08:22:22Z</time>
      </trkpt>
      <trkpt lat="41.319250" lon="1.138100">
        <ele>541.38</ele>
        <time>2019-10-31T08:22:42Z</time>
      </trkpt>
      <trkpt lat="41.319220" lon="1.138420">
        <ele>541.38</ele>
        <time>2019-10-31T08:23:02Z</time>
      </trkpt>
      <trkpt lat="41.319270" lon="1.138870">
        <ele>541.30</ele>
        <time>2019-10-31T08:23:22Z</time>
      </trkpt>
      <trkpt lat="41.319260" lon="1.139260">
        <ele>541.33</ele>
        <time>2019-10-31T08:23:42Z</time>
      </trkpt>
      <trkpt lat="41.319220" lon="1.139510">
        <ele>541.31</ele>
        <time>2019-10-31T08:24:02Z</time>
      </trkpt>
      <trkpt lat="41.319290" lon="1.140080">
        <ele>541.35</ele>
        <time>2019-10-31T08:24:22Z</time>
      </trkpt>
      <trkpt lat="41.319210" lon="1.140410">
        <ele>541.40</ele>
        <time>2019-10-31T08:24:42Z</time>
      </trkpt>
      <trkpt lat="41.319220" lon="1.140540">
        <ele>541.35</ele>
        <time>2019-10-31T08:25:02Z</time>
      </trkpt>
      <trkpt lat="41.319270" lon="1.140600">
        <ele>541.32</ele>
        <time>2019-10-31T08:25:22Z</time>
      </trkpt>
      <trkpt lat="41.319610" lon="1.140800">
        <ele>541.36</ele>
        <time>2019-10-31T08:25:42Z</time>
      </trkpt>
      <trkpt lat="41.319820" lon="1.140950">
        <ele>541.33</ele>
        <time>2019-10-31T08:26:02Z</time>
      </trkpt>
      <trkpt lat="41.319850" lon="1.140990">
        <ele>541.35</ele>
        <time>2019-10-31T08:26:22Z</time>
      </trkpt>
      <trkpt lat="41.319890" lon="1.141170">
        <ele>580.88</ele>
        <time>2019-10-31T08:26:42Z</time>
      </trkpt>
      <trkpt lat="41.319880" lon="1.141260">
        <ele>580.85</ele>
        <time>2019-10-31T08:27:02Z</time>
      </trkpt>
      <trkpt lat="41.319790" lon="1.141550">
        <ele>580.89</ele>
        <time>2019-10-31T08:27:22Z</time>
      </trkpt>
      <trkpt lat="41.319700" lon="1.141690">
        <ele>580.82</ele>
        <time>2019-10-31T08:27:42Z</time>
      </trkpt>
      <trkpt lat="41.319650" lon="1.141820">
        <ele>580.81</ele>
        <time>2019-10-31T08:28:02Z</time>
      </trkpt>
      <trkpt lat="41.319640" lon="1.142090">
        <ele>580.84</ele>
        <time>2019-10-31T08:28:22Z</time>
      </trkpt>
      <trkpt lat="41.319590" lon="1.142230">
        <ele>580.83</ele>
        <time>2019-10-31T08:28:42Z</time>
      </trkpt>
      <trkpt lat="41.319490" lon="1.142850">
        <ele>580.86</ele>
        <time>2019-10-31T08:29:02Z</time>
      </trkpt>
      <trkpt lat="41.319430" lon="1.143580">
        <ele>603.07</ele>
        <time>2019-10-31T08:29:22Z</time>
      </trkpt>
      <trkpt lat="41.319360" lon="1.143980">
        <ele>603.06</ele>
        <time>2019-10-31T08:29:42Z</time>
      </trkpt>
      <trkpt lat="41.319250" lon="1.144450">
        <ele>603.02</ele>
        <time>2019-10-31T08:30:02Z</time>
      </trkpt>
      <trkpt lat="41.319310" lon="1.144670">
        <ele>603.07</ele>
        <time>2019-10-31T08:30:22Z</time>
      </trkpt>
      <trkpt lat="41.319580" lon="1.144890">
        <ele>603.02</ele>
        <time>2019-10-31T08:30:42Z</time>
      </trkpt>
      <trkpt lat="41.320320" lon="1.145390">
        <ele>603.07</ele>
        <time>2019-10-31T08:31:02Z</time>
      </trkpt>
      <trkpt lat="41.320670" lon="1.145780">
        <ele>603.00</ele>
        <time>2019-10-31T08:31:22Z</time>
      </trkpt>
      <trkpt lat="41.320950" lon="1.146030">
        <ele>620.12</ele>
        <time>2019-10-31T08:31:42Z</time>
      </trkpt>
      <trkpt lat="41.321220" lon="1.146140">
        <ele>620.11</ele>
        <time>2019-10-31T08:32:02Z</time>
      </trkpt>
      <trkpt lat="41.321290" lon="1.146190">
        <ele>620.11</ele>
        <time>2019-10-31T08:32:22Z</time>
      </trkpt>
      <trkpt lat="41.321650" lon="1.146700">
        <ele>620.16</ele>
        <time>2019-10-31T08:32:42Z</time>
      </trkpt>
      <trkpt lat="41.321740" lon="1.146800">
        <ele>620.12</ele>
        <time>2019-10-31T08:33:02Z</time>
      </trkpt>
      <trkpt lat="41.321810" lon="1.146840">
        <ele>620.16</ele>
        <time>2019-10-31T08:33:22Z</time>
      </trkpt>
      <trkpt lat="41.321940" lon="1.146840">
        <ele>620.11</ele>
        <time>2019-10-31T08:33:42Z</time>
      </trkpt>
      <trkpt lat="41.322230" lon="1.146750">
        <ele>620.13</ele>
        <time>2019-10-31T08:34:02Z</time>
      </trkpt>
      <trkpt lat="41.322350" lon="1.146760">
        <ele>620.20</ele>
        <time>2019-10-31T08:34:22Z</time>
      </trkpt>
      <trkpt lat="41.322510" lon="1.146840">
        <ele>620.19</ele>
        <time>2019-10-31T08:34:42Z</time>
      </trkpt>
      <trkpt lat="41.322630" lon="1.146940">
        <ele>620.13</ele>
        <time>2019-10-31T08:35:02Z</time>
      </trkpt>
      <trkpt lat="41.322620" lon="1.146940">
        <ele>620.19</ele>
        <time>2019-10-31T08:35:22Z</time>
      </trkpt>
      <trkpt lat="41.323020" lon="1.147280">
        <ele>620.11</ele>
        <time>2019-10-31T08:35:42Z</time>
      </trkpt>
      <trkpt lat="41.323420" lon="1.147540">
        <ele>620.11</ele>
        <time>2019-10-31T08:36:02Z</time>
      </trkpt>
      <trkpt lat="41.323710" lon="1.147630">
        <ele>620.12</ele>
        <time>2019-10-31T08:36:22Z</time>
      </trkpt>
      <trkpt lat="41.323900" lon="1.147610">
        <ele>620.20</ele>
        <time>2019-10-31T08:36:42Z</time>
      </trkpt>
      <trkpt lat="41.324110" lon="1.147620">
        <ele>633.56</ele>
        <time>2019-10-31T08:37:02Z</time>
      </trkpt>
      <trkpt lat="41.324520" lon="1.147740">
        <ele>633.59</ele>
        <time>2019-10-31T08:37:22Z</time>
      </trkpt>
      <trkpt lat="41.324610" lon="1.147810">
        <ele>633.54</ele>
        <time>2019-10-31T08:37:42Z</time>
      </trkpt>
      <trkpt lat="41.324630" lon="1.147880">
        <ele>633.53</ele>
        <time>2019-10-31T08:38:02Z</time>
      </trkpt>
      <trkpt lat="41.324610" lon="1.147950">
        <ele>633.54</ele>
        <time>2019-10-31T08:38:22Z</time>
      </trkpt>
      <trkpt lat="41.324540" lon="1.148040">
        <ele>633.56</ele>
        <time>2019-10-31T08:38:42Z</time>
      </trkpt>
      <trkpt lat="41.324470" lon="1.148190">
        <ele>633.57</ele>
        <time>2019-10-31T08:39:02Z</time>
      </trkpt>
      <trkpt lat="41.324440" lon="1.148320">
        <ele>633.51</ele>
        <time>2019-10-31T08:39:22Z</time>
      </trkpt>
      <trkpt lat="41.324490" lon="1.148610">
        <ele>633.51</ele>
        <time>2019-10-31T08:39:42Z</time>
      </trkpt>
      <trkpt lat="41.324570" lon="1.148780">
        <ele>633.51</ele>
        <time>2019-10-31T08:40:02Z</time>
      </trkpt>
      <trkpt lat="41.324610" lon="1.148830">
        <ele>633.55</ele>
        <time>2019-10-31T08:40:22Z</time>
      </trkpt>
      <trkpt lat="41.324250" lon="1.149270">
        <ele>633.53</ele>
        <time>2019-10-31T08:40:42Z</time>
      </trkpt>
      <trkpt lat="41.324020" lon="1.149660">
        <ele>633.51</ele>
        <time>2019-10-31T08:41:02Z</time>
      </trkpt>
      <trkpt lat="41.324040" lon="1.150170">
        <ele>623.37</ele>
        <time>2019-10-31T08:41:22Z</time>
      </trkpt>
      <trkpt lat="41.324210" lon="1.150950">
        <ele>623.37</ele>
        <time>2019-10-31T08:41:42Z</time>
      </trkpt>
      <trkpt lat="41.324380" lon="1.151730">
        <ele>623.35</ele>
        <time>2019-10-31T08:42:02Z</time>
      </trkpt>
      <trkpt lat="41.323845" lon="1.152310">
        <ele>612.33</ele>
        <time>2019-10-31T08:42:22Z</time>
      </trkpt>
      <trkpt lat="41.323310" lon="1.152890">
        <ele>598.89</ele>
        <time>2019-10-31T08:42:42Z</time>
      </trkpt>
      <trkpt lat="41.322825" lon="1.153045">
        <ele>592.96</ele>
        <time>2019-10-31T08:43:02Z</time>
      </trkpt>
      <trkpt lat="41.322340" lon="1.153200">
        <ele>590.96</ele>
        <time>2019-10-31T08:43:22Z</time>
      </trkpt>
      <trkpt lat="41.321750" lon="1.153835">
        <ele>580.21</ele>
        <time>2019-10-31T08:43:42Z</time>
      </trkpt>
      <trkpt lat="41.321160" lon="1.154470">
        <ele>572.91</ele>
        <time>2019-10-31T08:44:02Z</time>
      </trkpt>
      <trkpt lat="41.320830" lon="1.155060">
        <ele>569.54</ele>
        <time>2019-10-31T08:44:22Z</time>
      </trkpt>
      <trkpt lat="41.320510" lon="1.155730">
        <ele>560.39</ele>
        <time>2019-10-31T08:44:42Z</time>
      </trkpt>
      <trkpt lat="41.320420" lon="1.156000">
        <ele>557.34</ele>
        <time>2019-10-31T08:45:02Z</time>
      </trkpt>
      <trkpt lat="41.319990" lon="1.156440">
        <ele>546.44</ele>
        <time>2019-10-31T08:45:22Z</time>
      </trkpt>
      <trkpt lat="41.319560" lon="1.156880">
        <ele>543.36</ele>
        <time>2019-10-31T08:45:42Z</time>
      </trkpt>
      <trkpt lat="41.319480" lon="1.157230">
        <ele>543.16</ele>
        <time>2019-10-31T08:46:02Z</time>
      </trkpt>
      <trkpt lat="41.319370" lon="1.157830">
        <ele>542.45</ele>
        <time>2019-10-31T08:46:22Z</time>
      </trkpt>
      <trkpt lat="41.319400" lon="1.158870">
        <ele>536.86</ele>
        <time>2019-10-31T08:46:42Z</time>
      </trkpt>
      <trkpt lat="41.319440" lon="1.159195">
        <ele>522.94</ele>
        <time>2019-10-31T08:47:02Z</time>
      </trkpt>
      <trkpt lat="41.319440" lon="1.159195">
        <ele>522.92</ele>
        <time>2019-10-31T08:47:22Z</time>
      </trkpt>
      <trkpt lat="41.319447" lon="1.159200">
        <ele>522.81</ele>
        <time>2019-10-31T08:47:42Z</time>
      </trkpt>
      <trkpt lat="41.319447" lon="1.159199">
        <ele>522.81</ele>
        <time>2019-10-31T08:48:02Z</time>
      </trkpt>
      <trkpt lat="41.319451" lon="1.159197">
        <ele>522.72</ele>
        <time>2019-10-31T08:48:22Z</time>
      </trkpt>
      <trkpt lat="41.319455" lon="1.159198">
        <ele>522.75</ele>
        <time>2019-10-31T08:48:42Z</time>
      </trkpt>
      <trkpt lat="41.319459" lon="1.159196">
        <ele>522.79</ele>
        <time>2019-10-31T08:49:02Z</time>
      </trkpt>
      <trkpt lat="41.319464" lon="1.159194">
        <ele>522.64</ele>
        <time>2019-10-31T08:49:22Z</time>
      </trkpt>
      <trkpt lat="41.319469" lon="1.159195">
        <ele>522.66</ele>
        <time>2019-10-31T08:49:42Z</time>
      </trkpt>
      <trkpt lat="41.319476" lon="1.159197">
        <ele>522.53</ele>
        <time>2019-10-31T08:50:02Z</time>
      </trkpt>
      <trkpt lat="41.319482" lon="1.159198">
        <ele>522.59</ele>
        <time>2019-10-31T08:50:22Z</time>
      </trkpt>
      <trkpt lat="41.319483" lon="1.159199">
        <ele>522.59</ele>
        <time>2019-10-31T08:50:42Z</time>
      </trkpt>
      <trkpt lat="41.319479" lon="1.159204">
        <ele>522.29</ele>
        <time>2019-10-31T08:51:02Z</time>
      </trkpt>
      <trkpt lat="41.319481" lon="1.159209">
        <ele>522.26</ele>
        <time>2019-10-31T08:51:22Z</time>
      </trkpt>
      <trkpt lat="41.319486" lon="1.159212">
        <ele>522.23</ele>
        <time>2019-10-31T08:51:42Z</time>
      </trkpt>
      <trkpt lat="41.319492" lon="1.159215">
        <ele>522.11</ele>
        <time>2019-10-31T08:52:02Z</time>
      </trkpt>
      <trkpt lat="41.319494" lon="1.159217">
        <ele>521.97</ele>
        <time>2019-10-31T08:52:22Z</time>
      </trkpt>
      <trkpt lat="41.319501" lon="1.159224">
        <ele>521.84</ele>
        <time>2019-10-31T08:52:42Z</time>
      </trkpt>
      <trkpt lat="41.319507" lon="1.159229">
        <ele>521.78</ele>
        <time>2019-10-31T08:53:02Z</time>
      </trkpt>
      <trkpt lat="41.319513" lon="1.159232">
        <ele>521.43</ele>
        <time>2019-10-31T08:53:22Z</time>
      </trkpt>
      <trkpt lat="41.319523" lon="1.159238">
        <ele>521.45</ele>
        <time>2019-10-31T08:53:42Z</time>
      </trkpt>
      <trkpt lat="41.319537" lon="1.159248">
        <ele>521.04</ele>
        <time>2019-10-31T08:54:02Z</time>
      </trkpt>
      <trkpt lat="41.319549" lon="1.159258">
        <ele>520.72</ele>
        <time>2019-10-31T08:54:22Z</time>
      </trkpt>
      <trkpt lat="41.319558" lon="1.159263">
        <ele>520.65</ele>
        <time>2019-10-31T08:54:42Z</time>
      </trkpt>
      <trkpt lat="41.319572" lon="1.159270">
        <ele>520.32</ele>
        <time>2019-10-31T08:55:02Z</time>
      </trkpt>
      <trkpt lat="41.319588" lon="1.159272">
        <ele>520.20</ele>
        <time>2019-10-31T08:55:22Z</time>
      </trkpt>
      <trkpt lat="41.319597" lon="1.159276">
        <ele>520.12</ele>
        <time>2019-10-31T08:55:42Z</time>
      </trkpt>
      <trkpt lat="41.319605" lon="1.159281">
        <ele>520.01</ele>
        <time>2019-10-31T08:56:02Z</time>
      </trkpt>
      <trkpt lat="41.319609" lon="1.159291">
        <ele>519.86</ele>
        <time>2019-10-31T08:56:22Z</time>
      </trkpt>
      <trkpt lat="41.319625" lon="1.159289">
        <ele>519.67</ele>
        <time>2019-10-31T08:56:42Z</time>
      </trkpt>
      <trkpt lat="41.319623" lon="1.159312">
        <ele>519.28</ele>
        <time>2019-10-31T08:57:02Z</time>
      </trkpt>
      <trkpt lat="41.319631" lon="1.159317">
        <ele>519.24</ele>
        <time>2019-10-31T08:57:22Z</time>
      </trkpt>
      <trkpt lat="41.319639" lon="1.159307">
        <ele>519.39</ele>
        <time>2019-10-31T08:57:42Z</time>
      </trkpt>
      <trkpt lat="41.319643" lon="1.159311">
        <ele>519.20</ele>
        <time>2019-10-31T08:58:02Z</time>
      </trkpt>
      <trkpt lat="41.319645" lon="1.159312">
        <ele>519.18</ele>
        <time>2019-10-31T08:58:22Z</time>
      </trkpt>
      <trkpt lat="41.319651" lon="1.159319">
        <ele>519.04</ele>
        <time>2019-10-31T08:58:42Z</time>
      </trkpt>
      <trkpt lat="41.319655" lon="1.159329">
        <ele>518.85</ele>
        <time>2019-10-31T08:59:02Z</time>
      </trkpt>
      <trkpt lat="41.319660" lon="1.159332">
        <ele>518.83</ele>
        <time>2019-10-31T08:59:22Z</time>
      </trkpt>
      <trkpt lat="41.319667" lon="1.159332">
        <ele>518.72</ele>
        <time>2019-10-31T08:59:42Z</time>
      </trkpt>
      <trkpt lat="41.319668" lon="1.159338">
        <ele>518.51</ele>
        <time>2019-10-31T09:00:02Z</time>
      </trkpt>
      <trkpt lat="41.319671" lon="1.159343">
        <ele>518.52</ele>
        <time>2019-10-31T09:00:22Z</time>
      </trkpt>
      <trkpt lat="41.319672" lon="1.159347">
        <ele>518.38</ele>
        <time>2019-10-31T09:00:42Z</time>
      </trkpt>
      <trkpt lat="41.319673" lon="1.159353">
        <ele>518.35</ele>
        <time>2019-10-31T09:01:02Z</time>
      </trkpt>
      <trkpt lat="41.319673" lon="1.159371">
        <ele>518.15</ele>
        <time>2019-10-31T09:01:22Z</time>
      </trkpt>
      <trkpt lat="41.319686" lon="1.159385">
        <ele>517.87</ele>
        <time>2019-10-31T09:01:42Z</time>
      </trkpt>
      <trkpt lat="41.319697" lon="1.159398">
        <ele>517.57</ele>
        <time>2019-10-31T09:02:02Z</time>
      </trkpt>
      <trkpt lat="41.319703" lon="1.159406">
        <ele>517.39</ele>
        <time>2019-10-31T09:02:22Z</time>
      </trkpt>
      <trkpt lat="41.319708" lon="1.159412">
        <ele>517.19</ele>
        <time>2019-10-31T09:02:42Z</time>
      </trkpt>
      <trkpt lat="41.319706" lon="1.159419">
        <ele>517.11</ele>
        <time>2019-10-31T09:03:02Z</time>
      </trkpt>
      <trkpt lat="41.319708" lon="1.159421">
        <ele>517.15</ele>
        <time>2019-10-31T09:03:22Z</time>
      </trkpt>
      <trkpt lat="41.319695" lon="1.159432">
        <ele>516.91</ele>
        <time>2019-10-31T09:03:42Z</time>
      </trkpt>
      <trkpt lat="41.319699" lon="1.159438">
        <ele>516.71</ele>
        <time>2019-10-31T09:04:02Z</time>
      </trkpt>
      <trkpt lat="41.319701" lon="1.159449">
        <ele>516.76</ele>
        <time>2019-10-31T09:04:22Z</time>
      </trkpt>
      <trkpt lat="41.319703" lon="1.159455">
        <ele>516.57</ele>
        <time>2019-10-31T09:04:42Z</time>
      </trkpt>
      <trkpt lat="41.319705" lon="1.159469">
        <ele>516.33</ele>
        <time>2019-10-31T09:05:02Z</time>
      </trkpt>
      <trkpt lat="41.319707" lon="1.159478">
        <ele>516.13</ele>
        <time>2019-10-31T09:05:22Z</time>
      </trkpt>
      <trkpt lat="41.319714" lon="1.159484">
        <ele>516.19</ele>
        <time>2019-10-31T09:05:42Z</time>
      </trkpt>
      <trkpt lat="41.319728" lon="1.159482">
        <ele>516.02</ele>
        <time>2019-10-31T09:06:02Z</time>
      </trkpt>
      <trkpt lat="41.319728" lon="1.159493">
        <ele>515.88</ele>
        <time>2019-10-31T09:06:22Z</time>
      </trkpt>
      <trkpt lat="41.319733" lon="1.159496">
        <ele>515.84</ele>
        <time>2019-10-31T09:06:42Z</time>
      </trkpt>
      <trkpt lat="41.319734" lon="1.159515">
        <ele>515.62</ele>
        <time>2019-10-31T09:07:02Z</time>
      </trkpt>
      <trkpt lat="41.319738" lon="1.159515">
        <ele>515.68</ele>
        <time>2019-10-31T09:07:22Z</time>
      </trkpt>
      <trkpt lat="41.319746" lon="1.159516">
        <ele>515.41</ele>
        <time>2019-10-31T09:07:42Z</time>
      </trkpt>
      <trkpt lat="41.319750" lon="1.159521">
        <ele>515.41</ele>
        <time>2019-10-31T09:08:02Z</time>
      </trkpt>
      <trkpt lat="41.319754" lon="1.159522">
        <ele>515.42</ele>
        <time>2019-10-31T09:08:22Z</time>
      </trkpt>
      <trkpt lat="41.319757" lon="1.159531">
        <ele>515.26</ele>
        <time>2019-10-31T09:08:42Z</time>
      </trkpt>
      <trkpt lat="41.319759" lon="1.159539">
        <ele>515.24</ele>
        <time>2019-10-31T09:09:02Z</time>
      </trkpt>
      <trkpt lat="41.319761" lon="1.159546">
        <ele>515.02</ele>
        <time>2019-10-31T09:09:22Z</time>
      </trkpt>
      <trkpt lat="41.319764" lon="1.159553">
        <ele>515.08</ele>
        <time>2019-10-31T09:09:42Z</time>
      </trkpt>
      <trkpt lat="41.319767" lon="1.159556">
        <ele>514.82</ele>
        <time>2019-10-31T09:10:02Z</time>
      </trkpt>
      <trkpt lat="41.319770" lon="1.159563">
        <ele>514.89</ele>
        <time>2019-10-31T09:10:22Z</time>
      </trkpt>
      <trkpt lat="41.319770" lon="1.159576">
        <ele>514.63</ele>
        <time>2019-10-31T09:10:42Z</time>
      </trkpt>
      <trkpt lat="41.319795" lon="1.159577">
        <ele>514.53</ele>
        <time>2019-10-31T09:11:02Z</time>
      </trkpt>
      <trkpt lat="41.319798" lon="1.159577">
        <ele>514.59</ele>
        <time>2019-10-31T09:11:22Z</time>
      </trkpt>
      <trkpt lat="41.319797" lon="1.159572">
        <ele>514.51</ele>
        <time>2019-10-31T09:11:42Z</time>
      </trkpt>
      <trkpt lat="41.319800" lon="1.159571">
        <ele>514.51</ele>
        <time>2019-10-31T09:12:02Z</time>
      </trkpt>
      <trkpt lat="41.319801" lon="1.159575">
        <ele>514.56</ele>
        <time>2019-10-31T09:12:22Z</time>
      </trkpt>
      <trkpt lat="41.319803" lon="1.159578">
        <ele>514.53</ele>
        <time>2019-10-31T09:12:42Z</time>
      </trkpt>
      <trkpt lat="41.319805" lon="1.159584">
        <ele>514.47</ele>
        <time>2019-10-31T09:13:02Z</time>
      </trkpt>
      <trkpt lat="41.319805" lon="1.159593">
        <ele>514.41</ele>
        <time>2019-10-31T09:13:22Z</time>
      </trkpt>
      <trkpt lat="41.319798" lon="1.159619">
        <ele>514.05</ele>
        <time>2019-10-31T09:13:42Z</time>
      </trkpt>
      <trkpt lat="41.319800" lon="1.159622">
        <ele>513.82</ele>
        <time>2019-10-31T09:14:02Z</time>
      </trkpt>
      <trkpt lat="41.319795" lon="1.159630">
        <ele>513.86</ele>
        <time>2019-10-31T09:14:22Z</time>
      </trkpt>
      <trkpt lat="41.319792" lon="1.159638">
        <ele>513.75</ele>
        <time>2019-10-31T09:14:42Z</time>
      </trkpt>
      <trkpt lat="41.319788" lon="1.159654">
        <ele>513.54</ele>
        <time>2019-10-31T09:15:02Z</time>
      </trkpt>
      <trkpt lat="41.319783" lon="1.159669">
        <ele>513.32</ele>
        <time>2019-10-31T09:15:22Z</time>
      </trkpt>
      <trkpt lat="41.319780" lon="1.159685">
        <ele>513.12</ele>
        <time>2019-10-31T09:15:42Z</time>
      </trkpt>
      <trkpt lat="41.319779" lon="1.159702">
        <ele>512.81</ele>
        <time>2019-10-31T09:16:02Z</time>
      </trkpt>
      <trkpt lat="41.319777" lon="1.159713">
        <ele>512.62</ele>
        <time>2019-10-31T09:16:22Z</time>
      </trkpt>
      <trkpt lat="41.319781" lon="1.159727">
        <ele>512.46</ele>
        <time>2019-10-31T09:16:42Z</time>
      </trkpt>
      <trkpt lat="41.319787" lon="1.159743">
        <ele>512.35</ele>
        <time>2019-10-31T09:17:02Z</time>
      </trkpt>
      <trkpt lat="41.319784" lon="1.159752">
        <ele>512.15</ele>
        <time>2019-10-31T09:17:22Z</time>
      </trkpt>
      <trkpt lat="41.319787" lon="1.159754">
        <ele>512.16</ele>
        <time>2019-10-31T09:17:42Z</time>
      </trkpt>
      <trkpt lat="41.319816" lon="1.159778">
        <ele>511.84</ele>
        <time>2019-10-31T09:18:02Z</time>
      </trkpt>
      <trkpt lat="41.319819" lon="1.159787">
        <ele>511.84</ele>
        <time>2019-10-31T09:18:22Z</time>
      </trkpt>
      <trkpt lat="41.319817" lon="1.159777">
        <ele>511.88</ele>
        <time>2019-10-31T09:18:42Z</time>
      </trkpt>
      <trkpt lat="41.319816" lon="1.159771">
        <ele>512.10</ele>
        <time>2019-10-31T09:19:02Z</time>
      </trkpt>
      <trkpt lat="41.319822" lon="1.159784">
        <ele>511.83</ele>
        <time>2019-10-31T09:19:22Z</time>
      </trkpt>
      <trkpt lat="41.319823" lon="1.159784">
        <ele>511.82</ele>
        <time>2019-10-31T09:19:42Z</time>
      </trkpt>
      <trkpt lat="41.319830" lon="1.159780">
        <ele>511.81</ele>
        <time>2019-10-31T09:20:02Z</time>
      </trkpt>
      <trkpt lat="41.319832" lon="1.159777">
        <ele>511.82</ele>
        <time>2019-10-31T09:20:22Z</time>
      </trkpt>
      <trkpt lat="41.319832" lon="1.159777">
        <ele>511.82</ele>
        <time>2019-10-31T09:20:42Z</time>
      </trkpt>
      <trkpt lat="41.319837" lon="1.159773">
        <ele>512.10</ele>
        <time>2019-10-31T09:21:02Z</time>
      </trkpt>
      <trkpt lat="41.319842" lon="1.159771">
        <ele>512.02</ele>
        <time>2019-10-31T09:21:22Z</time>
      </trkpt>
      <trkpt lat="41.319844" lon="1.159768">
        <ele>512.02</ele>
        <time>2019-10-31T09:21:42Z</time>
      </trkpt>
      <trkpt lat="41.319842" lon="1.159767">
        <ele>512.07</ele>
        <time>2019-10-31T09:22:02Z</time>
      </trkpt>
      <trkpt lat="41.319847" lon="1.159765">
        <ele>512.03</ele>
        <time>2019-10-31T09:22:22Z</time>
      </trkpt>
      <trkpt lat="41.319849" lon="1.159767">
        <ele>512.07</ele>
        <time>2019-10-31T09:22:42Z</time>
      </trkpt>
      <trkpt lat="41.319856" lon="1.159764">
        <ele>512.05</ele>
        <time>2019-10-31T09:23:02Z</time>
      </trkpt>
      <trkpt lat="41.319861" lon="1.159770">
        <ele>512.00</ele>
        <time>2019-10-31T09:23:22Z</time>
      </trkpt>
      <trkpt lat="41.319879" lon="1.159772">
        <ele>512.11</ele>
        <time>2019-10-31T09:23:42Z</time>
      </trkpt>
      <trkpt lat="41.319887" lon="1.159777">
        <ele>511.91</ele>
        <time>2019-10-31T09:24:02Z</time>
      </trkpt>
      <trkpt lat="41.319892" lon="1.159783">
        <ele>511.95</ele>
        <time>2019-10-31T09:24:22Z</time>
      </trkpt>
      <trkpt lat="41.319899" lon="1.159789">
        <ele>511.95</ele>
        <time>2019-10-31T09:24:42Z</time>
      </trkpt>
      <trkpt lat="41.319908" lon="1.159791">
        <ele>511.81</ele>
        <time>2019-10-31T09:25:02Z</time>
      </trkpt>
      <trkpt lat="41.319917" lon="1.159790">
        <ele>511.86</ele>
        <time>2019-10-31T09:25:22Z</time>
      </trkpt>
      <trkpt lat="41.319923" lon="1.159789">
        <ele>512.01</ele>
        <time>2019-10-31T09:25:42Z</time>
      </trkpt>
      <trkpt lat="41.319929" lon="1.159786">
        <ele>512.08</ele>
        <time>2019-10-31T09:26:02Z</time>
      </trkpt>
      <trkpt lat="41.319933" lon="1.159779">
        <ele>512.08</ele>
        <time>2019-10-31T09:26:22Z</time>
      </trkpt>
      <trkpt lat="41.319941" lon="1.159779">
        <ele>512.07</ele>
        <time>2019-10-31T09:26:42Z</time>
      </trkpt>
      <trkpt lat="41.319949" lon="1.159781">
        <ele>512.05</ele>
        <time>2019-10-31T09:27:02Z</time>
      </trkpt>
      <trkpt lat="41.319962" lon="1.159778">
        <ele>512.11</ele>
        <time>2019-10-31T09:27:22Z</time>
      </trkpt>
      <trkpt lat="41.319972" lon="1.159769">
        <ele>512.22</ele>
        <time>2019-10-31T09:27:42Z</time>
      </trkpt>
      <trkpt lat="41.319987" lon="1.159764">
        <ele>512.21</ele>
        <time>2019-10-31T09:28:02Z</time>
      </trkpt>
      <trkpt lat="41.319993" lon="1.159759">
        <ele>512.44</ele>
        <time>2019-10-31T09:28:22Z</time>
      </trkpt>
      <trkpt lat="41.319998" lon="1.159753">
        <ele>512.45</ele>
        <time>2019-10-31T09:28:42Z</time>
      </trkpt>
      <trkpt lat="41.320004" lon="1.159750">
        <ele>512.57</ele>
        <time>2019-10-31T09:29:02Z</time>
      </trkpt>
      <trkpt lat="41.320011" lon="1.159749">
        <ele>512.59</ele>
        <time>2019-10-31T09:29:22Z</time>
      </trkpt>
      <trkpt lat="41.320018" lon="1.159744">
        <ele>512.53</ele>
        <time>2019-10-31T09:29:42Z</time>
      </trkpt>
      <trkpt lat="41.320022" lon="1.159748">
        <ele>512.53</ele>
        <time>2019-10-31T09:30:02Z</time>
      </trkpt>
      <trkpt lat="41.320028" lon="1.159749">
        <ele>512.59</ele>
        <time>2019-10-31T09:30:22Z</time>
      </trkpt>
      <trkpt lat="41.320032" lon="1.159748">
        <ele>512.57</ele>
        <time>2019-10-31T09:30:42Z</time>
      </trkpt>
      <trkpt lat="41.320038" lon="1.159747">
        <ele>512.55</ele>
        <time>2019-10-31T09:31:02Z</time>
      </trkpt>
      <trkpt lat="41.320112" lon="1.159761">
        <ele>512.40</ele>
        <time>2019-10-31T09:31:22Z</time>
      </trkpt>
      <trkpt lat="41.320193" lon="1.159818">
        <ele>511.82</ele>
        <time>2019-10-31T09:31:42Z</time>
      </trkpt>
      <trkpt lat="41.320221" lon="1.159833">
        <ele>511.61</ele>
        <time>2019-10-31T09:32:02Z</time>
      </trkpt>
      <trkpt lat="41.320259" lon="1.159869">
        <ele>511.38</ele>
        <time>2019-10-31T09:32:22Z</time>
      </trkpt>
      <trkpt lat="41.320283" lon="1.159923">
        <ele>510.83</ele>
        <time>2019-10-31T09:32:42Z</time>
      </trkpt>
      <trkpt lat="41.320277" lon="1.160001">
        <ele>510.05</ele>
        <time>2019-10-31T09:33:02Z</time>
      </trkpt>
      <trkpt lat="41.320282" lon="1.160051">
        <ele>509.44</ele>
        <time>2019-10-31T09:33:22Z</time>
      </trkpt>
      <trkpt lat="41.320224" lon="1.160157">
        <ele>508.23</ele>
        <time>2019-10-31T09:33:42Z</time>
      </trkpt>
      <trkpt lat="41.320190" lon="1.160327">
        <ele>506.23</ele>
        <time>2019-10-31T09:34:02Z</time>
      </trkpt>
      <trkpt lat="41.320272" lon="1.160424">
        <ele>505.56</ele>
        <time>2019-10-31T09:34:22Z</time>
      </trkpt>
      <trkpt lat="41.320364" lon="1.160505">
        <ele>505.05</ele>
        <time>2019-10-31T09:34:42Z</time>
      </trkpt>
      <trkpt lat="41.320389" lon="1.160612">
        <ele>504.10</ele>
        <time>2019-10-31T09:35:02Z</time>
      </trkpt>
      <trkpt lat="41.320444" lon="1.160722">
        <ele>503.32</ele>
        <time>2019-10-31T09:35:22Z</time>
      </trkpt>
      <trkpt lat="41.320450" lon="1.160855">
        <ele>502.13</ele>
        <time>2019-10-31T09:35:42Z</time>
      </trkpt>
      <trkpt lat="41.320422" lon="1.160971">
        <ele>500.71</ele>
        <time>2019-10-31T09:36:02Z</time>
      </trkpt>
      <trkpt lat="41.320377" lon="1.161108">
        <ele>498.53</ele>
        <time>2019-10-31T09:36:22Z</time>
      </trkpt>
      <trkpt lat="41.320415" lon="1.161240">
        <ele>497.61</ele>
        <time>2019-10-31T09:36:42Z</time>
      </trkpt>
      <trkpt lat="41.320462" lon="1.161356">
        <ele>497.32</ele>
        <time>2019-10-31T09:37:02Z</time>
      </trkpt>
      <trkpt lat="41.320445" lon="1.161506">
        <ele>495.51</ele>
        <time>2019-10-31T09:37:22Z</time>
      </trkpt>
      <trkpt lat="41.320444" lon="1.161600">
        <ele>494.42</ele>
        <time>2019-10-31T09:37:42Z</time>
      </trkpt>
      <trkpt lat="41.320460" lon="1.161730">
        <ele>493.89</ele>
        <time>2019-10-31T09:38:02Z</time>
      </trkpt>
      <trkpt lat="41.320544" lon="1.161840">
        <ele>495.53</ele>
        <time>2019-10-31T09:38:22Z</time>
      </trkpt>
      <trkpt lat="41.320641" lon="1.161850">
        <ele>498.38</ele>
        <time>2019-10-31T09:38:42Z</time>
      </trkpt>
      <trkpt lat="41.320735" lon="1.161821">
        <ele>501.22</ele>
        <time>2019-10-31T09:39:02Z</time>
      </trkpt>
      <trkpt lat="41.320825" lon="1.161803">
        <ele>504.01</ele>
        <time>2019-10-31T09:39:22Z</time>
      </trkpt>
      <trkpt lat="41.320864" lon="1.161890">
        <ele>505.22</ele>
        <time>2019-10-31T09:39:42Z</time>
      </trkpt>
      <trkpt lat="41.320850" lon="1.162019">
        <ele>504.91</ele>
        <time>2019-10-31T09:40:02Z</time>
      </trkpt>
      <trkpt lat="41.320768" lon="1.162102">
        <ele>502.19</ele>
        <time>2019-10-31T09:40:22Z</time>
      </trkpt>
      <trkpt lat="41.320752" lon="1.162228">
        <ele>501.44</ele>
        <time>2019-10-31T09:40:42Z</time>
      </trkpt>
      <trkpt lat="41.320755" lon="1.162350">
        <ele>501.59</ele>
        <time>2019-10-31T09:41:02Z</time>
      </trkpt>
      <trkpt lat="41.320806" lon="1.162450">
        <ele>503.81</ele>
        <time>2019-10-31T09:41:22Z</time>
      </trkpt>
      <trkpt lat="41.320844" lon="1.162583">
        <ele>502.12</ele>
        <time>2019-10-31T09:41:42Z</time>
      </trkpt>
      <trkpt lat="41.320899" lon="1.162696">
        <ele>498.88</ele>
        <time>2019-10-31T09:42:02Z</time>
      </trkpt>
      <trkpt lat="41.320980" lon="1.162765">
        <ele>498.66</ele>
        <time>2019-10-31T09:42:22Z</time>
      </trkpt>
      <trkpt lat="41.321045" lon="1.162839">
        <ele>497.72</ele>
        <time>2019-10-31T09:42:42Z</time>
      </trkpt>
      <trkpt lat="41.321101" lon="1.162915">
        <ele>496.89</ele>
        <time>2019-10-31T09:43:02Z</time>
      </trkpt>
      <trkpt lat="41.321134" lon="1.163034">
        <ele>493.86</ele>
        <time>2019-10-31T09:43:22Z</time>
      </trkpt>
      <trkpt lat="41.321175" lon="1.163119">
        <ele>492.63</ele>
        <time>2019-10-31T09:43:42Z</time>
      </trkpt>
      <trkpt lat="41.321190" lon="1.163299">
        <ele>487.31</ele>
        <time>2019-10-31T09:44:02Z</time>
      </trkpt>
      <trkpt lat="41.321239" lon="1.163410">
        <ele>484.95</ele>
        <time>2019-10-31T09:44:22Z</time>
      </trkpt>
      <trkpt lat="41.321301" lon="1.163492">
        <ele>484.28</ele>
        <time>2019-10-31T09:44:42Z</time>
      </trkpt>
      <trkpt lat="41.321373" lon="1.163537">
        <ele>485.46</ele>
        <time>2019-10-31T09:45:02Z</time>
      </trkpt>
      <trkpt lat="41.321444" lon="1.163597">
        <ele>485.69</ele>
        <time>2019-10-31T09:45:22Z</time>
      </trkpt>
      <trkpt lat="41.321520" lon="1.163765">
        <ele>481.25</ele>
        <time>2019-10-31T09:45:42Z</time>
      </trkpt>
      <trkpt lat="41.321614" lon="1.163749">
        <ele>485.59</ele>
        <time>2019-10-31T09:46:02Z</time>
      </trkpt>
      <trkpt lat="41.321669" lon="1.163836">
        <ele>484.20</ele>
        <time>2019-10-31T09:46:22Z</time>
      </trkpt>
      <trkpt lat="41.321739" lon="1.163827">
        <ele>484.61</ele>
        <time>2019-10-31T09:46:42Z</time>
      </trkpt>
      <trkpt lat="41.321768" lon="1.163902">
        <ele>482.11</ele>
        <time>2019-10-31T09:47:02Z</time>
      </trkpt>
      <trkpt lat="41.321767" lon="1.164066">
        <ele>475.05</ele>
        <time>2019-10-31T09:47:22Z</time>
      </trkpt>
      <trkpt lat="41.321874" lon="1.163998">
        <ele>479.11</ele>
        <time>2019-10-31T09:47:42Z</time>
      </trkpt>
      <trkpt lat="41.321915" lon="1.164068">
        <ele>477.21</ele>
        <time>2019-10-31T09:48:02Z</time>
      </trkpt>
      <trkpt lat="41.321893" lon="1.164175">
        <ele>472.87</ele>
        <time>2019-10-31T09:48:22Z</time>
      </trkpt>
      <trkpt lat="41.321926" lon="1.164297">
        <ele>471.27</ele>
        <time>2019-10-31T09:48:42Z</time>
      </trkpt>
      <trkpt lat="41.321995" lon="1.164415">
        <ele>470.62</ele>
        <time>2019-10-31T09:49:02Z</time>
      </trkpt>
      <trkpt lat="41.322103" lon="1.164506">
        <ele>471.52</ele>
        <time>2019-10-31T09:49:22Z</time>
      </trkpt>
      <trkpt lat="41.322230" lon="1.164429">
        <ele>475.37</ele>
        <time>2019-10-31T09:49:42Z</time>
      </trkpt>
      <trkpt lat="41.322302" lon="1.164294">
        <ele>478.43</ele>
        <time>2019-10-31T09:50:02Z</time>
      </trkpt>
      <trkpt lat="41.322327" lon="1.164324">
        <ele>478.46</ele>
        <time>2019-10-31T09:50:22Z</time>
      </trkpt>
      <trkpt lat="41.322377" lon="1.164437">
        <ele>478.36</ele>
        <time>2019-10-31T09:50:42Z</time>
      </trkpt>
      <trkpt lat="41.322441" lon="1.164535">
        <ele>478.64</ele>
        <time>2019-10-31T09:51:02Z</time>
      </trkpt>
      <trkpt lat="41.322533" lon="1.164562">
        <ele>480.12</ele>
        <time>2019-10-31T09:51:22Z</time>
      </trkpt>
      <trkpt lat="41.322587" lon="1.164636">
        <ele>480.12</ele>
        <time>2019-10-31T09:51:42Z</time>
      </trkpt>
      <trkpt lat="41.322558" lon="1.164778">
        <ele>478.51</ele>
        <time>2019-10-31T09:52:02Z</time>
      </trkpt>
      <trkpt lat="41.322594" lon="1.164923">
        <ele>477.82</ele>
        <time>2019-10-31T09:52:22Z</time>
      </trkpt>
      <trkpt lat="41.322545" lon="1.165057">
        <ele>475.58</ele>
        <time>2019-10-31T09:52:42Z</time>
      </trkpt>
      <trkpt lat="41.322517" lon="1.165183">
        <ele>472.63</ele>
        <time>2019-10-31T09:53:02Z</time>
      </trkpt>
      <trkpt lat="41.322630" lon="1.165183">
        <ele>474.13</ele>
        <time>2019-10-31T09:53:22Z</time>
      </trkpt>
      <trkpt lat="41.322633" lon="1.165287">
        <ele>472.27</ele>
        <time>2019-10-31T09:53:42Z</time>
      </trkpt>
      <trkpt lat="41.322684" lon="1.165388">
        <ele>471.39</ele>
        <time>2019-10-31T09:54:02Z</time>
      </trkpt>
      <trkpt lat="41.322737" lon="1.165488">
        <ele>470.36</ele>
        <time>2019-10-31T09:54:22Z</time>
      </trkpt>
      <trkpt lat="41.322813" lon="1.165569">
        <ele>470.32</ele>
        <time>2019-10-31T09:54:42Z</time>
      </trkpt>
      <trkpt lat="41.322911" lon="1.165613">
        <ele>471.46</ele>
        <time>2019-10-31T09:55:02Z</time>
      </trkpt>
      <trkpt lat="41.322968" lon="1.165719">
        <ele>470.97</ele>
        <time>2019-10-31T09:55:22Z</time>
      </trkpt>
      <trkpt lat="41.322983" lon="1.165842">
        <ele>469.51</ele>
        <time>2019-10-31T09:55:42Z</time>
      </trkpt>
      <trkpt lat="41.323030" lon="1.165944">
        <ele>468.51</ele>
        <time>2019-10-31T09:56:02Z</time>
      </trkpt>
      <trkpt lat="41.323016" lon="1.166069">
        <ele>465.76</ele>
        <time>2019-10-31T09:56:22Z</time>
      </trkpt>
      <trkpt lat="41.323102" lon="1.166123">
        <ele>467.22</ele>
        <time>2019-10-31T09:56:42Z</time>
      </trkpt>
      <trkpt lat="41.323153" lon="1.166214">
        <ele>467.31</ele>
        <time>2019-10-31T09:57:02Z</time>
      </trkpt>
      <trkpt lat="41.323169" lon="1.166281">
        <ele>466.82</ele>
        <time>2019-10-31T09:57:22Z</time>
      </trkpt>
      <trkpt lat="41.323227" lon="1.166299">
        <ele>468.65</ele>
        <time>2019-10-31T09:57:42Z</time>
      </trkpt>
      <trkpt lat="41.323316" lon="1.166272">
        <ele>471.89</ele>
        <time>2019-10-31T09:58:02Z</time>
      </trkpt>
      <trkpt lat="41.323390" lon="1.166212">
        <ele>474.84</ele>
        <time>2019-10-31T09:58:22Z</time>
      </trkpt>
      <trkpt lat="41.323449" lon="1.166242">
        <ele>476.36</ele>
        <time>2019-10-31T09:58:42Z</time>
      </trkpt>
      <trkpt lat="41.323445" lon="1.166315">
        <ele>475.33</ele>
        <time>2019-10-31T09:59:02Z</time>
      </trkpt>
      <trkpt lat="41.323492" lon="1.166383">
        <ele>476.09</ele>
        <time>2019-10-31T09:59:22Z</time>
      </trkpt>
      <trkpt lat="41.323537" lon="1.166421">
        <ele>476.91</ele>
        <time>2019-10-31T09:59:42Z</time>
      </trkpt>
      <trkpt lat="41.323598" lon="1.166516">
        <ele>477.61</ele>
        <time>2019-10-31T10:00:02Z</time>
      </trkpt>
      <trkpt lat="41.323657" lon="1.166455">
        <ele>480.25</ele>
        <time>2019-10-31T10:00:22Z</time>
      </trkpt>
      <trkpt lat="41.323729" lon="1.166435">
        <ele>482.55</ele>
        <time>2019-10-31T10:00:42Z</time>
      </trkpt>
      <trkpt lat="41.323774" lon="1.166490">
        <ele>483.23</ele>
        <time>2019-10-31T10:01:02Z</time>
      </trkpt>
      <trkpt lat="41.323755" lon="1.166589">
        <ele>481.29</ele>
        <time>2019-10-31T10:01:22Z</time>
      </trkpt>
      <trkpt lat="41.323702" lon="1.166680">
        <ele>478.47</ele>
        <time>2019-10-31T10:01:42Z</time>
      </trkpt>
      <trkpt lat="41.323766" lon="1.166771">
        <ele>479.02</ele>
        <time>2019-10-31T10:02:02Z</time>
      </trkpt>
      <trkpt lat="41.323762" lon="1.166895">
        <ele>477.39</ele>
        <time>2019-10-31T10:02:22Z</time>
      </trkpt>
      <trkpt lat="41.323851" lon="1.166926">
        <ele>479.48</ele>
        <time>2019-10-31T10:02:42Z</time>
      </trkpt>
      <trkpt lat="41.323926" lon="1.167012">
        <ele>480.52</ele>
        <time>2019-10-31T10:03:02Z</time>
      </trkpt>
      <trkpt lat="41.323929" lon="1.167136">
        <ele>478.90</ele>
        <time>2019-10-31T10:03:22Z</time>
      </trkpt>
      <trkpt lat="41.323970" lon="1.167279">
        <ele>478.12</ele>
        <time>2019-10-31T10:03:42Z</time>
      </trkpt>
      <trkpt lat="41.324061" lon="1.167303">
        <ele>480.51</ele>
        <time>2019-10-31T10:04:02Z</time>
      </trkpt>
      <trkpt lat="41.324071" lon="1.167427">
        <ele>479.29</ele>
        <time>2019-10-31T10:04:22Z</time>
      </trkpt>
      <trkpt lat="41.324110" lon="1.167540">
        <ele>478.77</ele>
        <time>2019-10-31T10:04:42Z</time>
      </trkpt>
      <trkpt lat="41.324148" lon="1.167649">
        <ele>477.98</ele>
        <time>2019-10-31T10:05:02Z</time>
      </trkpt>
      <trkpt lat="41.324199" lon="1.167699">
        <ele>477.91</ele>
        <time>2019-10-31T10:05:22Z</time>
      </trkpt>
      <trkpt lat="41.324224" lon="1.167810">
        <ele>476.59</ele>
        <time>2019-10-31T10:05:42Z</time>
      </trkpt>
      <trkpt lat="41.324302" lon="1.167857">
        <ele>476.75</ele>
        <time>2019-10-31T10:06:02Z</time>
      </trkpt>
      <trkpt lat="41.324320" lon="1.168015">
        <ele>474.22</ele>
        <time>2019-10-31T10:06:22Z</time>
      </trkpt>
      <trkpt lat="41.324318" lon="1.168142">
        <ele>472.06</ele>
        <time>2019-10-31T10:06:42Z</time>
      </trkpt>
      <trkpt lat="41.324310" lon="1.168265">
        <ele>469.86</ele>
        <time>2019-10-31T10:07:02Z</time>
      </trkpt>
      <trkpt lat="41.324329" lon="1.168365">
        <ele>468.20</ele>
        <time>2019-10-31T10:07:22Z</time>
      </trkpt>
      <trkpt lat="41.324334" lon="1.168431">
        <ele>466.92</ele>
        <time>2019-10-31T10:07:42Z</time>
      </trkpt>
      <trkpt lat="41.324320" lon="1.168529">
        <ele>464.51</ele>
        <time>2019-10-31T10:08:02Z</time>
      </trkpt>
      <trkpt lat="41.324318" lon="1.168641">
        <ele>462.39</ele>
        <time>2019-10-31T10:08:22Z</time>
      </trkpt>
      <trkpt lat="41.324366" lon="1.168778">
        <ele>460.22</ele>
        <time>2019-10-31T10:08:42Z</time>
      </trkpt>
      <trkpt lat="41.324403" lon="1.168930">
        <ele>457.74</ele>
        <time>2019-10-31T10:09:02Z</time>
      </trkpt>
      <trkpt lat="41.324454" lon="1.168985">
        <ele>457.63</ele>
        <time>2019-10-31T10:09:22Z</time>
      </trkpt>
      <trkpt lat="41.324456" lon="1.169087">
        <ele>455.55</ele>
        <time>2019-10-31T10:09:42Z</time>
      </trkpt>
      <trkpt lat="41.324484" lon="1.169189">
        <ele>454.29</ele>
        <time>2019-10-31T10:10:02Z</time>
      </trkpt>
      <trkpt lat="41.324562" lon="1.169291">
        <ele>453.14</ele>
        <time>2019-10-31T10:10:22Z</time>
      </trkpt>
      <trkpt lat="41.324655" lon="1.169397">
        <ele>452.18</ele>
        <time>2019-10-31T10:10:42Z</time>
      </trkpt>
      <trkpt lat="41.324754" lon="1.169396">
        <ele>454.05</ele>
        <time>2019-10-31T10:11:02Z</time>
      </trkpt>
      <trkpt lat="41.324863" lon="1.169700">
        <ele>447.45</ele>
        <time>2019-10-31T10:11:22Z</time>
      </trkpt>
      <trkpt lat="41.324802" lon="1.169808">
        <ele>443.51</ele>
        <time>2019-10-31T10:11:42Z</time>
      </trkpt>
      <trkpt lat="41.324779" lon="1.169925">
        <ele>439.91</ele>
        <time>2019-10-31T10:12:02Z</time>
      </trkpt>
      <trkpt lat="41.324732" lon="1.170018">
        <ele>436.78</ele>
        <time>2019-10-31T10:12:22Z</time>
      </trkpt>
      <trkpt lat="41.324704" lon="1.170114">
        <ele>432.98</ele>
        <time>2019-10-31T10:12:42Z</time>
      </trkpt>
      <trkpt lat="41.324652" lon="1.170193">
        <ele>429.68</ele>
        <time>2019-10-31T10:13:02Z</time>
      </trkpt>
      <trkpt lat="41.324583" lon="1.170289">
        <ele>425.75</ele>
        <time>2019-10-31T10:13:22Z</time>
      </trkpt>
      <trkpt lat="41.324500" lon="1.170436">
        <ele>421.13</ele>
        <time>2019-10-31T10:13:42Z</time>
      </trkpt>
      <trkpt lat="41.324475" lon="1.170580">
        <ele>417.01</ele>
        <time>2019-10-31T10:14:02Z</time>
      </trkpt>
      <trkpt lat="41.324505" lon="1.170700">
        <ele>413.46</ele>
        <time>2019-10-31T10:14:22Z</time>
      </trkpt>
      <trkpt lat="41.324521" lon="1.170892">
        <ele>407.01</ele>
        <time>2019-10-31T10:14:42Z</time>
      </trkpt>
      <trkpt lat="41.324555" lon="1.170978">
        <ele>403.28</ele>
        <time>2019-10-31T10:15:02Z</time>
      </trkpt>
      <trkpt lat="41.324547" lon="1.171132">
        <ele>397.52</ele>
        <time>2019-10-31T10:15:22Z</time>
      </trkpt>
      <trkpt lat="41.324534" lon="1.171337">
        <ele>390.62</ele>
        <time>2019-10-31T10:15:42Z</time>
      </trkpt>
      <trkpt lat="41.324605" lon="1.171386">
        <ele>387.11</ele>
        <time>2019-10-31T10:16:02Z</time>
      </trkpt>
      <trkpt lat="41.324705" lon="1.171403">
        <ele>384.44</ele>
        <time>2019-10-31T10:16:22Z</time>
      </trkpt>
      <trkpt lat="41.324733" lon="1.171490">
        <ele>380.25</ele>
        <time>2019-10-31T10:16:42Z</time>
      </trkpt>
      <trkpt lat="41.324659" lon="1.171666">
        <ele>374.96</ele>
        <time>2019-10-31T10:17:02Z</time>
      </trkpt>
      <trkpt lat="41.324580" lon="1.171796">
        <ele>373.36</ele>
        <time>2019-10-31T10:17:22Z</time>
      </trkpt>
      <trkpt lat="41.324570" lon="1.171908">
        <ele>370.67</ele>
        <time>2019-10-31T10:17:42Z</time>
      </trkpt>
      <trkpt lat="41.324388" lon="1.172062">
        <ele>372.09</ele>
        <time>2019-10-31T10:18:02Z</time>
      </trkpt>
      <trkpt lat="41.324343" lon="1.172166">
        <ele>370.80</ele>
        <time>2019-10-31T10:18:22Z</time>
      </trkpt>
      <trkpt lat="41.324261" lon="1.172192">
        <ele>372.97</ele>
        <time>2019-10-31T10:18:42Z</time>
      </trkpt>
      <trkpt lat="41.324212" lon="1.172305">
        <ele>371.84</ele>
        <time>2019-10-31T10:19:02Z</time>
      </trkpt>
      <trkpt lat="41.324114" lon="1.172408">
        <ele>372.27</ele>
        <time>2019-10-31T10:19:22Z</time>
      </trkpt>
      <trkpt lat="41.324048" lon="1.172532">
        <ele>371.32</ele>
        <time>2019-10-31T10:19:42Z</time>
      </trkpt>
      <trkpt lat="41.324046" lon="1.172639">
        <ele>369.51</ele>
        <time>2019-10-31T10:20:02Z</time>
      </trkpt>
      <trkpt lat="41.324032" lon="1.172691">
        <ele>368.90</ele>
        <time>2019-10-31T10:20:22Z</time>
      </trkpt>
      <trkpt lat="41.323985" lon="1.172785">
        <ele>368.01</ele>
        <time>2019-10-31T10:20:42Z</time>
      </trkpt>
      <trkpt lat="41.323923" lon="1.172963">
        <ele>366.52</ele>
        <time>2019-10-31T10:21:02Z</time>
      </trkpt>
      <trkpt lat="41.323895" lon="1.173056">
        <ele>365.62</ele>
        <time>2019-10-31T10:21:22Z</time>
      </trkpt>
      <trkpt lat="41.323869" lon="1.173131">
        <ele>364.98</ele>
        <time>2019-10-31T10:21:42Z</time>
      </trkpt>
      <trkpt lat="41.323823" lon="1.173415">
        <ele>360.96</ele>
        <time>2019-10-31T10:22:02Z</time>
      </trkpt>
      <trkpt lat="41.323791" lon="1.173661">
        <ele>357.09</ele>
        <time>2019-10-31T10:22:22Z</time>
      </trkpt>
      <trkpt lat="41.323779" lon="1.173816">
        <ele>354.54</ele>
        <time>2019-10-31T10:22:42Z</time>
      </trkpt>
      <trkpt lat="41.323762" lon="1.173939">
        <ele>352.97</ele>
        <time>2019-10-31T10:23:02Z</time>
      </trkpt>
      <trkpt lat="41.323650" lon="1.174099">
        <ele>354.58</ele>
        <time>2019-10-31T10:23:22Z</time>
      </trkpt>
      <trkpt lat="41.323674" lon="1.174216">
        <ele>351.22</ele>
        <time>2019-10-31T10:23:42Z</time>
      </trkpt>
      <trkpt lat="41.323666" lon="1.174270">
        <ele>349.91</ele>
        <time>2019-10-31T10:24:02Z</time>
      </trkpt>
      <trkpt lat="41.323630" lon="1.174387">
        <ele>348.59</ele>
        <time>2019-10-31T10:24:22Z</time>
      </trkpt>
      <trkpt lat="41.323626" lon="1.174452">
        <ele>347.27</ele>
        <time>2019-10-31T10:24:42Z</time>
      </trkpt>
      <trkpt lat="41.323602" lon="1.174644">
        <ele>343.72</ele>
        <time>2019-10-31T10:25:02Z</time>
      </trkpt>
      <trkpt lat="41.323432" lon="1.174994">
        <ele>344.09</ele>
        <time>2019-10-31T10:25:22Z</time>
      </trkpt>
      <trkpt lat="41.323253" lon="1.175503">
        <ele>333.25</ele>
        <time>2019-10-31T10:25:42Z</time>
      </trkpt>
      <trkpt lat="41.323050" lon="1.175971">
        <ele>325.16</ele>
        <time>2019-10-31T10:26:02Z</time>
      </trkpt>
      <trkpt lat="41.322847" lon="1.176418">
        <ele>320.13</ele>
        <time>2019-10-31T10:26:22Z</time>
      </trkpt>
      <trkpt lat="41.322675" lon="1.176740">
        <ele>318.23</ele>
        <time>2019-10-31T10:26:42Z</time>
      </trkpt>
      <trkpt lat="41.322504" lon="1.177021">
        <ele>313.55</ele>
        <time>2019-10-31T10:27:02Z</time>
      </trkpt>
      <trkpt lat="41.322269" lon="1.177291">
        <ele>309.49</ele>
        <time>2019-10-31T10:27:22Z</time>
      </trkpt>
      <trkpt lat="41.322160" lon="1.177551">
        <ele>306.22</ele>
        <time>2019-10-31T10:27:42Z</time>
      </trkpt>
      <trkpt lat="41.322004" lon="1.177873">
        <ele>303.21</ele>
        <time>2019-10-31T10:28:02Z</time>
      </trkpt>
      <trkpt lat="41.321848" lon="1.178091">
        <ele>303.69</ele>
        <time>2019-10-31T10:28:22Z</time>
      </trkpt>
      <trkpt lat="41.321692" lon="1.178382">
        <ele>302.53</ele>
        <time>2019-10-31T10:28:42Z</time>
      </trkpt>
      <trkpt lat="41.321583" lon="1.178632">
        <ele>297.97</ele>
        <time>2019-10-31T10:29:02Z</time>
      </trkpt>
      <trkpt lat="41.321419" lon="1.178943">
        <ele>296.08</ele>
        <time>2019-10-31T10:29:22Z</time>
      </trkpt>
      <trkpt lat="41.321291" lon="1.179828">
        <ele>280.42</ele>
        <time>2019-10-31T10:29:42Z</time>
      </trkpt>
      <trkpt lat="41.321274" lon="1.179872">
        <ele>265.00</ele>
        <time>2018-10-04T04:16:55.79Z</time>
      </trkpt>
      <trkpt lat="41.321000" lon="1.180491">
        <ele>267.00</ele>
        <time>2018-10-04T04:16:56.55Z</time>
      </trkpt>
      <trkpt lat="41.320808" lon="1.180573">
        <ele>277.92</ele>
        <time>2018-10-04T04:16:58.14Z</time>
      </trkpt>
      <trkpt lat="41.320760" lon="1.180440">
        <ele>283.00</ele>
        <time>2018-10-04T04:16:58.88Z</time>
      </trkpt>
      <trkpt lat="41.320490" lon="1.179820">
        <ele>301.00</ele>
        <time>2018-10-04T04:17:02.47Z</time>
      </trkpt>
      <trkpt lat="41.320430" lon="1.179430">
        <ele>306.00</ele>
        <time>2018-10-04T04:17:04.46Z</time>
      </trkpt>
      <trkpt lat="41.320490" lon="1.179210">
        <ele>310.00</ele>
        <time>2018-10-04T04:17:05.63Z</time>
      </trkpt>
      <trkpt lat="41.320550" lon="1.179110">
        <ele>313.00</ele>
        <time>2018-10-04T04:17:06.27Z</time>
      </trkpt>
      <trkpt lat="41.320670" lon="1.179040">
        <ele>317.00</ele>
        <time>2018-10-04T04:17:07.15Z</time>
      </trkpt>
      <trkpt lat="41.320850" lon="1.178700">
        <ele>323.00</ele>
        <time>2018-10-04T04:17:09.23Z</time>
      </trkpt>
      <trkpt lat="41.320850" lon="1.178540">
        <ele>324.00</ele>
        <time>2018-10-04T04:17:10.03Z</time>
      </trkpt>
      <trkpt lat="41.320930" lon="1.178430">
        <ele>322.00</ele>
        <time>2018-10-04T04:17:10.80Z</time>
      </trkpt>
      <trkpt lat="41.320910" lon="1.178340">
        <ele>323.00</ele>
        <time>2018-10-04T04:17:11.27Z</time>
      </trkpt>
      <trkpt lat="41.321100" lon="1.178010">
        <ele>314.00</ele>
        <time>2018-10-04T04:17:13.35Z</time>
      </trkpt>
      <trkpt lat="41.320950" lon="1.178060">
        <ele>315.00</ele>
        <time>2018-10-04T04:17:14.38Z</time>
      </trkpt>
      <trkpt lat="41.320810" lon="1.178070">
        <ele>315.00</ele>
        <time>2018-10-04T04:17:15.31Z</time>
      </trkpt>
      <trkpt lat="41.320580" lon="1.178290">
        <ele>306.00</ele>
        <time>2018-10-04T04:17:17.20Z</time>
      </trkpt>
      <trkpt lat="41.320330" lon="1.178580">
        <ele>296.00</ele>
        <time>2018-10-04T04:17:19.41Z</time>
      </trkpt>
      <trkpt lat="41.320210" lon="1.178870">
        <ele>295.00</ele>
        <time>2018-10-04T04:17:21.07Z</time>
      </trkpt>
      <trkpt lat="41.320110" lon="1.179040">
        <ele>295.00</ele>
        <time>2018-10-04T04:17:22.15Z</time>
      </trkpt>
      <trkpt lat="41.319930" lon="1.178960">
        <ele>284.00</ele>
        <time>2018-10-04T04:17:23.42Z</time>
      </trkpt>
      <trkpt lat="41.319710" lon="1.179030">
        <ele>272.00</ele>
        <time>2018-10-04T04:17:24.93Z</time>
      </trkpt>
      <trkpt lat="41.319410" lon="1.179070">
        <ele>253.00</ele>
        <time>2018-10-04T04:17:26.94Z</time>
      </trkpt>
      <trkpt lat="41.319400" lon="1.179660">
        <ele>257.00</ele>
        <time>2018-10-04T04:17:29.89Z</time>
      </trkpt>
      <trkpt lat="41.319400" lon="1.180020">
        <ele>258.00</ele>
        <time>2018-10-04T04:17:31.69Z</time>
      </trkpt>
      <trkpt lat="41.319250" lon="1.181050">
        <ele>255.00</ele>
        <time>2018-10-04T04:17:36.95Z</time>
      </trkpt>
      <trkpt lat="41.319080" lon="1.181130">
        <ele>250.00</ele>
        <time>2018-10-04T04:17:38.15Z</time>
      </trkpt>
      <trkpt lat="41.318760" lon="1.180860">
        <ele>241.00</ele>
        <time>2018-10-04T04:17:40.67Z</time>
      </trkpt>
      <trkpt lat="41.318580" lon="1.180670">
        <ele>235.00</ele>
        <time>2018-10-04T04:17:42.20Z</time>
      </trkpt>
      <trkpt lat="41.318380" lon="1.180460">
        <ele>229.00</ele>
        <time>2018-10-04T04:17:43.90Z</time>
      </trkpt>
      <trkpt lat="41.318060" lon="1.180220">
        <ele>228.00</ele>
        <time>2018-10-04T04:17:46.35Z</time>
      </trkpt>
      <trkpt lat="41.317670" lon="1.180040">
        <ele>228.00</ele>
        <time>2018-10-04T04:17:49.10Z</time>
      </trkpt>
      <trkpt lat="41.317210" lon="1.179990">
        <ele>230.00</ele>
        <time>2018-10-04T04:17:52.18Z</time>
      </trkpt>
      <trkpt lat="41.317040" lon="1.180050">
        <ele>232.00</ele>
        <time>2018-10-04T04:17:53.35Z</time>
      </trkpt>
      <trkpt lat="41.316790" lon="1.180240">
        <ele>236.00</ele>
        <time>2018-10-04T04:17:55.27Z</time>
      </trkpt>
      <trkpt lat="41.316570" lon="1.180460">
        <ele>241.00</ele>
        <time>2018-10-04T04:17:57.11Z</time>
      </trkpt>
    </trkseg>
  </trk>
</gpx>
